PWSweather.com
Personal Weather Stations
Station Observations
BOOMEPH
Weather On The Hill Or Not, Ephrata, PA 17522

Weather On The Hill Or NotEphrata, PA 17522

Lat: 40.17243, Lon: -76.180815

Elevation: 597

Station Type: Ambient WS 1080

High Low Average
Temperature 70.3°F21.3°F 54.0°F12.2°F 62.3°F16.8°F
Dew Point 67.7°F19.8°F 54.0°F12.2°F 60.3°F15.7°F
Winds 19.0 mph SW30.6 mph SW Calm Calm 4.6 mph 7.4 mph
Wind Gusts 27.3 mph43.9 mph 2.2 mph3.5 mph 11.9 mph19.2 mph
Humidity 100% 68% 94%
Pressure 29.76 in1007.80 in 29.47 in998.00 in -
Precipitation 43.60 in1107.40 in - -
Hour Temp Dew Point Humidity Winds Wind Gusts Pressure Precip Precip Rate Daily Precip Total
12:00 AM 54.1°F12.3°C 54.1°F12.3°C 100% 4.5 mph SSW7.2 kmh SSW 12.1 mph19.5 kmh 29.76 in1007.8 mb 0.02 in0.5 mm 0.00 in/hr0.0 mm/hr 0.02 in0.5 mm
12:01 AM 54.1°F12.3°C 54.1°F12.3°C 100% 3.8 mph SSW6.1 kmh SSW 12.1 mph19.5 kmh 29.75 in1007.5 mb 0.02 in0.5 mm 0.00 in/hr0.0 mm/hr 0.02 in0.5 mm
12:02 AM 54.0°F12.2°C 54.0°F12.2°C 100% 5.4 mph SSW8.7 kmh SSW 12.1 mph19.5 kmh 29.75 in1007.5 mb 0.02 in0.5 mm 0.00 in/hr0.0 mm/hr 0.02 in0.5 mm
12:03 AM 54.1°F12.3°C 54.1°F12.3°C 100% 5.4 mph SSW8.7 kmh SSW 12.1 mph19.5 kmh 29.75 in1007.5 mb 0.02 in0.5 mm 0.00 in/hr0.0 mm/hr 0.02 in0.5 mm
12:04 AM 54.0°F12.2°C 54.0°F12.2°C 100% 3.1 mph SSW5.0 kmh SSW 12.1 mph19.5 kmh 29.75 in1007.5 mb 0.02 in0.5 mm 0.00 in/hr0.0 mm/hr 0.02 in0.5 mm
12:05 AM 54.0°F12.2°C 54.0°F12.2°C 100% 5.4 mph SSW8.7 kmh SSW 9.8 mph15.8 kmh 29.75 in1007.5 mb 0.02 in0.5 mm 0.00 in/hr0.0 mm/hr 0.02 in0.5 mm
12:06 AM 54.1°F12.3°C 54.1°F12.3°C 100% 6.0 mph S9.7 kmh S 9.8 mph15.8 kmh 29.75 in1007.5 mb 0.02 in0.5 mm 0.00 in/hr0.0 mm/hr 0.02 in0.5 mm
12:07 AM 54.1°F12.3°C 54.1°F12.3°C 100% 6.9 mph S11.1 kmh S 13.0 mph20.9 kmh 29.74 in1007.1 mb 0.02 in0.5 mm 0.00 in/hr0.0 mm/hr 0.02 in0.5 mm
12:08 AM 54.1°F12.3°C 54.1°F12.3°C 100% 4.5 mph S7.2 kmh S 13.0 mph20.9 kmh 29.74 in1007.1 mb 0.02 in0.5 mm 0.00 in/hr0.0 mm/hr 0.02 in0.5 mm
12:09 AM 54.1°F12.3°C 54.1°F12.3°C 100% 2.2 mph S3.5 kmh S 13.0 mph20.9 kmh 29.75 in1007.5 mb 0.05 in1.3 mm 1.80 in/hr45.7 mm/hr 0.02 in0.5 mm
12:10 AM 54.1°F12.3°C 54.1°F12.3°C 100% 1.6 mph S2.6 kmh S 13.0 mph20.9 kmh 29.74 in1007.1 mb 0.05 in1.3 mm 0.00 in/hr0.0 mm/hr 0.02 in0.5 mm
12:11 AM 54.1°F12.3°C 54.1°F12.3°C 100% 3.1 mph S5.0 kmh S 13.0 mph20.9 kmh 29.74 in1007.1 mb 0.05 in1.3 mm 0.00 in/hr0.0 mm/hr 0.02 in0.5 mm
12:12 AM 54.1°F12.3°C 54.1°F12.3°C 100% 4.5 mph S7.2 kmh S 13.0 mph20.9 kmh 29.74 in1007.1 mb 0.05 in1.3 mm 0.00 in/hr0.0 mm/hr 0.02 in0.5 mm
12:13 AM 54.1°F12.3°C 54.1°F12.3°C 100% 3.8 mph S6.1 kmh S 13.0 mph20.9 kmh 29.74 in1007.1 mb 0.05 in1.3 mm 0.00 in/hr0.0 mm/hr 0.02 in0.5 mm
12:14 AM 54.1°F12.3°C 54.1°F12.3°C 100% 5.4 mph S8.7 kmh S 13.0 mph20.9 kmh 29.74 in1007.1 mb 0.05 in1.3 mm 0.00 in/hr0.0 mm/hr 0.02 in0.5 mm
12:15 AM 54.1°F12.3°C 54.1°F12.3°C 100% 5.4 mph S8.7 kmh S 13.0 mph20.9 kmh 29.74 in1007.1 mb 0.05 in1.3 mm 0.00 in/hr0.0 mm/hr 0.02 in0.5 mm
12:16 AM 54.3°F12.4°C 54.3°F12.4°C 100% 6.9 mph SSW11.1 kmh SSW 13.0 mph20.9 kmh 29.74 in1007.1 mb 0.05 in1.3 mm 0.00 in/hr0.0 mm/hr 0.02 in0.5 mm
12:17 AM 54.3°F12.4°C 54.3°F12.4°C 100% 6.9 mph SSW11.1 kmh SSW 12.1 mph19.5 kmh 29.74 in1007.1 mb 0.07 in1.8 mm 1.20 in/hr30.5 mm/hr 0.05 in1.3 mm
12:18 AM 54.3°F12.4°C 54.3°F12.4°C 100% 3.1 mph SSW5.0 kmh SSW 12.1 mph19.5 kmh 29.73 in1006.8 mb 0.07 in1.8 mm 0.00 in/hr0.0 mm/hr 0.05 in1.3 mm
12:19 AM 54.3°F12.4°C 54.3°F12.4°C 100% 3.8 mph SSW6.1 kmh SSW 12.1 mph19.5 kmh 29.73 in1006.8 mb 0.07 in1.8 mm 0.00 in/hr0.0 mm/hr 0.05 in1.3 mm
12:20 AM 54.5°F12.5°C 54.5°F12.5°C 100% 6.0 mph S9.7 kmh S 12.1 mph19.5 kmh 29.73 in1006.8 mb 0.07 in1.8 mm 0.00 in/hr0.0 mm/hr 0.05 in1.3 mm
12:21 AM 54.5°F12.5°C 54.5°F12.5°C 100% 3.8 mph S6.1 kmh S 12.1 mph19.5 kmh 29.73 in1006.8 mb 0.07 in1.8 mm 0.00 in/hr0.0 mm/hr 0.05 in1.3 mm
12:22 AM 54.5°F12.5°C 54.5°F12.5°C 100% 3.1 mph S5.0 kmh S 12.1 mph19.5 kmh 29.73 in1006.8 mb 0.07 in1.8 mm 0.00 in/hr0.0 mm/hr 0.05 in1.3 mm
12:23 AM 54.5°F12.5°C 54.5°F12.5°C 100% 4.5 mph S7.2 kmh S 12.1 mph19.5 kmh 29.73 in1006.8 mb 0.07 in1.8 mm 0.00 in/hr0.0 mm/hr 0.05 in1.3 mm
12:24 AM 54.5°F12.5°C 54.5°F12.5°C 100% 9.2 mph SSW14.8 kmh SSW 12.1 mph19.5 kmh 29.73 in1006.8 mb 0.07 in1.8 mm 0.00 in/hr0.0 mm/hr 0.05 in1.3 mm
12:25 AM 54.5°F12.5°C 54.5°F12.5°C 100% 6.9 mph SSW11.1 kmh SSW 13.0 mph20.9 kmh 29.72 in1006.4 mb 0.09 in2.3 mm 1.20 in/hr30.5 mm/hr 0.07 in1.8 mm
12:26 AM 54.7°F12.6°C 54.7°F12.6°C 100% 7.6 mph S12.2 kmh S 13.0 mph20.9 kmh 29.72 in1006.4 mb 0.09 in2.3 mm 0.00 in/hr0.0 mm/hr 0.07 in1.8 mm
12:27 AM 54.7°F12.6°C 54.7°F12.6°C 100% 5.4 mph S8.7 kmh S 13.0 mph20.9 kmh 29.72 in1006.4 mb 0.09 in2.3 mm 0.00 in/hr0.0 mm/hr 0.07 in1.8 mm
12:28 AM 54.7°F12.6°C 54.7°F12.6°C 100% 6.9 mph SSW11.1 kmh SSW 13.0 mph20.9 kmh 29.72 in1006.4 mb 0.09 in2.3 mm 0.00 in/hr0.0 mm/hr 0.07 in1.8 mm
12:29 AM 54.7°F12.6°C 54.7°F12.6°C 100% 4.5 mph SSW7.2 kmh SSW 13.6 mph21.9 kmh 29.72 in1006.4 mb 0.09 in2.3 mm 0.00 in/hr0.0 mm/hr 0.07 in1.8 mm
12:30 AM 54.7°F12.6°C 54.7°F12.6°C 100% 3.8 mph SSW6.1 kmh SSW 13.6 mph21.9 kmh 29.72 in1006.4 mb 0.09 in2.3 mm 0.00 in/hr0.0 mm/hr 0.07 in1.8 mm
12:31 AM 54.7°F12.6°C 54.7°F12.6°C 100% 3.1 mph SSW5.0 kmh SSW 13.6 mph21.9 kmh 29.72 in1006.4 mb 0.09 in2.3 mm 0.00 in/hr0.0 mm/hr 0.07 in1.8 mm
12:32 AM 54.7°F12.6°C 54.7°F12.6°C 100% 3.8 mph SSW6.1 kmh SSW 13.6 mph21.9 kmh 29.72 in1006.4 mb 0.09 in2.3 mm 0.00 in/hr0.0 mm/hr 0.07 in1.8 mm
12:33 AM 54.7°F12.6°C 54.7°F12.6°C 100% 9.8 mph SSW15.8 kmh SSW 15.9 mph25.6 kmh 29.71 in1006.1 mb 0.12 in3.0 mm 1.80 in/hr45.7 mm/hr 0.09 in2.3 mm
12:34 AM 54.9°F12.7°C 54.9°F12.7°C 100% 6.9 mph SSW11.1 kmh SSW 15.9 mph25.6 kmh 29.71 in1006.1 mb 0.12 in3.0 mm 0.00 in/hr0.0 mm/hr 0.09 in2.3 mm
12:35 AM 54.9°F12.7°C 54.9°F12.7°C 100% 6.9 mph SSW11.1 kmh SSW 15.9 mph25.6 kmh 29.71 in1006.1 mb 0.12 in3.0 mm 0.00 in/hr0.0 mm/hr 0.09 in2.3 mm
12:36 AM 54.9°F12.7°C 54.9°F12.7°C 100% 5.4 mph SW8.7 kmh SW 15.9 mph25.6 kmh 29.71 in1006.1 mb 0.12 in3.0 mm 0.00 in/hr0.0 mm/hr 0.09 in2.3 mm
12:37 AM 54.9°F12.7°C 54.9°F12.7°C 100% 7.6 mph SW12.2 kmh SW 15.9 mph25.6 kmh 29.71 in1006.1 mb 0.12 in3.0 mm 0.00 in/hr0.0 mm/hr 0.09 in2.3 mm
12:38 AM 54.9°F12.7°C 54.9°F12.7°C 100% 8.3 mph SW13.4 kmh SW 15.9 mph25.6 kmh 29.71 in1006.1 mb 0.12 in3.0 mm 0.00 in/hr0.0 mm/hr 0.09 in2.3 mm
12:39 AM 55.0°F12.8°C 55.0°F12.8°C 100% 7.6 mph SW12.2 kmh SW 15.9 mph25.6 kmh 29.71 in1006.1 mb 0.12 in3.0 mm 0.00 in/hr0.0 mm/hr 0.09 in2.3 mm
12:40 AM 54.9°F12.7°C 54.9°F12.7°C 100% 9.2 mph SW14.8 kmh SW 15.9 mph25.6 kmh 29.71 in1006.1 mb 0.12 in3.0 mm 0.00 in/hr0.0 mm/hr 0.09 in2.3 mm
12:41 AM 55.0°F12.8°C 55.0°F12.8°C 100% 9.2 mph SW14.8 kmh SW 16.8 mph27.0 kmh 29.71 in1006.1 mb 0.14 in3.6 mm 1.20 in/hr30.5 mm/hr 0.12 in3.0 mm
12:42 AM 55.0°F12.8°C 55.0°F12.8°C 100% 8.3 mph SW13.4 kmh SW 16.8 mph27.0 kmh 29.70 in1005.8 mb 0.12 in3.0 mm 0.00 in/hr0.0 mm/hr 0.12 in3.0 mm
12:43 AM 55.0°F12.8°C 55.0°F12.8°C 100% 6.0 mph SW9.7 kmh SW 16.8 mph27.0 kmh 29.70 in1005.8 mb 0.12 in3.0 mm 0.00 in/hr0.0 mm/hr 0.12 in3.0 mm
12:44 AM 55.0°F12.8°C 55.0°F12.8°C 100% 6.9 mph SW11.1 kmh SW 16.8 mph27.0 kmh 29.70 in1005.8 mb 0.12 in3.0 mm 0.00 in/hr0.0 mm/hr 0.12 in3.0 mm
12:45 AM 55.0°F12.8°C 55.0°F12.8°C 100% 6.9 mph SW11.1 kmh SW 16.8 mph27.0 kmh 29.70 in1005.8 mb 0.12 in3.0 mm 0.00 in/hr0.0 mm/hr 0.12 in3.0 mm
12:46 AM 55.0°F12.8°C 55.0°F12.8°C 100% 6.0 mph SW9.7 kmh SW 16.8 mph27.0 kmh 29.70 in1005.8 mb 0.12 in3.0 mm 0.00 in/hr0.0 mm/hr 0.12 in3.0 mm
12:47 AM 55.0°F12.8°C 55.0°F12.8°C 100% 6.9 mph SW11.1 kmh SW 16.8 mph27.0 kmh 29.70 in1005.8 mb 0.14 in3.6 mm 1.20 in/hr30.5 mm/hr 0.14 in3.6 mm
12:48 AM 55.0°F12.8°C 55.0°F12.8°C 100% 6.0 mph SW9.7 kmh SW 16.8 mph27.0 kmh 29.70 in1005.8 mb 0.14 in3.6 mm 0.00 in/hr0.0 mm/hr 0.14 in3.6 mm
12:49 AM 55.0°F12.8°C 55.0°F12.8°C 100% 8.3 mph SW13.4 kmh SW 16.8 mph27.0 kmh 29.70 in1005.8 mb 0.14 in3.6 mm 0.00 in/hr0.0 mm/hr 0.14 in3.6 mm
12:50 AM 55.0°F12.8°C 55.0°F12.8°C 100% 7.6 mph SSW12.2 kmh SSW 16.8 mph27.0 kmh 29.70 in1005.8 mb 0.14 in3.6 mm 0.00 in/hr0.0 mm/hr 0.14 in3.6 mm
12:51 AM 55.0°F12.8°C 55.0°F12.8°C 100% 5.4 mph SW8.7 kmh SW 16.8 mph27.0 kmh 29.70 in1005.8 mb 0.14 in3.6 mm 0.00 in/hr0.0 mm/hr 0.14 in3.6 mm
12:52 AM 55.0°F12.8°C 55.0°F12.8°C 100% 9.8 mph SW15.8 kmh SW 16.8 mph27.0 kmh 29.69 in1005.4 mb 0.14 in3.6 mm 0.00 in/hr0.0 mm/hr 0.14 in3.6 mm
12:53 AM 55.0°F12.8°C 55.0°F12.8°C 100% 6.0 mph SW9.7 kmh SW 16.8 mph27.0 kmh 29.69 in1005.4 mb 0.14 in3.6 mm 0.00 in/hr0.0 mm/hr 0.14 in3.6 mm
12:54 AM 55.0°F12.8°C 55.0°F12.8°C 100% 7.6 mph SW12.2 kmh SW 16.8 mph27.0 kmh 29.69 in1005.4 mb 0.17 in4.3 mm 1.80 in/hr45.7 mm/hr 0.17 in4.3 mm
12:55 AM 55.2°F12.9°C 55.2°F12.9°C 100% 6.9 mph SSW11.1 kmh SSW 16.8 mph27.0 kmh 29.69 in1005.4 mb 0.17 in4.3 mm 0.00 in/hr0.0 mm/hr 0.17 in4.3 mm
12:56 AM 55.2°F12.9°C 55.2°F12.9°C 100% 7.6 mph SW12.2 kmh SW 16.8 mph27.0 kmh 29.68 in1005.1 mb 0.17 in4.3 mm 0.00 in/hr0.0 mm/hr 0.17 in4.3 mm
12:57 AM 55.2°F12.9°C 55.2°F12.9°C 100% 6.9 mph SW11.1 kmh SW 16.8 mph27.0 kmh 29.68 in1005.1 mb 0.17 in4.3 mm 0.00 in/hr0.0 mm/hr 0.17 in4.3 mm
12:58 AM 55.2°F12.9°C 55.2°F12.9°C 100% 6.9 mph SW11.1 kmh SW 16.8 mph27.0 kmh 29.68 in1005.1 mb 0.17 in4.3 mm 0.00 in/hr0.0 mm/hr 0.17 in4.3 mm
12:59 AM 55.2°F12.9°C 55.2°F12.9°C 100% 11.4 mph SSW18.3 kmh SSW 18.3 mph29.5 kmh 29.68 in1005.1 mb 0.17 in4.3 mm 0.00 in/hr0.0 mm/hr 0.17 in4.3 mm
01:00 AM 55.2°F12.9°C 55.2°F12.9°C 100% 6.9 mph SSW11.1 kmh SSW 18.3 mph29.5 kmh 29.67 in1004.7 mb 0.19 in4.8 mm 0.02 in/hr0.5 mm/hr 0.19 in4.8 mm
01:01 AM 55.2°F12.9°C 55.2°F12.9°C 100% 6.9 mph SSW11.1 kmh SSW 18.3 mph29.5 kmh 29.67 in1004.7 mb 0.19 in4.8 mm 0.00 in/hr0.0 mm/hr 0.19 in4.8 mm
01:02 AM 55.2°F12.9°C 55.2°F12.9°C 100% 6.9 mph SSW11.1 kmh SSW 18.3 mph29.5 kmh 29.67 in1004.7 mb 0.19 in4.8 mm 0.00 in/hr0.0 mm/hr 0.19 in4.8 mm
01:03 AM 55.2°F12.9°C 55.2°F12.9°C 100% 6.9 mph SSW11.1 kmh SSW 18.3 mph29.5 kmh 29.67 in1004.7 mb 0.19 in4.8 mm 0.00 in/hr0.0 mm/hr 0.19 in4.8 mm
01:04 AM 55.2°F12.9°C 55.2°F12.9°C 100% 6.9 mph SSW11.1 kmh SSW 18.3 mph29.5 kmh 29.66 in1004.4 mb 0.19 in4.8 mm 0.00 in/hr0.0 mm/hr 0.19 in4.8 mm
01:05 AM 55.2°F12.9°C 55.2°F12.9°C 100% 6.9 mph SSW11.1 kmh SSW 18.3 mph29.5 kmh 29.67 in1004.7 mb 0.19 in4.8 mm 0.00 in/hr0.0 mm/hr 0.19 in4.8 mm
01:06 AM 55.2°F12.9°C 55.2°F12.9°C 100% 11.4 mph S18.3 kmh S 18.3 mph29.5 kmh 29.67 in1004.7 mb 0.19 in4.8 mm 0.00 in/hr0.0 mm/hr 0.19 in4.8 mm
01:07 AM 55.2°F12.9°C 55.2°F12.9°C 100% 5.4 mph S8.7 kmh S 18.3 mph29.5 kmh 29.66 in1004.4 mb 0.19 in4.8 mm 0.00 in/hr0.0 mm/hr 0.19 in4.8 mm
01:08 AM 55.2°F12.9°C 55.2°F12.9°C 100% 7.6 mph SSW12.2 kmh SSW 18.3 mph29.5 kmh 29.66 in1004.4 mb 0.19 in4.8 mm 0.00 in/hr0.0 mm/hr 0.21 in5.3 mm
01:09 AM 55.2°F12.9°C 55.2°F12.9°C 100% 6.0 mph SSW9.7 kmh SSW 16.8 mph27.0 kmh 29.66 in1004.4 mb 0.19 in4.8 mm 0.00 in/hr0.0 mm/hr 0.21 in5.3 mm
01:10 AM 55.2°F12.9°C 55.2°F12.9°C 100% 8.3 mph SSW13.4 kmh SSW 16.8 mph27.0 kmh 29.66 in1004.4 mb 0.19 in4.8 mm 0.00 in/hr0.0 mm/hr 0.21 in5.3 mm
01:11 AM 55.2°F12.9°C 55.2°F12.9°C 100% 6.9 mph SSW11.1 kmh SSW 16.8 mph27.0 kmh 29.65 in1004.1 mb 0.19 in4.8 mm 0.00 in/hr0.0 mm/hr 0.21 in5.3 mm
01:12 AM 55.2°F12.9°C 55.2°F12.9°C 100% 8.3 mph SSW13.4 kmh SSW 16.8 mph27.0 kmh 29.66 in1004.4 mb 0.19 in4.8 mm 0.00 in/hr0.0 mm/hr 0.21 in5.3 mm
01:13 AM 55.2°F12.9°C 55.2°F12.9°C 100% 9.2 mph SSW14.8 kmh SSW 16.8 mph27.0 kmh 29.65 in1004.1 mb 0.19 in4.8 mm 0.00 in/hr0.0 mm/hr 0.21 in5.3 mm
01:14 AM 55.2°F12.9°C 55.2°F12.9°C 100% 6.9 mph SSW11.1 kmh SSW 16.8 mph27.0 kmh 29.65 in1004.1 mb 0.19 in4.8 mm 0.00 in/hr0.0 mm/hr 0.21 in5.3 mm
01:15 AM 55.2°F12.9°C 55.2°F12.9°C 100% 4.5 mph SSW7.2 kmh SSW 16.8 mph27.0 kmh 29.65 in1004.1 mb 0.19 in4.8 mm 0.00 in/hr0.0 mm/hr 0.21 in5.3 mm
01:16 AM 55.2°F12.9°C 55.2°F12.9°C 100% 13.0 mph SW20.9 kmh SW 19.0 mph30.6 kmh 29.65 in1004.1 mb 0.21 in5.3 mm 1.20 in/hr30.5 mm/hr 0.24 in6.1 mm
01:17 AM 55.2°F12.9°C 55.2°F12.9°C 100% 9.2 mph SW14.8 kmh SW 19.0 mph30.6 kmh 29.65 in1004.1 mb 0.19 in4.8 mm 0.00 in/hr0.0 mm/hr 0.24 in6.1 mm
01:18 AM 55.4°F13.0°C 55.4°F13.0°C 100% 10.7 mph SW17.2 kmh SW 19.0 mph30.6 kmh 29.65 in1004.1 mb 0.19 in4.8 mm 0.00 in/hr0.0 mm/hr 0.24 in6.1 mm
01:19 AM 55.6°F13.1°C 55.6°F13.1°C 100% 9.8 mph SSW15.8 kmh SSW 19.0 mph30.6 kmh 29.64 in1003.7 mb 0.19 in4.8 mm 0.00 in/hr0.0 mm/hr 0.24 in6.1 mm
01:20 AM 55.4°F13.0°C 55.4°F13.0°C 100% 9.2 mph SW14.8 kmh SW 19.0 mph30.6 kmh 29.65 in1004.1 mb 0.19 in4.8 mm 0.00 in/hr0.0 mm/hr 0.24 in6.1 mm
01:21 AM 55.6°F13.1°C 55.6°F13.1°C 100% 9.2 mph SW14.8 kmh SW 19.0 mph30.6 kmh 29.64 in1003.7 mb 0.19 in4.8 mm 0.00 in/hr0.0 mm/hr 0.24 in6.1 mm
01:22 AM 55.6°F13.1°C 55.6°F13.1°C 100% 8.3 mph SSW13.4 kmh SSW 19.0 mph30.6 kmh 29.65 in1004.1 mb 0.19 in4.8 mm 0.00 in/hr0.0 mm/hr 0.24 in6.1 mm
01:23 AM 55.6°F13.1°C 55.6°F13.1°C 100% 7.6 mph SSW12.2 kmh SSW 19.0 mph30.6 kmh 29.64 in1003.7 mb 0.19 in4.8 mm 0.00 in/hr0.0 mm/hr 0.24 in6.1 mm
01:24 AM 55.6°F13.1°C 55.6°F13.1°C 100% 6.9 mph SW11.1 kmh SW 19.0 mph30.6 kmh 29.64 in1003.7 mb 0.17 in4.3 mm 0.00 in/hr0.0 mm/hr 0.24 in6.1 mm
01:25 AM 55.6°F13.1°C 55.6°F13.1°C 100% 4.5 mph SSW7.2 kmh SSW 19.0 mph30.6 kmh 29.64 in1003.7 mb 0.19 in4.8 mm 1.20 in/hr30.5 mm/hr 0.26 in6.6 mm
01:26 AM 55.6°F13.1°C 55.6°F13.1°C 100% 12.1 mph SSW19.5 kmh SSW 17.4 mph28.0 kmh 29.64 in1003.7 mb 0.19 in4.8 mm 0.00 in/hr0.0 mm/hr 0.26 in6.6 mm
01:27 AM 55.8°F13.2°C 55.8°F13.2°C 100% 9.8 mph SSW15.8 kmh SSW 17.4 mph28.0 kmh 29.64 in1003.7 mb 0.19 in4.8 mm 0.00 in/hr0.0 mm/hr 0.26 in6.6 mm
01:28 AM 55.8°F13.2°C 55.8°F13.2°C 100% 5.4 mph SSW8.7 kmh SSW 17.4 mph28.0 kmh 29.64 in1003.7 mb 0.19 in4.8 mm 0.00 in/hr0.0 mm/hr 0.26 in6.6 mm
01:29 AM 55.8°F13.2°C 55.8°F13.2°C 100% 6.0 mph SW9.7 kmh SW 17.4 mph28.0 kmh 29.64 in1003.7 mb 0.19 in4.8 mm 0.00 in/hr0.0 mm/hr 0.26 in6.6 mm
01:30 AM 55.8°F13.2°C 55.8°F13.2°C 100% 9.2 mph SSW14.8 kmh SSW 17.4 mph28.0 kmh 29.64 in1003.7 mb 0.19 in4.8 mm 0.00 in/hr0.0 mm/hr 0.26 in6.6 mm
01:31 AM 55.9°F13.3°C 56.0°F13.3°C 100% 6.9 mph SSW11.1 kmh SSW 16.8 mph27.0 kmh 29.63 in1003.4 mb 0.19 in4.8 mm 0.00 in/hr0.0 mm/hr 0.26 in6.6 mm
01:32 AM 55.8°F13.2°C 55.8°F13.2°C 100% 3.8 mph SW6.1 kmh SW 16.8 mph27.0 kmh 29.64 in1003.7 mb 0.19 in4.8 mm 0.00 in/hr0.0 mm/hr 0.26 in6.6 mm
01:33 AM 55.9°F13.3°C 56.0°F13.3°C 100% 10.7 mph SW17.2 kmh SW 16.8 mph27.0 kmh 29.63 in1003.4 mb 0.17 in4.3 mm 0.00 in/hr0.0 mm/hr 0.26 in6.6 mm
01:34 AM 55.9°F13.3°C 56.0°F13.3°C 100% 7.6 mph SW12.2 kmh SW 16.8 mph27.0 kmh 29.63 in1003.4 mb 0.17 in4.3 mm 0.00 in/hr0.0 mm/hr 0.26 in6.6 mm
01:35 AM 55.9°F13.3°C 56.0°F13.3°C 100% 6.0 mph SW9.7 kmh SW 16.8 mph27.0 kmh 29.63 in1003.4 mb 0.17 in4.3 mm 0.00 in/hr0.0 mm/hr 0.26 in6.6 mm
01:36 AM 55.9°F13.3°C 56.0°F13.3°C 100% 9.8 mph SW15.8 kmh SW 16.8 mph27.0 kmh 29.63 in1003.4 mb 0.19 in4.8 mm 1.20 in/hr30.5 mm/hr 0.28 in7.1 mm
01:37 AM 56.1°F13.4°C 56.1°F13.4°C 100% 6.0 mph SW9.7 kmh SW 16.8 mph27.0 kmh 29.63 in1003.4 mb 0.19 in4.8 mm 0.00 in/hr0.0 mm/hr 0.28 in7.1 mm
01:38 AM 56.1°F13.4°C 56.1°F13.4°C 100% 6.9 mph SW11.1 kmh SW 16.8 mph27.0 kmh 29.62 in1003.0 mb 0.19 in4.8 mm 0.00 in/hr0.0 mm/hr 0.28 in7.1 mm
01:39 AM 56.1°F13.4°C 56.1°F13.4°C 100% 9.8 mph SW15.8 kmh SW 16.8 mph27.0 kmh 29.62 in1003.0 mb 0.19 in4.8 mm 0.00 in/hr0.0 mm/hr 0.28 in7.1 mm
01:40 AM 56.3°F13.5°C 56.3°F13.5°C 100% 13.0 mph SW20.9 kmh SW 17.4 mph28.0 kmh 29.62 in1003.0 mb 0.19 in4.8 mm 0.00 in/hr0.0 mm/hr 0.28 in7.1 mm
01:41 AM 56.5°F13.6°C 56.5°F13.6°C 100% 12.1 mph SW19.5 kmh SW 19.7 mph31.7 kmh 29.62 in1003.0 mb 0.17 in4.3 mm 0.00 in/hr0.0 mm/hr 0.28 in7.1 mm
01:42 AM 56.5°F13.6°C 56.5°F13.6°C 100% 8.3 mph SW13.4 kmh SW 19.7 mph31.7 kmh 29.62 in1003.0 mb 0.17 in4.3 mm 0.00 in/hr0.0 mm/hr 0.28 in7.1 mm
01:43 AM 56.5°F13.6°C 56.5°F13.6°C 100% 6.9 mph SW11.1 kmh SW 19.7 mph31.7 kmh 29.62 in1003.0 mb 0.17 in4.3 mm 0.00 in/hr0.0 mm/hr 0.28 in7.1 mm
01:44 AM 56.5°F13.6°C 56.5°F13.6°C 100% 5.4 mph SSW8.7 kmh SSW 19.7 mph31.7 kmh 29.62 in1003.0 mb 0.17 in4.3 mm 0.00 in/hr0.0 mm/hr 0.28 in7.1 mm
01:45 AM 56.5°F13.6°C 56.5°F13.6°C 100% 3.8 mph SSW6.1 kmh SSW 19.7 mph31.7 kmh 29.62 in1003.0 mb 0.17 in4.3 mm 0.00 in/hr0.0 mm/hr 0.28 in7.1 mm
01:46 AM 56.5°F13.6°C 56.5°F13.6°C 100% 9.2 mph SW14.8 kmh SW 19.7 mph31.7 kmh 29.62 in1003.0 mb 0.14 in3.6 mm 0.00 in/hr0.0 mm/hr 0.28 in7.1 mm
01:47 AM 56.7°F13.7°C 56.7°F13.7°C 100% 9.2 mph SW14.8 kmh SW 19.7 mph31.7 kmh 29.62 in1003.0 mb 0.14 in3.6 mm 0.00 in/hr0.0 mm/hr 0.28 in7.1 mm
01:48 AM 56.7°F13.7°C 56.7°F13.7°C 100% 6.9 mph SW11.1 kmh SW 19.7 mph31.7 kmh 29.62 in1003.0 mb 0.14 in3.6 mm 0.00 in/hr0.0 mm/hr 0.28 in7.1 mm
01:49 AM 56.8°F13.8°C 56.9°F13.8°C 100% 9.8 mph SSW15.8 kmh SSW 19.7 mph31.7 kmh 29.61 in1002.7 mb 0.17 in4.3 mm 1.80 in/hr45.7 mm/hr 0.31 in7.9 mm
01:50 AM 56.8°F13.8°C 56.9°F13.8°C 100% 6.9 mph SSW11.1 kmh SSW 19.7 mph31.7 kmh 29.61 in1002.7 mb 0.17 in4.3 mm 0.00 in/hr0.0 mm/hr 0.31 in7.9 mm
01:51 AM 56.8°F13.8°C 56.9°F13.8°C 100% 9.2 mph SSW14.8 kmh SSW 19.7 mph31.7 kmh 29.61 in1002.7 mb 0.17 in4.3 mm 0.00 in/hr0.0 mm/hr 0.31 in7.9 mm
01:52 AM 57.0°F13.9°C 57.0°F13.9°C 100% 9.8 mph SSW15.8 kmh SSW 18.3 mph29.5 kmh 29.61 in1002.7 mb 0.17 in4.3 mm 0.00 in/hr0.0 mm/hr 0.31 in7.9 mm
01:53 AM 57.0°F13.9°C 57.0°F13.9°C 100% 9.2 mph SSW14.8 kmh SSW 18.3 mph29.5 kmh 29.61 in1002.7 mb 0.17 in4.3 mm 0.00 in/hr0.0 mm/hr 0.31 in7.9 mm
01:54 AM 57.0°F13.9°C 57.0°F13.9°C 100% 8.3 mph SSW13.4 kmh SSW 19.7 mph31.7 kmh 29.61 in1002.7 mb 0.14 in3.6 mm 0.00 in/hr0.0 mm/hr 0.31 in7.9 mm
01:55 AM 57.0°F13.9°C 57.0°F13.9°C 100% 14.5 mph SSW23.3 kmh SSW 19.7 mph31.7 kmh 29.61 in1002.7 mb 0.17 in4.3 mm 1.80 in/hr45.7 mm/hr 0.33 in8.4 mm
01:56 AM 57.0°F13.9°C 57.0°F13.9°C 100% 8.3 mph SSW13.4 kmh SSW 19.7 mph31.7 kmh 29.61 in1002.7 mb 0.17 in4.3 mm 0.00 in/hr0.0 mm/hr 0.33 in8.4 mm
01:57 AM 57.0°F13.9°C 57.0°F13.9°C 100% 9.2 mph SSW14.8 kmh SSW 19.7 mph31.7 kmh 29.61 in1002.7 mb 0.17 in4.3 mm 0.00 in/hr0.0 mm/hr 0.33 in8.4 mm
01:58 AM 57.0°F13.9°C 57.0°F13.9°C 100% 7.6 mph SW12.2 kmh SW 19.7 mph31.7 kmh 29.60 in1002.4 mb 0.17 in4.3 mm 0.00 in/hr0.0 mm/hr 0.33 in8.4 mm
01:59 AM 57.0°F13.9°C 57.0°F13.9°C 100% 4.5 mph SW7.2 kmh SW 19.7 mph31.7 kmh 29.61 in1002.7 mb 0.17 in4.3 mm 0.00 in/hr0.0 mm/hr 0.33 in8.4 mm
02:00 AM 57.0°F13.9°C 57.0°F13.9°C 100% 15.2 mph SW24.5 kmh SW 19.7 mph31.7 kmh 29.60 in1002.4 mb 0.17 in4.3 mm 0.00 in/hr0.0 mm/hr 0.35 in8.9 mm
02:01 AM 57.0°F13.9°C 57.0°F13.9°C 100% 10.7 mph SW17.2 kmh SW 19.7 mph31.7 kmh 29.60 in1002.4 mb 0.17 in4.3 mm 0.00 in/hr0.0 mm/hr 0.35 in8.9 mm
02:02 AM 57.0°F13.9°C 57.0°F13.9°C 100% 9.8 mph SW15.8 kmh SW 19.7 mph31.7 kmh 29.60 in1002.4 mb 0.17 in4.3 mm 0.00 in/hr0.0 mm/hr 0.35 in8.9 mm
02:03 AM 57.2°F14.0°C 57.2°F14.0°C 100% 8.3 mph SW13.4 kmh SW 19.7 mph31.7 kmh 29.60 in1002.4 mb 0.19 in4.8 mm 1.20 in/hr30.5 mm/hr 0.38 in9.7 mm
02:04 AM 57.2°F14.0°C 57.2°F14.0°C 100% 10.7 mph SW17.2 kmh SW 19.7 mph31.7 kmh 29.60 in1002.4 mb 0.19 in4.8 mm 0.00 in/hr0.0 mm/hr 0.38 in9.7 mm
02:05 AM 57.0°F13.9°C 57.0°F13.9°C 100% 6.0 mph SW9.7 kmh SW 19.7 mph31.7 kmh 29.59 in1002.0 mb 0.19 in4.8 mm 0.00 in/hr0.0 mm/hr 0.38 in9.7 mm
02:06 AM 57.0°F13.9°C 57.0°F13.9°C 100% 11.4 mph SW18.3 kmh SW 24.4 mph39.3 kmh 29.59 in1002.0 mb 0.19 in4.8 mm 0.00 in/hr0.0 mm/hr 0.38 in9.7 mm
02:07 AM 57.2°F14.0°C 57.2°F14.0°C 100% 6.9 mph SW11.1 kmh SW 24.4 mph39.3 kmh 29.59 in1002.0 mb 0.17 in4.3 mm 0.00 in/hr0.0 mm/hr 0.38 in9.7 mm
02:08 AM 57.2°F14.0°C 57.2°F14.0°C 100% 9.2 mph SW14.8 kmh SW 24.4 mph39.3 kmh 29.59 in1002.0 mb 0.17 in4.3 mm 0.00 in/hr0.0 mm/hr 0.38 in9.7 mm
02:09 AM 57.4°F14.1°C 57.4°F14.1°C 100% 9.2 mph SW14.8 kmh SW 24.4 mph39.3 kmh 29.59 in1002.0 mb 0.17 in4.3 mm 0.00 in/hr0.0 mm/hr 0.38 in9.7 mm
02:10 AM 57.4°F14.1°C 57.4°F14.1°C 100% 13.0 mph SSW20.9 kmh SSW 24.4 mph39.3 kmh 29.59 in1002.0 mb 0.17 in4.3 mm 0.00 in/hr0.0 mm/hr 0.38 in9.7 mm
02:11 AM 57.4°F14.1°C 57.4°F14.1°C 100% 5.4 mph SW8.7 kmh SW 24.4 mph39.3 kmh 29.59 in1002.0 mb 0.17 in4.3 mm 0.00 in/hr0.0 mm/hr 0.38 in9.7 mm
02:12 AM 57.4°F14.1°C 57.4°F14.1°C 100% 8.3 mph SW13.4 kmh SW 24.4 mph39.3 kmh 29.59 in1002.0 mb 0.17 in4.3 mm 0.00 in/hr0.0 mm/hr 0.38 in9.7 mm
02:13 AM 57.4°F14.1°C 57.4°F14.1°C 100% 8.3 mph SW13.4 kmh SW 24.4 mph39.3 kmh 29.59 in1002.0 mb 0.17 in4.3 mm 0.00 in/hr0.0 mm/hr 0.38 in9.7 mm
02:14 AM 57.4°F14.1°C 57.4°F14.1°C 100% 6.9 mph SW11.1 kmh SW 24.4 mph39.3 kmh 29.59 in1002.0 mb 0.17 in4.3 mm 0.00 in/hr0.0 mm/hr 0.38 in9.7 mm
02:15 AM 57.4°F14.1°C 57.4°F14.1°C 100% 9.8 mph SW15.8 kmh SW 24.4 mph39.3 kmh 29.58 in1001.7 mb 0.19 in4.8 mm 1.20 in/hr30.5 mm/hr 0.40 in10.2 mm
02:16 AM 57.6°F14.2°C 57.6°F14.2°C 100% 7.6 mph SW12.2 kmh SW 21.3 mph34.3 kmh 29.58 in1001.7 mb 0.17 in4.3 mm 0.00 in/hr0.0 mm/hr 0.40 in10.2 mm
02:17 AM 57.6°F14.2°C 57.6°F14.2°C 100% 5.4 mph SSW8.7 kmh SSW 27.3 mph43.9 kmh 29.58 in1001.7 mb 0.17 in4.3 mm 0.00 in/hr0.0 mm/hr 0.40 in10.2 mm
02:18 AM 57.6°F14.2°C 57.6°F14.2°C 100% 13.0 mph SW20.9 kmh SW 27.3 mph43.9 kmh 29.58 in1001.7 mb 0.17 in4.3 mm 0.00 in/hr0.0 mm/hr 0.40 in10.2 mm
02:19 AM 57.6°F14.2°C 57.6°F14.2°C 100% 9.8 mph SW15.8 kmh SW 27.3 mph43.9 kmh 29.58 in1001.7 mb 0.17 in4.3 mm 0.00 in/hr0.0 mm/hr 0.40 in10.2 mm
02:20 AM 57.6°F14.2°C 57.6°F14.2°C 100% 15.2 mph SW24.5 kmh SW 27.3 mph43.9 kmh 29.58 in1001.7 mb 0.17 in4.3 mm 0.00 in/hr0.0 mm/hr 0.40 in10.2 mm
02:21 AM 57.6°F14.2°C 57.6°F14.2°C 100% 9.2 mph SW14.8 kmh SW 27.3 mph43.9 kmh 29.58 in1001.7 mb 0.17 in4.3 mm 0.00 in/hr0.0 mm/hr 0.40 in10.2 mm
02:22 AM 57.6°F14.2°C 57.6°F14.2°C 100% 13.0 mph SW20.9 kmh SW 27.3 mph43.9 kmh 29.57 in1001.4 mb 0.19 in4.8 mm 1.20 in/hr30.5 mm/hr 0.43 in10.9 mm
02:23 AM 57.7°F14.3°C 57.8°F14.3°C 100% 10.7 mph SW17.2 kmh SW 27.3 mph43.9 kmh 29.57 in1001.4 mb 0.19 in4.8 mm 0.00 in/hr0.0 mm/hr 0.43 in10.9 mm
02:24 AM 57.7°F14.3°C 57.8°F14.3°C 100% 12.1 mph SW19.5 kmh SW 27.3 mph43.9 kmh 29.57 in1001.4 mb 0.19 in4.8 mm 0.00 in/hr0.0 mm/hr 0.43 in10.9 mm
02:25 AM 57.9°F14.4°C 57.9°F14.4°C 100% 8.3 mph SW13.4 kmh SW 27.3 mph43.9 kmh 29.57 in1001.4 mb 0.17 in4.3 mm 0.00 in/hr0.0 mm/hr 0.43 in10.9 mm
02:26 AM 57.7°F14.3°C 57.8°F14.3°C 100% 6.0 mph SW9.7 kmh SW 27.3 mph43.9 kmh 29.57 in1001.4 mb 0.17 in4.3 mm 0.00 in/hr0.0 mm/hr 0.43 in10.9 mm
02:27 AM 57.7°F14.3°C 57.8°F14.3°C 100% 11.4 mph SW18.3 kmh SW 21.3 mph34.3 kmh 29.57 in1001.4 mb 0.17 in4.3 mm 0.00 in/hr0.0 mm/hr 0.43 in10.9 mm
02:28 AM 57.9°F14.4°C 57.9°F14.4°C 100% 12.1 mph SW19.5 kmh SW 21.3 mph34.3 kmh 29.57 in1001.4 mb 0.17 in4.3 mm 0.00 in/hr0.0 mm/hr 0.43 in10.9 mm
02:29 AM 57.9°F14.4°C 57.9°F14.4°C 100% 19.0 mph SW30.6 kmh SW 24.4 mph39.3 kmh 29.57 in1001.4 mb 0.17 in4.3 mm 0.00 in/hr0.0 mm/hr 0.43 in10.9 mm
02:30 AM 58.5°F14.7°C 58.5°F14.7°C 100% 9.8 mph SW15.8 kmh SW 24.4 mph39.3 kmh 29.57 in1001.4 mb 0.17 in4.3 mm 0.00 in/hr0.0 mm/hr 0.43 in10.9 mm
02:31 AM 58.3°F14.6°C 58.3°F14.6°C 100% 9.8 mph WSW15.8 kmh WSW 24.4 mph39.3 kmh 29.57 in1001.4 mb 0.17 in4.3 mm 0.00 in/hr0.0 mm/hr 0.43 in10.9 mm
02:32 AM 58.3°F14.6°C 58.3°F14.6°C 100% 11.4 mph WSW18.3 kmh WSW 24.4 mph39.3 kmh 29.57 in1001.4 mb 0.17 in4.3 mm 0.00 in/hr0.0 mm/hr 0.43 in10.9 mm
02:33 AM 58.3°F14.6°C 58.3°F14.6°C 100% 8.3 mph WSW13.4 kmh WSW 24.4 mph39.3 kmh 29.56 in1001.0 mb 0.17 in4.3 mm 0.00 in/hr0.0 mm/hr 0.43 in10.9 mm
02:34 AM 58.3°F14.6°C 58.3°F14.6°C 100% 9.2 mph WSW14.8 kmh WSW 24.4 mph39.3 kmh 29.57 in1001.4 mb 0.17 in4.3 mm 0.00 in/hr0.0 mm/hr 0.43 in10.9 mm
02:35 AM 58.3°F14.6°C 58.3°F14.6°C 100% 5.4 mph WSW8.7 kmh WSW 24.4 mph39.3 kmh 29.57 in1001.4 mb 0.17 in4.3 mm 0.00 in/hr0.0 mm/hr 0.43 in10.9 mm
02:36 AM 58.3°F14.6°C 58.3°F14.6°C 100% 10.7 mph WSW17.2 kmh WSW 24.4 mph39.3 kmh 29.56 in1001.0 mb 0.17 in4.3 mm 0.00 in/hr0.0 mm/hr 0.45 in11.4 mm
02:37 AM 58.5°F14.7°C 58.5°F14.7°C 100% 11.4 mph WSW18.3 kmh WSW 24.4 mph39.3 kmh 29.56 in1001.0 mb 0.17 in4.3 mm 0.00 in/hr0.0 mm/hr 0.45 in11.4 mm
02:38 AM 58.5°F14.7°C 58.5°F14.7°C 100% 8.3 mph WSW13.4 kmh WSW 24.4 mph39.3 kmh 29.56 in1001.0 mb 0.17 in4.3 mm 0.00 in/hr0.0 mm/hr 0.45 in11.4 mm
02:39 AM 58.5°F14.7°C 58.5°F14.7°C 100% 11.4 mph WSW18.3 kmh WSW 24.4 mph39.3 kmh 29.57 in1001.4 mb 0.17 in4.3 mm 0.00 in/hr0.0 mm/hr 0.45 in11.4 mm
02:40 AM 58.5°F14.7°C 58.5°F14.7°C 100% 13.0 mph SW20.9 kmh SW 25.1 mph40.4 kmh 29.56 in1001.0 mb 0.17 in4.3 mm 0.00 in/hr0.0 mm/hr 0.45 in11.4 mm
02:41 AM 58.6°F14.8°C 58.7°F14.8°C 100% 9.2 mph SW14.8 kmh SW 25.1 mph40.4 kmh 29.56 in1001.0 mb 0.17 in4.3 mm 0.00 in/hr0.0 mm/hr 0.45 in11.4 mm
02:42 AM 58.6°F14.8°C 58.7°F14.8°C 100% 7.6 mph SW12.2 kmh SW 25.1 mph40.4 kmh 29.56 in1001.0 mb 0.17 in4.3 mm 0.00 in/hr0.0 mm/hr 0.45 in11.4 mm
02:43 AM 58.6°F14.8°C 58.7°F14.8°C 100% 6.9 mph SW11.1 kmh SW 25.1 mph40.4 kmh 29.56 in1001.0 mb 0.17 in4.3 mm 0.00 in/hr0.0 mm/hr 0.45 in11.4 mm
02:44 AM 58.6°F14.8°C 58.7°F14.8°C 100% 8.3 mph SW13.4 kmh SW 25.1 mph40.4 kmh 29.56 in1001.0 mb 0.17 in4.3 mm 0.00 in/hr0.0 mm/hr 0.45 in11.4 mm
02:45 AM 58.6°F14.8°C 58.7°F14.8°C 100% 10.7 mph SW17.2 kmh SW 25.1 mph40.4 kmh 29.56 in1001.0 mb 0.17 in4.3 mm 0.00 in/hr0.0 mm/hr 0.45 in11.4 mm
02:46 AM 58.6°F14.8°C 58.7°F14.8°C 100% 5.4 mph SW8.7 kmh SW 25.1 mph40.4 kmh 29.56 in1001.0 mb 0.17 in4.3 mm 0.00 in/hr0.0 mm/hr 0.45 in11.4 mm
02:47 AM 58.6°F14.8°C 58.7°F14.8°C 100% 8.3 mph SW13.4 kmh SW 25.1 mph40.4 kmh 29.56 in1001.0 mb 0.17 in4.3 mm 0.00 in/hr0.0 mm/hr 0.45 in11.4 mm
02:48 AM 58.6°F14.8°C 58.7°F14.8°C 100% 8.3 mph SW13.4 kmh SW 25.1 mph40.4 kmh 29.56 in1001.0 mb 0.17 in4.3 mm 0.00 in/hr0.0 mm/hr 0.45 in11.4 mm
02:49 AM 58.8°F14.9°C 58.8°F14.9°C 100% 9.2 mph SW14.8 kmh SW 25.1 mph40.4 kmh 29.56 in1001.0 mb 0.14 in3.6 mm 0.00 in/hr0.0 mm/hr 0.45 in11.4 mm
02:50 AM 58.8°F14.9°C 58.8°F14.9°C 100% 11.4 mph SW18.3 kmh SW 19.7 mph31.7 kmh 29.56 in1001.0 mb 0.14 in3.6 mm 0.00 in/hr0.0 mm/hr 0.45 in11.4 mm
02:51 AM 58.8°F14.9°C 58.8°F14.9°C 100% 5.4 mph SW8.7 kmh SW 19.7 mph31.7 kmh 29.56 in1001.0 mb 0.14 in3.6 mm 0.00 in/hr0.0 mm/hr 0.45 in11.4 mm
02:52 AM 58.8°F14.9°C 58.8°F14.9°C 100% 5.4 mph SW8.7 kmh SW 19.7 mph31.7 kmh 29.56 in1001.0 mb 0.14 in3.6 mm 0.00 in/hr0.0 mm/hr 0.45 in11.4 mm
02:53 AM 58.8°F14.9°C 58.8°F14.9°C 100% 8.3 mph SW13.4 kmh SW 19.7 mph31.7 kmh 29.56 in1001.0 mb 0.17 in4.3 mm 1.80 in/hr45.7 mm/hr 0.47 in11.9 mm
02:54 AM 59.0°F15.0°C 59.0°F15.0°C 100% 8.3 mph SW13.4 kmh SW 19.7 mph31.7 kmh 29.56 in1001.0 mb 0.14 in3.6 mm 0.00 in/hr0.0 mm/hr 0.47 in11.9 mm
02:55 AM 59.0°F15.0°C 59.0°F15.0°C 100% 8.3 mph SW13.4 kmh SW 16.8 mph27.0 kmh 29.56 in1001.0 mb 0.14 in3.6 mm 0.00 in/hr0.0 mm/hr 0.47 in11.9 mm
02:56 AM 59.0°F15.0°C 59.0°F15.0°C 100% 7.6 mph SW12.2 kmh SW 16.8 mph27.0 kmh 29.56 in1001.0 mb 0.14 in3.6 mm 0.00 in/hr0.0 mm/hr 0.47 in11.9 mm
02:57 AM 59.2°F15.1°C 59.2°F15.1°C 100% 6.9 mph SW11.1 kmh SW 19.0 mph30.6 kmh 29.56 in1001.0 mb 0.14 in3.6 mm 0.00 in/hr0.0 mm/hr 0.47 in11.9 mm
02:58 AM 59.2°F15.1°C 59.2°F15.1°C 100% 6.9 mph SW11.1 kmh SW 19.0 mph30.6 kmh 29.56 in1001.0 mb 0.14 in3.6 mm 0.00 in/hr0.0 mm/hr 0.47 in11.9 mm
02:59 AM 59.2°F15.1°C 59.2°F15.1°C 100% 6.0 mph SW9.7 kmh SW 19.0 mph30.6 kmh 29.56 in1001.0 mb 0.12 in3.0 mm 0.00 in/hr0.0 mm/hr 0.47 in11.9 mm
03:00 AM 59.2°F15.1°C 59.2°F15.1°C 100% 6.9 mph SW11.1 kmh SW 19.0 mph30.6 kmh 29.56 in1001.0 mb 0.12 in3.0 mm 0.00 in/hr0.0 mm/hr 0.47 in11.9 mm
03:01 AM 59.2°F15.1°C 59.2°F15.1°C 100% 6.9 mph SW11.1 kmh SW 19.0 mph30.6 kmh 29.56 in1001.0 mb 0.12 in3.0 mm 0.00 in/hr0.0 mm/hr 0.47 in11.9 mm
03:02 AM 59.2°F15.1°C 59.2°F15.1°C 100% 6.9 mph SW11.1 kmh SW 19.0 mph30.6 kmh 29.55 in1000.7 mb 0.12 in3.0 mm 0.00 in/hr0.0 mm/hr 0.47 in11.9 mm
03:03 AM 59.2°F15.1°C 59.2°F15.1°C 100% 6.9 mph SW11.1 kmh SW 19.0 mph30.6 kmh 29.56 in1001.0 mb 0.09 in2.3 mm 0.00 in/hr0.0 mm/hr 0.47 in11.9 mm
03:04 AM 59.2°F15.1°C 59.2°F15.1°C 100% 6.9 mph WSW11.1 kmh WSW 19.0 mph30.6 kmh 29.56 in1001.0 mb 0.09 in2.3 mm 0.00 in/hr0.0 mm/hr 0.47 in11.9 mm
03:05 AM 59.2°F15.1°C 59.2°F15.1°C 100% 6.9 mph SW11.1 kmh SW 19.0 mph30.6 kmh 29.56 in1001.0 mb 0.09 in2.3 mm 0.00 in/hr0.0 mm/hr 0.47 in11.9 mm
03:06 AM 59.2°F15.1°C 59.2°F15.1°C 100% 6.9 mph WSW11.1 kmh WSW 19.0 mph30.6 kmh 29.56 in1001.0 mb 0.09 in2.3 mm 0.00 in/hr0.0 mm/hr 0.47 in11.9 mm
03:07 AM 59.2°F15.1°C 59.2°F15.1°C 100% 6.9 mph WSW11.1 kmh WSW 13.6 mph21.9 kmh 29.56 in1001.0 mb 0.09 in2.3 mm 0.00 in/hr0.0 mm/hr 0.47 in11.9 mm
03:08 AM 59.2°F15.1°C 59.2°F15.1°C 100% 3.8 mph WSW6.1 kmh WSW 12.1 mph19.5 kmh 29.57 in1001.4 mb 0.12 in3.0 mm 1.80 in/hr45.7 mm/hr 0.50 in12.7 mm
03:09 AM 59.2°F15.1°C 59.2°F15.1°C 100% 6.9 mph WSW11.1 kmh WSW 13.0 mph20.9 kmh 29.57 in1001.4 mb 0.12 in3.0 mm 0.00 in/hr0.0 mm/hr 0.50 in12.7 mm
03:10 AM 59.2°F15.1°C 59.2°F15.1°C 100% 3.1 mph WSW5.0 kmh WSW 13.0 mph20.9 kmh 29.57 in1001.4 mb 0.12 in3.0 mm 0.00 in/hr0.0 mm/hr 0.50 in12.7 mm
03:11 AM 59.2°F15.1°C 59.2°F15.1°C 100% 4.5 mph WSW7.2 kmh WSW 13.0 mph20.9 kmh 29.57 in1001.4 mb 0.12 in3.0 mm 0.00 in/hr0.0 mm/hr 0.50 in12.7 mm
03:12 AM 59.2°F15.1°C 59.2°F15.1°C 100% 3.1 mph WSW5.0 kmh WSW 13.0 mph20.9 kmh 29.57 in1001.4 mb 0.12 in3.0 mm 0.00 in/hr0.0 mm/hr 0.50 in12.7 mm
03:13 AM 59.2°F15.1°C 59.2°F15.1°C 100% 3.8 mph WSW6.1 kmh WSW 13.0 mph20.9 kmh 29.56 in1001.0 mb 0.12 in3.0 mm 0.00 in/hr0.0 mm/hr 0.50 in12.7 mm
03:14 AM 59.2°F15.1°C 59.2°F15.1°C 100% 7.6 mph WSW12.2 kmh WSW 13.0 mph20.9 kmh 29.57 in1001.4 mb 0.12 in3.0 mm 0.00 in/hr0.0 mm/hr 0.50 in12.7 mm
03:15 AM 59.2°F15.1°C 59.2°F15.1°C 100% 3.1 mph WSW5.0 kmh WSW 13.0 mph20.9 kmh 29.57 in1001.4 mb 0.09 in2.3 mm 0.00 in/hr0.0 mm/hr 0.50 in12.7 mm
03:16 AM 59.2°F15.1°C 59.2°F15.1°C 100% 4.5 mph WSW7.2 kmh WSW 13.0 mph20.9 kmh 29.57 in1001.4 mb 0.12 in3.0 mm 1.80 in/hr45.7 mm/hr 0.52 in13.2 mm
03:17 AM 59.2°F15.1°C 59.2°F15.1°C 100% 4.5 mph WSW7.2 kmh WSW 13.0 mph20.9 kmh 29.57 in1001.4 mb 0.12 in3.0 mm 0.00 in/hr0.0 mm/hr 0.52 in13.2 mm
03:18 AM 59.2°F15.1°C 59.2°F15.1°C 100% 3.8 mph SW6.1 kmh SW 13.0 mph20.9 kmh 29.57 in1001.4 mb 0.12 in3.0 mm 0.00 in/hr0.0 mm/hr 0.52 in13.2 mm
03:19 AM 59.0°F15.0°C 59.0°F15.0°C 100% 4.5 mph SW7.2 kmh SW 13.0 mph20.9 kmh 29.57 in1001.4 mb 0.12 in3.0 mm 0.00 in/hr0.0 mm/hr 0.52 in13.2 mm
03:20 AM 59.0°F15.0°C 59.0°F15.0°C 100% 5.4 mph SW8.7 kmh SW 11.4 mph18.3 kmh 29.57 in1001.4 mb 0.12 in3.0 mm 0.00 in/hr0.0 mm/hr 0.52 in13.2 mm
03:21 AM 59.0°F15.0°C 59.0°F15.0°C 100% 6.0 mph SW9.7 kmh SW 12.1 mph19.5 kmh 29.57 in1001.4 mb 0.12 in3.0 mm 0.00 in/hr0.0 mm/hr 0.54 in13.7 mm
03:22 AM 59.0°F15.0°C 59.0°F15.0°C 100% 5.4 mph SW8.7 kmh SW 12.1 mph19.5 kmh 29.57 in1001.4 mb 0.12 in3.0 mm 0.00 in/hr0.0 mm/hr 0.54 in13.7 mm
03:23 AM 59.0°F15.0°C 59.0°F15.0°C 100% 1.6 mph WSW2.6 kmh WSW 12.1 mph19.5 kmh 29.57 in1001.4 mb 0.12 in3.0 mm 0.00 in/hr0.0 mm/hr 0.54 in13.7 mm
03:24 AM 58.8°F14.9°C 58.8°F14.9°C 100% 4.5 mph WSW7.2 kmh WSW 12.1 mph19.5 kmh 29.56 in1001.0 mb 0.12 in3.0 mm 0.00 in/hr0.0 mm/hr 0.54 in13.7 mm
03:25 AM 58.8°F14.9°C 58.8°F14.9°C 100% 3.1 mph WSW5.0 kmh WSW 12.1 mph19.5 kmh 29.56 in1001.0 mb 0.12 in3.0 mm 0.00 in/hr0.0 mm/hr 0.54 in13.7 mm
03:26 AM 58.8°F14.9°C 58.8°F14.9°C 100% 2.2 mph WSW3.5 kmh WSW 12.1 mph19.5 kmh 29.56 in1001.0 mb 0.12 in3.0 mm 0.00 in/hr0.0 mm/hr 0.54 in13.7 mm
03:27 AM 58.8°F14.9°C 58.8°F14.9°C 100% 5.4 mph SW8.7 kmh SW 15.2 mph24.5 kmh 29.56 in1001.0 mb 0.12 in3.0 mm 0.00 in/hr0.0 mm/hr 0.54 in13.7 mm
03:28 AM 58.8°F14.9°C 58.8°F14.9°C 100% 5.4 mph SW8.7 kmh SW 15.2 mph24.5 kmh 29.56 in1001.0 mb 0.12 in3.0 mm 0.00 in/hr0.0 mm/hr 0.54 in13.7 mm
03:29 AM 58.8°F14.9°C 58.8°F14.9°C 100% 3.8 mph SW6.1 kmh SW 15.2 mph24.5 kmh 29.56 in1001.0 mb 0.12 in3.0 mm 0.00 in/hr0.0 mm/hr 0.54 in13.7 mm
03:30 AM 58.8°F14.9°C 58.8°F14.9°C 100% 3.1 mph WSW5.0 kmh WSW 15.2 mph24.5 kmh 29.56 in1001.0 mb 0.12 in3.0 mm 0.00 in/hr0.0 mm/hr 0.54 in13.7 mm
03:31 AM 58.8°F14.9°C 58.8°F14.9°C 100% 3.8 mph SW6.1 kmh SW 15.2 mph24.5 kmh 29.56 in1001.0 mb 0.14 in3.6 mm 1.20 in/hr30.5 mm/hr 0.57 in14.5 mm
03:32 AM 58.8°F14.9°C 58.8°F14.9°C 100% 3.8 mph SW6.1 kmh SW 15.2 mph24.5 kmh 29.56 in1001.0 mb 0.14 in3.6 mm 0.00 in/hr0.0 mm/hr 0.57 in14.5 mm
03:33 AM 58.8°F14.9°C 58.8°F14.9°C 100% 3.8 mph SW6.1 kmh SW 15.2 mph24.5 kmh 29.56 in1001.0 mb 0.14 in3.6 mm 0.00 in/hr0.0 mm/hr 0.57 in14.5 mm
03:34 AM 58.8°F14.9°C 58.8°F14.9°C 100% 4.5 mph SW7.2 kmh SW 15.2 mph24.5 kmh 29.56 in1001.0 mb 0.14 in3.6 mm 0.00 in/hr0.0 mm/hr 0.57 in14.5 mm
03:35 AM 58.8°F14.9°C 58.8°F14.9°C 100% 4.5 mph SW7.2 kmh SW 15.2 mph24.5 kmh 29.56 in1001.0 mb 0.12 in3.0 mm 0.00 in/hr0.0 mm/hr 0.57 in14.5 mm
03:36 AM 58.6°F14.8°C 58.7°F14.8°C 100% 3.1 mph SW5.0 kmh SW 15.2 mph24.5 kmh 29.55 in1000.7 mb 0.17 in4.3 mm 3.00 in/hr76.2 mm/hr 0.61 in15.5 mm
03:37 AM 58.6°F14.8°C 58.7°F14.8°C 100% 5.4 mph SW8.7 kmh SW 15.2 mph24.5 kmh 29.56 in1001.0 mb 0.17 in4.3 mm 0.00 in/hr0.0 mm/hr 0.61 in15.5 mm
03:38 AM 58.6°F14.8°C 58.7°F14.8°C 100% 2.2 mph SW3.5 kmh SW 10.7 mph17.2 kmh 29.56 in1001.0 mb 0.17 in4.3 mm 0.00 in/hr0.0 mm/hr 0.61 in15.5 mm
03:39 AM 58.6°F14.8°C 58.7°F14.8°C 100% 1.6 mph SW2.6 kmh SW 10.7 mph17.2 kmh 29.56 in1001.0 mb 0.17 in4.3 mm 0.00 in/hr0.0 mm/hr 0.61 in15.5 mm
03:40 AM 58.6°F14.8°C 58.7°F14.8°C 100% 2.2 mph SW3.5 kmh SW 10.7 mph17.2 kmh 29.56 in1001.0 mb 0.17 in4.3 mm 0.00 in/hr0.0 mm/hr 0.61 in15.5 mm
03:41 AM 58.6°F14.8°C 58.7°F14.8°C 100% 3.8 mph SW6.1 kmh SW 10.7 mph17.2 kmh 29.56 in1001.0 mb 0.17 in4.3 mm 0.00 in/hr0.0 mm/hr 0.61 in15.5 mm
03:42 AM 58.6°F14.8°C 58.7°F14.8°C 100% 2.2 mph SW3.5 kmh SW 10.7 mph17.2 kmh 29.56 in1001.0 mb 0.19 in4.8 mm 1.20 in/hr30.5 mm/hr 0.64 in16.3 mm
03:43 AM 58.6°F14.8°C 58.7°F14.8°C 100% 3.8 mph SW6.1 kmh SW 10.7 mph17.2 kmh 29.56 in1001.0 mb 0.19 in4.8 mm 0.00 in/hr0.0 mm/hr 0.64 in16.3 mm
03:44 AM 58.6°F14.8°C 58.7°F14.8°C 100% 7.6 mph SW12.2 kmh SW 10.7 mph17.2 kmh 29.56 in1001.0 mb 0.19 in4.8 mm 0.00 in/hr0.0 mm/hr 0.64 in16.3 mm
03:45 AM 58.6°F14.8°C 58.7°F14.8°C 100% 2.2 mph SW3.5 kmh SW 10.7 mph17.2 kmh 29.55 in1000.7 mb 0.19 in4.8 mm 0.00 in/hr0.0 mm/hr 0.64 in16.3 mm
03:46 AM 58.5°F14.7°C 58.5°F14.7°C 100% 4.5 mph SW7.2 kmh SW 10.7 mph17.2 kmh 29.55 in1000.7 mb 0.19 in4.8 mm 0.00 in/hr0.0 mm/hr 0.64 in16.3 mm
03:47 AM 58.5°F14.7°C 58.5°F14.7°C 100% 6.0 mph SW9.7 kmh SW 11.4 mph18.3 kmh 29.55 in1000.7 mb 0.19 in4.8 mm 0.00 in/hr0.0 mm/hr 0.64 in16.3 mm
03:48 AM 58.5°F14.7°C 58.5°F14.7°C 100% 3.1 mph SW5.0 kmh SW 11.4 mph18.3 kmh 29.55 in1000.7 mb 0.19 in4.8 mm 0.00 in/hr0.0 mm/hr 0.64 in16.3 mm
03:49 AM 58.5°F14.7°C 58.5°F14.7°C 100% 0.7 mph WSW1.1 kmh WSW 11.4 mph18.3 kmh 29.55 in1000.7 mb 0.19 in4.8 mm 0.00 in/hr0.0 mm/hr 0.64 in16.3 mm
03:50 AM 58.5°F14.7°C 58.5°F14.7°C 100% 2.2 mph SW3.5 kmh SW 11.4 mph18.3 kmh 29.56 in1001.0 mb 0.19 in4.8 mm 0.00 in/hr0.0 mm/hr 0.64 in16.3 mm
03:51 AM 58.5°F14.7°C 58.5°F14.7°C 100% 3.1 mph SW5.0 kmh SW 11.4 mph18.3 kmh 29.55 in1000.7 mb 0.19 in4.8 mm 0.00 in/hr0.0 mm/hr 0.64 in16.3 mm
03:52 AM 58.5°F14.7°C 58.5°F14.7°C 100% 5.4 mph SW8.7 kmh SW 11.4 mph18.3 kmh 29.56 in1001.0 mb 0.17 in4.3 mm 0.00 in/hr0.0 mm/hr 0.64 in16.3 mm
03:53 AM 58.5°F14.7°C 58.5°F14.7°C 100% 2.2 mph SW3.5 kmh SW 11.4 mph18.3 kmh 29.55 in1000.7 mb 0.17 in4.3 mm 0.00 in/hr0.0 mm/hr 0.64 in16.3 mm
03:54 AM 58.5°F14.7°C 58.5°F14.7°C 100% 3.1 mph SW5.0 kmh SW 11.4 mph18.3 kmh 29.55 in1000.7 mb 0.17 in4.3 mm 0.00 in/hr0.0 mm/hr 0.64 in16.3 mm
03:55 AM 58.5°F14.7°C 58.5°F14.7°C 100% 3.1 mph SW5.0 kmh SW 11.4 mph18.3 kmh 29.55 in1000.7 mb 0.17 in4.3 mm 0.00 in/hr0.0 mm/hr 0.64 in16.3 mm
03:56 AM 58.5°F14.7°C 58.5°F14.7°C 100% 2.2 mph SW3.5 kmh SW 11.4 mph18.3 kmh 29.54 in1000.3 mb 0.17 in4.3 mm 0.00 in/hr0.0 mm/hr 0.64 in16.3 mm
03:57 AM 58.5°F14.7°C 58.5°F14.7°C 100% 5.4 mph SW8.7 kmh SW 13.6 mph21.9 kmh 29.54 in1000.3 mb 0.19 in4.8 mm 1.20 in/hr30.5 mm/hr 0.66 in16.8 mm
03:58 AM 58.6°F14.8°C 58.7°F14.8°C 100% 3.1 mph SW5.0 kmh SW 13.6 mph21.9 kmh 29.54 in1000.3 mb 0.19 in4.8 mm 0.00 in/hr0.0 mm/hr 0.66 in16.8 mm
03:59 AM 58.5°F14.7°C 58.5°F14.7°C 100% 5.4 mph SW8.7 kmh SW 13.6 mph21.9 kmh 29.54 in1000.3 mb 0.19 in4.8 mm 0.00 in/hr0.0 mm/hr 0.66 in16.8 mm
04:00 AM 58.6°F14.8°C 58.7°F14.8°C 100% 3.8 mph SW6.1 kmh SW 13.6 mph21.9 kmh 29.54 in1000.3 mb 0.19 in4.8 mm 0.00 in/hr0.0 mm/hr 0.66 in16.8 mm
04:01 AM 58.6°F14.8°C 58.7°F14.8°C 100% 4.5 mph SW7.2 kmh SW 13.6 mph21.9 kmh 29.54 in1000.3 mb 0.19 in4.8 mm 0.00 in/hr0.0 mm/hr 0.66 in16.8 mm
04:02 AM 58.6°F14.8°C 58.7°F14.8°C 100% 3.8 mph SW6.1 kmh SW 13.6 mph21.9 kmh 29.54 in1000.3 mb 0.19 in4.8 mm 0.00 in/hr0.0 mm/hr 0.66 in16.8 mm
04:03 AM 58.6°F14.8°C 58.7°F14.8°C 100% 3.8 mph SW6.1 kmh SW 13.6 mph21.9 kmh 29.54 in1000.3 mb 0.19 in4.8 mm 0.00 in/hr0.0 mm/hr 0.66 in16.8 mm
04:04 AM 58.6°F14.8°C 58.7°F14.8°C 100% 3.8 mph SW6.1 kmh SW 13.6 mph21.9 kmh 29.54 in1000.3 mb 0.19 in4.8 mm 0.00 in/hr0.0 mm/hr 0.66 in16.8 mm
04:05 AM 58.6°F14.8°C 58.7°F14.8°C 100% 6.0 mph WSW9.7 kmh WSW 13.6 mph21.9 kmh 29.54 in1000.3 mb 0.19 in4.8 mm 0.00 in/hr0.0 mm/hr 0.66 in16.8 mm
04:06 AM 58.6°F14.8°C 58.7°F14.8°C 100% 3.1 mph WSW5.0 kmh WSW 13.6 mph21.9 kmh 29.54 in1000.3 mb 0.19 in4.8 mm 0.00 in/hr0.0 mm/hr 0.66 in16.8 mm
04:07 AM 58.6°F14.8°C 58.7°F14.8°C 100% 1.6 mph WSW2.6 kmh WSW 11.4 mph18.3 kmh 29.54 in1000.3 mb 0.19 in4.8 mm 0.00 in/hr0.0 mm/hr 0.66 in16.8 mm
04:08 AM 58.6°F14.8°C 58.7°F14.8°C 100% 1.6 mph WSW2.6 kmh WSW 11.4 mph18.3 kmh 29.54 in1000.3 mb 0.17 in4.3 mm 0.00 in/hr0.0 mm/hr 0.66 in16.8 mm
04:09 AM 58.8°F14.9°C 58.8°F14.9°C 100% 2.2 mph WSW3.5 kmh WSW 11.4 mph18.3 kmh 29.54 in1000.3 mb 0.17 in4.3 mm 0.00 in/hr0.0 mm/hr 0.66 in16.8 mm
04:10 AM 58.8°F14.9°C 58.8°F14.9°C 100% 0.7 mph WSW1.1 kmh WSW 11.4 mph18.3 kmh 29.54 in1000.3 mb 0.17 in4.3 mm 0.00 in/hr0.0 mm/hr 0.66 in16.8 mm
04:11 AM 58.8°F14.9°C 58.8°F14.9°C 100% 4.5 mph SW7.2 kmh SW 11.4 mph18.3 kmh 29.54 in1000.3 mb 0.17 in4.3 mm 0.00 in/hr0.0 mm/hr 0.66 in16.8 mm
04:12 AM 58.8°F14.9°C 58.8°F14.9°C 100% 3.8 mph WSW6.1 kmh WSW 11.4 mph18.3 kmh 29.54 in1000.3 mb 0.17 in4.3 mm 0.00 in/hr0.0 mm/hr 0.66 in16.8 mm
04:13 AM 58.8°F14.9°C 58.8°F14.9°C 100% 1.6 mph WSW2.6 kmh WSW 11.4 mph18.3 kmh 29.55 in1000.7 mb 0.17 in4.3 mm 0.00 in/hr0.0 mm/hr 0.66 in16.8 mm
04:14 AM 58.8°F14.9°C 58.8°F14.9°C 100% 3.1 mph WSW5.0 kmh WSW 9.8 mph15.8 kmh 29.55 in1000.7 mb 0.17 in4.3 mm 0.00 in/hr0.0 mm/hr 0.66 in16.8 mm
04:15 AM 58.8°F14.9°C 58.8°F14.9°C 100% 1.6 mph WSW2.6 kmh WSW 9.8 mph15.8 kmh 29.54 in1000.3 mb 0.17 in4.3 mm 0.00 in/hr0.0 mm/hr 0.66 in16.8 mm
04:16 AM 58.8°F14.9°C 58.8°F14.9°C 100% 1.6 mph WSW2.6 kmh WSW 8.3 mph13.4 kmh 29.54 in1000.3 mb 0.14 in3.6 mm 0.00 in/hr0.0 mm/hr 0.66 in16.8 mm
04:17 AM 58.8°F14.9°C 58.8°F14.9°C 100% 2.2 mph WSW3.5 kmh WSW 8.3 mph13.4 kmh 29.55 in1000.7 mb 0.17 in4.3 mm 1.80 in/hr45.7 mm/hr 0.69 in17.5 mm
04:18 AM 58.8°F14.9°C 58.8°F14.9°C 100% 3.8 mph WSW6.1 kmh WSW 8.3 mph13.4 kmh 29.54 in1000.3 mb 0.17 in4.3 mm 0.00 in/hr0.0 mm/hr 0.69 in17.5 mm
04:19 AM 59.0°F15.0°C 59.0°F15.0°C 100% 2.2 mph WSW3.5 kmh WSW 8.3 mph13.4 kmh 29.55 in1000.7 mb 0.17 in4.3 mm 0.00 in/hr0.0 mm/hr 0.69 in17.5 mm
04:20 AM 59.0°F15.0°C 59.0°F15.0°C 100% 2.2 mph WSW3.5 kmh WSW 8.3 mph13.4 kmh 29.55 in1000.7 mb 0.14 in3.6 mm 0.00 in/hr0.0 mm/hr 0.69 in17.5 mm
04:21 AM 58.8°F14.9°C 58.8°F14.9°C 100% 1.6 mph WSW2.6 kmh WSW 6.9 mph11.1 kmh 29.55 in1000.7 mb 0.14 in3.6 mm 0.00 in/hr0.0 mm/hr 0.69 in17.5 mm
04:22 AM 58.8°F14.9°C 58.8°F14.9°C 100% 1.6 mph SW2.6 kmh SW 6.9 mph11.1 kmh 29.55 in1000.7 mb 0.14 in3.6 mm 0.00 in/hr0.0 mm/hr 0.69 in17.5 mm
04:23 AM 58.8°F14.9°C 58.8°F14.9°C 100% 3.1 mph SW5.0 kmh SW 6.9 mph11.1 kmh 29.55 in1000.7 mb 0.14 in3.6 mm 0.00 in/hr0.0 mm/hr 0.69 in17.5 mm
04:24 AM 59.0°F15.0°C 59.0°F15.0°C 100% 0.7 mph SW1.1 kmh SW 6.9 mph11.1 kmh 29.55 in1000.7 mb 0.14 in3.6 mm 0.00 in/hr0.0 mm/hr 0.69 in17.5 mm
04:25 AM 59.0°F15.0°C 59.0°F15.0°C 100% 3.8 mph SW6.1 kmh SW 10.7 mph17.2 kmh 29.55 in1000.7 mb 0.14 in3.6 mm 0.00 in/hr0.0 mm/hr 0.69 in17.5 mm
04:26 AM 59.2°F15.1°C 59.2°F15.1°C 100% 2.2 mph SW3.5 kmh SW 10.7 mph17.2 kmh 29.55 in1000.7 mb 0.14 in3.6 mm 0.00 in/hr0.0 mm/hr 0.69 in17.5 mm
04:27 AM 59.0°F15.0°C 59.0°F15.0°C 100% 3.1 mph SW5.0 kmh SW 10.7 mph17.2 kmh 29.55 in1000.7 mb 0.14 in3.6 mm 0.00 in/hr0.0 mm/hr 0.69 in17.5 mm
04:28 AM 59.2°F15.1°C 59.2°F15.1°C 100% 2.2 mph SW3.5 kmh SW 10.7 mph17.2 kmh 29.55 in1000.7 mb 0.14 in3.6 mm 0.00 in/hr0.0 mm/hr 0.69 in17.5 mm
04:29 AM 59.2°F15.1°C 59.2°F15.1°C 100% 3.1 mph SW5.0 kmh SW 10.7 mph17.2 kmh 29.55 in1000.7 mb 0.14 in3.6 mm 0.00 in/hr0.0 mm/hr 0.69 in17.5 mm
04:30 AM 59.2°F15.1°C 59.2°F15.1°C 100% 3.8 mph SW6.1 kmh SW 10.7 mph17.2 kmh 29.55 in1000.7 mb 0.14 in3.6 mm 0.00 in/hr0.0 mm/hr 0.69 in17.5 mm
04:31 AM 59.4°F15.2°C 59.4°F15.2°C 100% 3.1 mph SW5.0 kmh SW 10.7 mph17.2 kmh 29.55 in1000.7 mb 0.12 in3.0 mm 0.00 in/hr0.0 mm/hr 0.69 in17.5 mm
04:32 AM 59.4°F15.2°C 59.4°F15.2°C 100% 3.1 mph SW5.0 kmh SW 10.7 mph17.2 kmh 29.55 in1000.7 mb 0.12 in3.0 mm 0.00 in/hr0.0 mm/hr 0.69 in17.5 mm
04:33 AM 59.5°F15.3°C 59.6°F15.3°C 100% 3.1 mph SW5.0 kmh SW 10.7 mph17.2 kmh 29.55 in1000.7 mb 0.14 in3.6 mm 1.20 in/hr30.5 mm/hr 0.71 in18.0 mm
04:34 AM 59.5°F15.3°C 59.6°F15.3°C 100% 5.4 mph SW8.7 kmh SW 10.7 mph17.2 kmh 29.54 in1000.3 mb 0.14 in3.6 mm 0.00 in/hr0.0 mm/hr 0.71 in18.0 mm
04:35 AM 59.9°F15.5°C 59.9°F15.5°C 100% 4.5 mph SW7.2 kmh SW 10.7 mph17.2 kmh 29.55 in1000.7 mb 0.14 in3.6 mm 0.00 in/hr0.0 mm/hr 0.71 in18.0 mm
04:36 AM 60.3°F15.7°C 60.3°F15.7°C 100% 2.2 mph WSW3.5 kmh WSW 7.6 mph12.2 kmh 29.54 in1000.3 mb 0.09 in2.3 mm 0.00 in/hr0.0 mm/hr 0.71 in18.0 mm
04:37 AM 60.3°F15.7°C 60.3°F15.7°C 100% 4.5 mph WSW7.2 kmh WSW 8.3 mph13.4 kmh 29.55 in1000.7 mb 0.09 in2.3 mm 0.00 in/hr0.0 mm/hr 0.71 in18.0 mm
04:38 AM 60.3°F15.7°C 60.3°F15.7°C 100% 5.4 mph W8.7 kmh W 8.3 mph13.4 kmh 29.55 in1000.7 mb 0.09 in2.3 mm 0.00 in/hr0.0 mm/hr 0.71 in18.0 mm
04:39 AM 60.4°F15.8°C 60.5°F15.8°C 100% 7.6 mph WSW12.2 kmh WSW 11.4 mph18.3 kmh 29.54 in1000.3 mb 0.09 in2.3 mm 0.00 in/hr0.0 mm/hr 0.71 in18.0 mm
04:40 AM 60.6°F15.9°C 60.6°F15.9°C 100% 3.8 mph WSW6.1 kmh WSW 11.4 mph18.3 kmh 29.54 in1000.3 mb 0.09 in2.3 mm 0.00 in/hr0.0 mm/hr 0.71 in18.0 mm
04:41 AM 60.4°F15.8°C 60.5°F15.8°C 100% 2.2 mph W3.5 kmh W 11.4 mph18.3 kmh 29.54 in1000.3 mb 0.07 in1.8 mm 0.00 in/hr0.0 mm/hr 0.71 in18.0 mm
04:42 AM 60.6°F15.9°C 60.6°F15.9°C 100% 4.5 mph WSW7.2 kmh WSW 11.4 mph18.3 kmh 29.54 in1000.3 mb 0.07 in1.8 mm 0.00 in/hr0.0 mm/hr 0.71 in18.0 mm
04:43 AM 60.6°F15.9°C 60.6°F15.9°C 100% 7.6 mph WSW12.2 kmh WSW 11.4 mph18.3 kmh 29.54 in1000.3 mb 0.07 in1.8 mm 0.00 in/hr0.0 mm/hr 0.71 in18.0 mm
04:44 AM 61.2°F16.2°C 61.2°F16.2°C 100% 8.3 mph WSW13.4 kmh WSW 12.1 mph19.5 kmh 29.54 in1000.3 mb 0.07 in1.8 mm 0.00 in/hr0.0 mm/hr 0.71 in18.0 mm
04:45 AM 61.3°F16.3°C 61.4°F16.3°C 100% 4.5 mph WSW7.2 kmh WSW 12.1 mph19.5 kmh 29.54 in1000.3 mb 0.07 in1.8 mm 0.00 in/hr0.0 mm/hr 0.71 in18.0 mm
04:46 AM 61.3°F16.3°C 61.4°F16.3°C 100% 7.6 mph WSW12.2 kmh WSW 13.0 mph20.9 kmh 29.54 in1000.3 mb 0.07 in1.8 mm 0.00 in/hr0.0 mm/hr 0.71 in18.0 mm
04:47 AM 61.3°F16.3°C 61.4°F16.3°C 100% 3.8 mph WSW6.1 kmh WSW 13.0 mph20.9 kmh 29.54 in1000.3 mb 0.07 in1.8 mm 0.00 in/hr0.0 mm/hr 0.71 in18.0 mm
04:48 AM 61.3°F16.3°C 61.4°F16.3°C 100% 3.8 mph WSW6.1 kmh WSW 13.0 mph20.9 kmh 29.54 in1000.3 mb 0.07 in1.8 mm 0.00 in/hr0.0 mm/hr 0.71 in18.0 mm
04:49 AM 61.3°F16.3°C 61.4°F16.3°C 100% 5.4 mph WSW8.7 kmh WSW 13.0 mph20.9 kmh 29.54 in1000.3 mb 0.07 in1.8 mm 0.00 in/hr0.0 mm/hr 0.71 in18.0 mm
04:50 AM 61.3°F16.3°C 61.4°F16.3°C 100% 7.6 mph WSW12.2 kmh WSW 13.0 mph20.9 kmh 29.54 in1000.3 mb 0.07 in1.8 mm 0.00 in/hr0.0 mm/hr 0.71 in18.0 mm
04:51 AM 61.3°F16.3°C 61.4°F16.3°C 100% 6.9 mph WSW11.1 kmh WSW 13.0 mph20.9 kmh 29.54 in1000.3 mb 0.07 in1.8 mm 0.00 in/hr0.0 mm/hr 0.71 in18.0 mm
04:52 AM 61.3°F16.3°C 61.4°F16.3°C 100% 9.8 mph WSW15.8 kmh WSW 14.5 mph23.3 kmh 29.54 in1000.3 mb 0.07 in1.8 mm 0.00 in/hr0.0 mm/hr 0.71 in18.0 mm
04:53 AM 61.5°F16.4°C 61.5°F16.4°C 100% 9.8 mph WSW15.8 kmh WSW 14.5 mph23.3 kmh 29.54 in1000.3 mb 0.07 in1.8 mm 0.00 in/hr0.0 mm/hr 0.71 in18.0 mm
04:54 AM 61.5°F16.4°C 61.5°F16.4°C 100% 9.8 mph W15.8 kmh W 15.2 mph24.5 kmh 29.54 in1000.3 mb 0.07 in1.8 mm 0.00 in/hr0.0 mm/hr 0.71 in18.0 mm
04:55 AM 61.5°F16.4°C 61.5°F16.4°C 100% 8.3 mph W13.4 kmh W 15.2 mph24.5 kmh 29.54 in1000.3 mb 0.07 in1.8 mm 0.00 in/hr0.0 mm/hr 0.71 in18.0 mm
04:56 AM 61.7°F16.5°C 61.7°F16.5°C 100% 9.8 mph W15.8 kmh W 15.2 mph24.5 kmh 29.54 in1000.3 mb 0.07 in1.8 mm 0.00 in/hr0.0 mm/hr 0.71 in18.0 mm
04:57 AM 61.7°F16.5°C 61.7°F16.5°C 100% 6.9 mph W11.1 kmh W 15.2 mph24.5 kmh 29.54 in1000.3 mb 0.05 in1.3 mm 0.00 in/hr0.0 mm/hr 0.71 in18.0 mm
04:58 AM 61.7°F16.5°C 61.7°F16.5°C 100% 9.8 mph W15.8 kmh W 16.8 mph27.0 kmh 29.54 in1000.3 mb 0.05 in1.3 mm 0.00 in/hr0.0 mm/hr 0.71 in18.0 mm
04:59 AM 61.9°F16.6°C 61.9°F16.6°C 100% 8.3 mph W13.4 kmh W 16.8 mph27.0 kmh 29.54 in1000.3 mb 0.05 in1.3 mm 0.00 in/hr0.0 mm/hr 0.71 in18.0 mm
05:00 AM 61.9°F16.6°C 61.9°F16.6°C 100% 5.4 mph W8.7 kmh W 16.8 mph27.0 kmh 29.54 in1000.3 mb 0.05 in1.3 mm 0.00 in/hr0.0 mm/hr 0.71 in18.0 mm
05:01 AM 61.9°F16.6°C 61.9°F16.6°C 100% 5.4 mph WSW8.7 kmh WSW 16.8 mph27.0 kmh 29.54 in1000.3 mb 0.05 in1.3 mm 0.00 in/hr0.0 mm/hr 0.71 in18.0 mm
05:02 AM 61.9°F16.6°C 61.9°F16.6°C 100% 5.4 mph WSW8.7 kmh WSW 16.8 mph27.0 kmh 29.54 in1000.3 mb 0.05 in1.3 mm 0.00 in/hr0.0 mm/hr 0.71 in18.0 mm
05:03 AM 61.9°F16.6°C 61.9°F16.6°C 100% 5.4 mph WSW8.7 kmh WSW 16.8 mph27.0 kmh 29.53 in1000.0 mb 0.05 in1.3 mm 0.00 in/hr0.0 mm/hr 0.71 in18.0 mm
05:04 AM 61.9°F16.6°C 61.9°F16.6°C 100% 5.4 mph WSW8.7 kmh WSW 16.8 mph27.0 kmh 29.54 in1000.3 mb 0.05 in1.3 mm 0.00 in/hr0.0 mm/hr 0.71 in18.0 mm
05:05 AM 61.9°F16.6°C 61.9°F16.6°C 100% 5.4 mph WSW8.7 kmh WSW 16.8 mph27.0 kmh 29.54 in1000.3 mb 0.05 in1.3 mm 0.00 in/hr0.0 mm/hr 0.71 in18.0 mm
05:06 AM 61.9°F16.6°C 61.9°F16.6°C 100% 5.4 mph WSW8.7 kmh WSW 16.8 mph27.0 kmh 29.53 in1000.0 mb 0.05 in1.3 mm 0.00 in/hr0.0 mm/hr 0.71 in18.0 mm
05:07 AM 61.9°F16.6°C 61.9°F16.6°C 100% 5.4 mph WSW8.7 kmh WSW 16.8 mph27.0 kmh 29.53 in1000.0 mb 0.05 in1.3 mm 0.00 in/hr0.0 mm/hr 0.71 in18.0 mm
05:08 AM 61.9°F16.6°C 61.9°F16.6°C 100% 5.4 mph WSW8.7 kmh WSW 13.6 mph21.9 kmh 29.54 in1000.3 mb 0.05 in1.3 mm 0.00 in/hr0.0 mm/hr 0.71 in18.0 mm
05:09 AM 61.7°F16.5°C 61.7°F16.5°C 100% 9.2 mph WSW14.8 kmh WSW 19.0 mph30.6 kmh 29.54 in1000.3 mb 0.05 in1.3 mm 0.00 in/hr0.0 mm/hr 0.71 in18.0 mm
05:10 AM 61.7°F16.5°C 61.7°F16.5°C 100% 9.8 mph WSW15.8 kmh WSW 19.0 mph30.6 kmh 29.53 in1000.0 mb 0.05 in1.3 mm 0.00 in/hr0.0 mm/hr 0.71 in18.0 mm
05:11 AM 61.7°F16.5°C 61.7°F16.5°C 100% 5.4 mph WSW8.7 kmh WSW 19.0 mph30.6 kmh 29.54 in1000.3 mb 0.05 in1.3 mm 0.00 in/hr0.0 mm/hr 0.71 in18.0 mm
05:12 AM 61.7°F16.5°C 61.7°F16.5°C 100% 6.0 mph WSW9.7 kmh WSW 19.0 mph30.6 kmh 29.53 in1000.0 mb 0.05 in1.3 mm 0.00 in/hr0.0 mm/hr 0.71 in18.0 mm
05:13 AM 61.7°F16.5°C 61.7°F16.5°C 100% 6.0 mph WSW9.7 kmh WSW 19.0 mph30.6 kmh 29.53 in1000.0 mb 0.05 in1.3 mm 0.00 in/hr0.0 mm/hr 0.71 in18.0 mm
05:14 AM 61.7°F16.5°C 61.7°F16.5°C 100% 3.8 mph WSW6.1 kmh WSW 19.0 mph30.6 kmh 29.53 in1000.0 mb 0.05 in1.3 mm 0.00 in/hr0.0 mm/hr 0.71 in18.0 mm
05:15 AM 61.5°F16.4°C 61.5°F16.4°C 100% 6.9 mph WSW11.1 kmh WSW 19.0 mph30.6 kmh 29.53 in1000.0 mb 0.05 in1.3 mm 0.00 in/hr0.0 mm/hr 0.71 in18.0 mm
05:16 AM 61.7°F16.5°C 61.7°F16.5°C 100% 9.2 mph WSW14.8 kmh WSW 19.0 mph30.6 kmh 29.53 in1000.0 mb 0.05 in1.3 mm 0.00 in/hr0.0 mm/hr 0.71 in18.0 mm
05:17 AM 61.5°F16.4°C 61.5°F16.4°C 100% 6.9 mph WSW11.1 kmh WSW 19.0 mph30.6 kmh 29.53 in1000.0 mb 0.02 in0.5 mm 0.00 in/hr0.0 mm/hr 0.71 in18.0 mm
05:18 AM 61.5°F16.4°C 61.5°F16.4°C 100% 6.0 mph WSW9.7 kmh WSW 19.0 mph30.6 kmh 29.53 in1000.0 mb 0.02 in0.5 mm 0.00 in/hr0.0 mm/hr 0.71 in18.0 mm
05:19 AM 61.5°F16.4°C 61.5°F16.4°C 100% 4.5 mph W7.2 kmh W 19.0 mph30.6 kmh 29.53 in1000.0 mb 0.02 in0.5 mm 0.00 in/hr0.0 mm/hr 0.71 in18.0 mm
05:20 AM 61.5°F16.4°C 61.5°F16.4°C 100% 4.5 mph W7.2 kmh W 13.0 mph20.9 kmh 29.53 in1000.0 mb 0.02 in0.5 mm 0.00 in/hr0.0 mm/hr 0.71 in18.0 mm
05:21 AM 61.5°F16.4°C 61.5°F16.4°C 100% 7.6 mph W12.2 kmh W 13.0 mph20.9 kmh 29.53 in1000.0 mb 0.02 in0.5 mm 0.00 in/hr0.0 mm/hr 0.71 in18.0 mm
05:22 AM 61.5°F16.4°C 61.5°F16.4°C 100% 6.9 mph W11.1 kmh W 13.0 mph20.9 kmh 29.53 in1000.0 mb 0.02 in0.5 mm 0.00 in/hr0.0 mm/hr 0.71 in18.0 mm
05:23 AM 61.5°F16.4°C 61.5°F16.4°C 100% 8.3 mph W13.4 kmh W 12.1 mph19.5 kmh 29.53 in1000.0 mb 0.02 in0.5 mm 0.00 in/hr0.0 mm/hr 0.71 in18.0 mm
05:24 AM 61.5°F16.4°C 61.5°F16.4°C 100% 4.5 mph W7.2 kmh W 12.1 mph19.5 kmh 29.53 in1000.0 mb 0.02 in0.5 mm 0.00 in/hr0.0 mm/hr 0.71 in18.0 mm
05:25 AM 61.5°F16.4°C 61.5°F16.4°C 100% 6.9 mph W11.1 kmh W 12.1 mph19.5 kmh 29.53 in1000.0 mb 0.02 in0.5 mm 0.00 in/hr0.0 mm/hr 0.71 in18.0 mm
05:26 AM 61.5°F16.4°C 61.5°F16.4°C 100% 6.0 mph WSW9.7 kmh WSW 13.0 mph20.9 kmh 29.53 in1000.0 mb 0.02 in0.5 mm 0.00 in/hr0.0 mm/hr 0.71 in18.0 mm
05:27 AM 61.5°F16.4°C 61.5°F16.4°C 100% 7.6 mph WSW12.2 kmh WSW 13.0 mph20.9 kmh 29.53 in1000.0 mb 0.02 in0.5 mm 0.00 in/hr0.0 mm/hr 0.71 in18.0 mm
05:28 AM 61.5°F16.4°C 61.5°F16.4°C 100% 6.0 mph WSW9.7 kmh WSW 13.0 mph20.9 kmh 29.53 in1000.0 mb 0.02 in0.5 mm 0.00 in/hr0.0 mm/hr 0.71 in18.0 mm
05:29 AM 61.5°F16.4°C 61.5°F16.4°C 100% 6.0 mph WSW9.7 kmh WSW 13.0 mph20.9 kmh 29.54 in1000.3 mb 0.02 in0.5 mm 0.00 in/hr0.0 mm/hr 0.71 in18.0 mm
05:30 AM 61.5°F16.4°C 61.5°F16.4°C 100% 6.0 mph WSW9.7 kmh WSW 14.5 mph23.3 kmh 29.54 in1000.3 mb 0.02 in0.5 mm 0.00 in/hr0.0 mm/hr 0.71 in18.0 mm
05:31 AM 61.5°F16.4°C 61.5°F16.4°C 100% 5.4 mph WSW8.7 kmh WSW 14.5 mph23.3 kmh 29.54 in1000.3 mb 0.02 in0.5 mm 0.00 in/hr0.0 mm/hr 0.71 in18.0 mm
05:32 AM 61.5°F16.4°C 61.5°F16.4°C 100% 6.9 mph WSW11.1 kmh WSW 14.5 mph23.3 kmh 29.54 in1000.3 mb 0.00 in0.0 mm 0.00 in/hr0.0 mm/hr 0.71 in18.0 mm
05:33 AM 61.5°F16.4°C 61.5°F16.4°C 100% 6.9 mph WSW11.1 kmh WSW 14.5 mph23.3 kmh 29.54 in1000.3 mb 0.00 in0.0 mm 0.00 in/hr0.0 mm/hr 0.71 in18.0 mm
05:34 AM 61.5°F16.4°C 61.5°F16.4°C 100% 7.6 mph WSW12.2 kmh WSW 15.2 mph24.5 kmh 29.54 in1000.3 mb 0.00 in0.0 mm 0.00 in/hr0.0 mm/hr 0.71 in18.0 mm
05:35 AM 61.5°F16.4°C 61.5°F16.4°C 100% 6.0 mph WSW9.7 kmh WSW 15.2 mph24.5 kmh 29.54 in1000.3 mb 0.00 in0.0 mm 0.00 in/hr0.0 mm/hr 0.71 in18.0 mm
05:36 AM 61.5°F16.4°C 61.5°F16.4°C 100% 6.0 mph WSW9.7 kmh WSW 15.2 mph24.5 kmh 29.54 in1000.3 mb 0.00 in0.0 mm 0.00 in/hr0.0 mm/hr 0.71 in18.0 mm
05:37 AM 61.5°F16.4°C 61.5°F16.4°C 100% 5.4 mph WSW8.7 kmh WSW 15.2 mph24.5 kmh 29.54 in1000.3 mb 0.00 in0.0 mm 0.00 in/hr0.0 mm/hr 0.71 in18.0 mm
05:38 AM 61.5°F16.4°C 61.5°F16.4°C 100% 6.0 mph WSW9.7 kmh WSW 15.2 mph24.5 kmh 29.54 in1000.3 mb 0.00 in0.0 mm 0.00 in/hr0.0 mm/hr 0.71 in18.0 mm
05:39 AM 61.5°F16.4°C 61.5°F16.4°C 100% 7.6 mph WSW12.2 kmh WSW 15.2 mph24.5 kmh 29.54 in1000.3 mb 0.00 in0.0 mm 0.00 in/hr0.0 mm/hr 0.71 in18.0 mm
05:40 AM 61.5°F16.4°C 61.5°F16.4°C 100% 8.3 mph WSW13.4 kmh WSW 15.2 mph24.5 kmh 29.54 in1000.3 mb 0.00 in0.0 mm 0.00 in/hr0.0 mm/hr 0.71 in18.0 mm
05:41 AM 61.5°F16.4°C 61.5°F16.4°C 100% 3.8 mph WSW6.1 kmh WSW 15.2 mph24.5 kmh 29.54 in1000.3 mb 0.00 in0.0 mm 0.00 in/hr0.0 mm/hr 0.71 in18.0 mm
05:42 AM 61.5°F16.4°C 61.5°F16.4°C 100% 7.6 mph WSW12.2 kmh WSW 15.2 mph24.5 kmh 29.53 in1000.0 mb 0.00 in0.0 mm 0.00 in/hr0.0 mm/hr 0.71 in18.0 mm
05:43 AM 61.3°F16.3°C 61.4°F16.3°C 100% 10.7 mph WSW17.2 kmh WSW 16.8 mph27.0 kmh 29.53 in1000.0 mb 0.00 in0.0 mm 0.00 in/hr0.0 mm/hr 0.71 in18.0 mm
05:44 AM 61.5°F16.4°C 61.5°F16.4°C 100% 7.6 mph WSW12.2 kmh WSW 16.8 mph27.0 kmh 29.54 in1000.3 mb 0.00 in0.0 mm 0.00 in/hr0.0 mm/hr 0.71 in18.0 mm
05:45 AM 61.5°F16.4°C 61.5°F16.4°C 100% 5.4 mph WSW8.7 kmh WSW 16.8 mph27.0 kmh 29.54 in1000.3 mb 0.00 in0.0 mm 0.00 in/hr0.0 mm/hr 0.71 in18.0 mm
05:46 AM 61.5°F16.4°C 61.5°F16.4°C 100% 5.4 mph WSW8.7 kmh WSW 16.8 mph27.0 kmh 29.54 in1000.3 mb 0.00 in0.0 mm 0.00 in/hr0.0 mm/hr 0.71 in18.0 mm
05:47 AM 61.3°F16.3°C 61.4°F16.3°C 100% 6.9 mph WSW11.1 kmh WSW 16.8 mph27.0 kmh 29.54 in1000.3 mb 0.00 in0.0 mm 0.00 in/hr0.0 mm/hr 0.71 in18.0 mm
05:48 AM 61.5°F16.4°C 61.5°F16.4°C 100% 6.0 mph WSW9.7 kmh WSW 16.8 mph27.0 kmh 29.54 in1000.3 mb 0.00 in0.0 mm 0.00 in/hr0.0 mm/hr 0.71 in18.0 mm
05:49 AM 61.3°F16.3°C 61.4°F16.3°C 100% 5.4 mph WSW8.7 kmh WSW 16.8 mph27.0 kmh 29.54 in1000.3 mb 0.00 in0.0 mm 0.00 in/hr0.0 mm/hr 0.71 in18.0 mm
05:50 AM 61.5°F16.4°C 61.5°F16.4°C 100% 4.5 mph WSW7.2 kmh WSW 16.8 mph27.0 kmh 29.54 in1000.3 mb 0.00 in0.0 mm 0.00 in/hr0.0 mm/hr 0.71 in18.0 mm
05:51 AM 61.3°F16.3°C 61.4°F16.3°C 100% 3.8 mph WSW6.1 kmh WSW 16.8 mph27.0 kmh 29.54 in1000.3 mb 0.00 in0.0 mm 0.00 in/hr0.0 mm/hr 0.71 in18.0 mm
05:52 AM 61.3°F16.3°C 61.4°F16.3°C 100% 6.0 mph WSW9.7 kmh WSW 16.8 mph27.0 kmh 29.54 in1000.3 mb 0.00 in0.0 mm 0.00 in/hr0.0 mm/hr 0.71 in18.0 mm
05:53 AM 61.3°F16.3°C 61.4°F16.3°C 100% 3.8 mph WSW6.1 kmh WSW 16.8 mph27.0 kmh 29.54 in1000.3 mb 0.00 in0.0 mm 0.00 in/hr0.0 mm/hr 0.71 in18.0 mm
05:54 AM 61.3°F16.3°C 61.4°F16.3°C 100% 3.1 mph W5.0 kmh W 15.9 mph25.6 kmh 29.54 in1000.3 mb 0.00 in0.0 mm 0.00 in/hr0.0 mm/hr 0.71 in18.0 mm
05:55 AM 61.3°F16.3°C 61.4°F16.3°C 100% 5.4 mph W8.7 kmh W 15.9 mph25.6 kmh 29.54 in1000.3 mb 0.00 in0.0 mm 0.00 in/hr0.0 mm/hr 0.71 in18.0 mm
05:56 AM 61.3°F16.3°C 61.4°F16.3°C 100% 4.5 mph W7.2 kmh W 15.9 mph25.6 kmh 29.54 in1000.3 mb 0.00 in0.0 mm 0.00 in/hr0.0 mm/hr 0.71 in18.0 mm
05:57 AM 61.3°F16.3°C 61.4°F16.3°C 100% 6.0 mph W9.7 kmh W 15.9 mph25.6 kmh 29.54 in1000.3 mb 0.00 in0.0 mm 0.00 in/hr0.0 mm/hr 0.71 in18.0 mm
05:58 AM 61.3°F16.3°C 61.4°F16.3°C 100% 4.5 mph W7.2 kmh W 15.9 mph25.6 kmh 29.54 in1000.3 mb 0.00 in0.0 mm 0.00 in/hr0.0 mm/hr 0.71 in18.0 mm
05:59 AM 61.3°F16.3°C 61.4°F16.3°C 100% 3.1 mph W5.0 kmh W 12.1 mph19.5 kmh 29.54 in1000.3 mb 0.00 in0.0 mm 0.00 in/hr0.0 mm/hr 0.71 in18.0 mm
06:00 AM 61.3°F16.3°C 61.4°F16.3°C 100% 3.1 mph W5.0 kmh W 12.1 mph19.5 kmh 29.54 in1000.3 mb 0.00 in0.0 mm 0.00 in/hr0.0 mm/hr 0.71 in18.0 mm
06:01 AM 61.3°F16.3°C 61.4°F16.3°C 100% 3.1 mph W5.0 kmh W 12.1 mph19.5 kmh 29.54 in1000.3 mb 0.00 in0.0 mm 0.00 in/hr0.0 mm/hr 0.71 in18.0 mm
06:02 AM 61.3°F16.3°C 61.4°F16.3°C 100% 4.5 mph W7.2 kmh W 12.1 mph19.5 kmh 29.54 in1000.3 mb 0.00 in0.0 mm 0.00 in/hr0.0 mm/hr 0.71 in18.0 mm
06:03 AM 61.3°F16.3°C 61.4°F16.3°C 100% 4.5 mph W7.2 kmh W 12.1 mph19.5 kmh 29.54 in1000.3 mb 0.00 in0.0 mm 0.00 in/hr0.0 mm/hr 0.71 in18.0 mm
06:04 AM 61.3°F16.3°C 61.4°F16.3°C 100% 6.0 mph WSW9.7 kmh WSW 12.1 mph19.5 kmh 29.54 in1000.3 mb 0.00 in0.0 mm 0.00 in/hr0.0 mm/hr 0.71 in18.0 mm
06:05 AM 61.5°F16.4°C 61.5°F16.4°C 100% 4.5 mph WSW7.2 kmh WSW 12.1 mph19.5 kmh 29.54 in1000.3 mb 0.00 in0.0 mm 0.00 in/hr0.0 mm/hr 0.71 in18.0 mm
06:06 AM 61.3°F16.3°C 61.4°F16.3°C 100% 6.0 mph W9.7 kmh W 12.1 mph19.5 kmh 29.54 in1000.3 mb 0.00 in0.0 mm 0.00 in/hr0.0 mm/hr 0.71 in18.0 mm
06:07 AM 61.5°F16.4°C 61.5°F16.4°C 100% 4.5 mph W7.2 kmh W 12.1 mph19.5 kmh 29.54 in1000.3 mb 0.00 in0.0 mm 0.00 in/hr0.0 mm/hr 0.71 in18.0 mm
06:08 AM 61.3°F16.3°C 61.4°F16.3°C 100% 6.0 mph WSW9.7 kmh WSW 13.0 mph20.9 kmh 29.53 in1000.0 mb 0.00 in0.0 mm 0.00 in/hr0.0 mm/hr 0.71 in18.0 mm
06:09 AM 61.5°F16.4°C 61.5°F16.4°C 100% 6.9 mph WSW11.1 kmh WSW 18.3 mph29.5 kmh 29.54 in1000.3 mb 0.00 in0.0 mm 0.00 in/hr0.0 mm/hr 0.71 in18.0 mm
06:10 AM 61.5°F16.4°C 61.5°F16.4°C 100% 7.6 mph WSW12.2 kmh WSW 18.3 mph29.5 kmh 29.54 in1000.3 mb 0.00 in0.0 mm 0.00 in/hr0.0 mm/hr 0.71 in18.0 mm
06:11 AM 61.5°F16.4°C 61.5°F16.4°C 100% 5.4 mph WSW8.7 kmh WSW 18.3 mph29.5 kmh 29.53 in1000.0 mb 0.00 in0.0 mm 0.00 in/hr0.0 mm/hr 0.71 in18.0 mm
06:12 AM 61.5°F16.4°C 61.5°F16.4°C 100% 3.8 mph WSW6.1 kmh WSW 18.3 mph29.5 kmh 29.53 in1000.0 mb 0.00 in0.0 mm 0.00 in/hr0.0 mm/hr 0.71 in18.0 mm
06:13 AM 61.3°F16.3°C 61.4°F16.3°C 100% 5.4 mph WSW8.7 kmh WSW 18.3 mph29.5 kmh 29.53 in1000.0 mb 0.00 in0.0 mm 0.00 in/hr0.0 mm/hr 0.71 in18.0 mm
06:14 AM 61.5°F16.4°C 61.5°F16.4°C 100% 5.4 mph WSW8.7 kmh WSW 18.3 mph29.5 kmh 29.53 in1000.0 mb 0.00 in0.0 mm 0.00 in/hr0.0 mm/hr 0.71 in18.0 mm
06:15 AM 61.3°F16.3°C 61.4°F16.3°C 100% 3.8 mph WSW6.1 kmh WSW 18.3 mph29.5 kmh 29.53 in1000.0 mb 0.00 in0.0 mm 0.00 in/hr0.0 mm/hr 0.71 in18.0 mm
06:16 AM 61.3°F16.3°C 61.4°F16.3°C 100% 3.8 mph WSW6.1 kmh WSW 18.3 mph29.5 kmh 29.53 in1000.0 mb 0.00 in0.0 mm 0.00 in/hr0.0 mm/hr 0.71 in18.0 mm
06:17 AM 61.3°F16.3°C 61.4°F16.3°C 100% 6.9 mph WSW11.1 kmh WSW 18.3 mph29.5 kmh 29.53 in1000.0 mb 0.00 in0.0 mm 0.00 in/hr0.0 mm/hr 0.71 in18.0 mm
06:18 AM 61.3°F16.3°C 61.4°F16.3°C 100% 3.8 mph WSW6.1 kmh WSW 18.3 mph29.5 kmh 29.53 in1000.0 mb 0.00 in0.0 mm 0.00 in/hr0.0 mm/hr 0.71 in18.0 mm
06:19 AM 61.3°F16.3°C 61.4°F16.3°C 100% 6.9 mph WSW11.1 kmh WSW 18.3 mph29.5 kmh 29.53 in1000.0 mb 0.00 in0.0 mm 0.00 in/hr0.0 mm/hr 0.71 in18.0 mm
06:20 AM 61.3°F16.3°C 61.4°F16.3°C 100% 3.8 mph WSW6.1 kmh WSW 11.4 mph18.3 kmh 29.53 in1000.0 mb 0.00 in0.0 mm 0.00 in/hr0.0 mm/hr 0.71 in18.0 mm
06:21 AM 61.3°F16.3°C 61.4°F16.3°C 100% 6.0 mph SW9.7 kmh SW 10.7 mph17.2 kmh 29.53 in1000.0 mb 0.00 in0.0 mm 0.00 in/hr0.0 mm/hr 0.71 in18.0 mm
06:22 AM 61.3°F16.3°C 61.4°F16.3°C 100% 6.0 mph SW9.7 kmh SW 11.4 mph18.3 kmh 29.53 in1000.0 mb 0.00 in0.0 mm 0.00 in/hr0.0 mm/hr 0.71 in18.0 mm
06:23 AM 61.3°F16.3°C 61.4°F16.3°C 100% 2.2 mph WSW3.5 kmh WSW 11.4 mph18.3 kmh 29.53 in1000.0 mb 0.00 in0.0 mm 0.00 in/hr0.0 mm/hr 0.71 in18.0 mm
06:24 AM 61.3°F16.3°C 61.4°F16.3°C 100% 4.5 mph WSW7.2 kmh WSW 11.4 mph18.3 kmh 29.53 in1000.0 mb 0.00 in0.0 mm 0.00 in/hr0.0 mm/hr 0.71 in18.0 mm
06:25 AM 61.3°F16.3°C 61.4°F16.3°C 100% 3.8 mph WSW6.1 kmh WSW 11.4 mph18.3 kmh 29.53 in1000.0 mb 0.00 in0.0 mm 0.00 in/hr0.0 mm/hr 0.71 in18.0 mm
06:26 AM 61.3°F16.3°C 61.4°F16.3°C 100% 2.2 mph WSW3.5 kmh WSW 11.4 mph18.3 kmh 29.53 in1000.0 mb 0.00 in0.0 mm 0.00 in/hr0.0 mm/hr 0.71 in18.0 mm
06:27 AM 61.2°F16.2°C 61.2°F16.2°C 100% 6.0 mph WSW9.7 kmh WSW 11.4 mph18.3 kmh 29.53 in1000.0 mb 0.00 in0.0 mm 0.00 in/hr0.0 mm/hr 0.71 in18.0 mm
06:28 AM 61.3°F16.3°C 61.4°F16.3°C 100% 3.1 mph WSW5.0 kmh WSW 11.4 mph18.3 kmh 29.53 in1000.0 mb 0.00 in0.0 mm 0.00 in/hr0.0 mm/hr 0.71 in18.0 mm
06:29 AM 61.3°F16.3°C 61.4°F16.3°C 100% 2.2 mph WSW3.5 kmh WSW 11.4 mph18.3 kmh 29.53 in1000.0 mb 0.00 in0.0 mm 0.00 in/hr0.0 mm/hr 0.71 in18.0 mm
06:30 AM 61.2°F16.2°C 61.2°F16.2°C 100% 4.5 mph WSW7.2 kmh WSW 11.4 mph18.3 kmh 29.53 in1000.0 mb 0.00 in0.0 mm 0.00 in/hr0.0 mm/hr 0.71 in18.0 mm
06:31 AM 61.2°F16.2°C 61.2°F16.2°C 100% 4.5 mph WSW7.2 kmh WSW 11.4 mph18.3 kmh 29.53 in1000.0 mb 0.00 in0.0 mm 0.00 in/hr0.0 mm/hr 0.71 in18.0 mm
06:32 AM 61.2°F16.2°C 61.2°F16.2°C 100% 5.4 mph WSW8.7 kmh WSW 11.4 mph18.3 kmh 29.53 in1000.0 mb 0.00 in0.0 mm 0.00 in/hr0.0 mm/hr 0.71 in18.0 mm
06:33 AM 61.2°F16.2°C 61.2°F16.2°C 100% 3.1 mph WSW5.0 kmh WSW 10.7 mph17.2 kmh 29.53 in1000.0 mb 0.00 in0.0 mm 0.00 in/hr0.0 mm/hr 0.71 in18.0 mm
06:34 AM 61.2°F16.2°C 61.2°F16.2°C 100% 4.5 mph SW7.2 kmh SW 10.7 mph17.2 kmh 29.54 in1000.3 mb 0.00 in0.0 mm 0.00 in/hr0.0 mm/hr 0.71 in18.0 mm
06:35 AM 61.2°F16.2°C 61.2°F16.2°C 100% 3.8 mph SW6.1 kmh SW 10.7 mph17.2 kmh 29.54 in1000.3 mb 0.00 in0.0 mm 0.00 in/hr0.0 mm/hr 0.71 in18.0 mm
06:36 AM 61.2°F16.2°C 61.2°F16.2°C 100% 6.9 mph WSW11.1 kmh WSW 10.7 mph17.2 kmh 29.53 in1000.0 mb 0.00 in0.0 mm 0.00 in/hr0.0 mm/hr 0.71 in18.0 mm
06:37 AM 61.2°F16.2°C 61.2°F16.2°C 100% 3.8 mph SW6.1 kmh SW 10.7 mph17.2 kmh 29.53 in1000.0 mb 0.00 in0.0 mm 0.00 in/hr0.0 mm/hr 0.71 in18.0 mm
06:38 AM 61.2°F16.2°C 61.2°F16.2°C 100% 3.8 mph SW6.1 kmh SW 10.7 mph17.2 kmh 29.53 in1000.0 mb 0.00 in0.0 mm 0.00 in/hr0.0 mm/hr 0.71 in18.0 mm
06:39 AM 61.0°F16.1°C 61.0°F16.1°C 100% 2.2 mph SW3.5 kmh SW 10.7 mph17.2 kmh 29.53 in1000.0 mb 0.00 in0.0 mm 0.00 in/hr0.0 mm/hr 0.71 in18.0 mm
06:40 AM 61.2°F16.2°C 61.2°F16.2°C 100% 2.2 mph SW3.5 kmh SW 10.7 mph17.2 kmh 29.54 in1000.3 mb 0.00 in0.0 mm 0.00 in/hr0.0 mm/hr 0.71 in18.0 mm
06:41 AM 61.0°F16.1°C 61.0°F16.1°C 100% 3.8 mph SW6.1 kmh SW 10.7 mph17.2 kmh 29.54 in1000.3 mb 0.00 in0.0 mm 0.00 in/hr0.0 mm/hr 0.71 in18.0 mm
06:42 AM 61.0°F16.1°C 61.0°F16.1°C 100% 3.1 mph WSW5.0 kmh WSW 10.7 mph17.2 kmh 29.54 in1000.3 mb 0.00 in0.0 mm 0.00 in/hr0.0 mm/hr 0.71 in18.0 mm
06:43 AM 61.0°F16.1°C 61.0°F16.1°C 100% 3.1 mph WSW5.0 kmh WSW 9.8 mph15.8 kmh 29.54 in1000.3 mb 0.00 in0.0 mm 0.00 in/hr0.0 mm/hr 0.71 in18.0 mm
06:44 AM 61.0°F16.1°C 61.0°F16.1°C 100% 4.5 mph WSW7.2 kmh WSW 9.8 mph15.8 kmh 29.54 in1000.3 mb 0.00 in0.0 mm 0.00 in/hr0.0 mm/hr 0.71 in18.0 mm
06:45 AM 60.8°F16.0°C 60.8°F16.0°C 100% 4.5 mph WSW7.2 kmh WSW 9.8 mph15.8 kmh 29.54 in1000.3 mb 0.00 in0.0 mm 0.00 in/hr0.0 mm/hr 0.71 in18.0 mm
06:46 AM 60.8°F16.0°C 60.8°F16.0°C 100% 4.5 mph WSW7.2 kmh WSW 9.2 mph14.8 kmh 29.54 in1000.3 mb 0.00 in0.0 mm 0.00 in/hr0.0 mm/hr 0.71 in18.0 mm
06:47 AM 60.8°F16.0°C 60.8°F16.0°C 100% 5.4 mph WSW8.7 kmh WSW 10.7 mph17.2 kmh 29.54 in1000.3 mb 0.00 in0.0 mm 0.00 in/hr0.0 mm/hr 0.71 in18.0 mm
06:48 AM 60.8°F16.0°C 60.8°F16.0°C 100% 3.1 mph WSW5.0 kmh WSW 10.7 mph17.2 kmh 29.54 in1000.3 mb 0.00 in0.0 mm 0.00 in/hr0.0 mm/hr 0.71 in18.0 mm
06:49 AM 60.8°F16.0°C 60.8°F16.0°C 100% 3.8 mph WSW6.1 kmh WSW 10.7 mph17.2 kmh 29.54 in1000.3 mb 0.00 in0.0 mm 0.00 in/hr0.0 mm/hr 0.71 in18.0 mm
06:50 AM 60.8°F16.0°C 60.8°F16.0°C 100% 3.8 mph WSW6.1 kmh WSW 10.7 mph17.2 kmh 29.54 in1000.3 mb 0.00 in0.0 mm 0.00 in/hr0.0 mm/hr 0.71 in18.0 mm
06:51 AM 60.8°F16.0°C 60.8°F16.0°C 100% 3.8 mph WSW6.1 kmh WSW 10.7 mph17.2 kmh 29.54 in1000.3 mb 0.00 in0.0 mm 0.00 in/hr0.0 mm/hr 0.71 in18.0 mm
06:52 AM 60.6°F15.9°C 60.6°F15.9°C 100% 3.8 mph WSW6.1 kmh WSW 10.7 mph17.2 kmh 29.54 in1000.3 mb 0.00 in0.0 mm 0.00 in/hr0.0 mm/hr 0.71 in18.0 mm
06:53 AM 60.8°F16.0°C 60.8°F16.0°C 100% 3.8 mph WSW6.1 kmh WSW 10.7 mph17.2 kmh 29.54 in1000.3 mb 0.00 in0.0 mm 0.00 in/hr0.0 mm/hr 0.71 in18.0 mm
06:54 AM 60.8°F16.0°C 60.8°F16.0°C 100% 4.5 mph WSW7.2 kmh WSW 10.7 mph17.2 kmh 29.54 in1000.3 mb 0.00 in0.0 mm 0.00 in/hr0.0 mm/hr 0.71 in18.0 mm
06:55 AM 60.8°F16.0°C 60.8°F16.0°C 100% 4.5 mph W7.2 kmh W 10.7 mph17.2 kmh 29.54 in1000.3 mb 0.00 in0.0 mm 0.00 in/hr0.0 mm/hr 0.71 in18.0 mm
06:56 AM 60.8°F16.0°C 60.8°F16.0°C 100% 3.8 mph W6.1 kmh W 10.7 mph17.2 kmh 29.54 in1000.3 mb 0.00 in0.0 mm 0.00 in/hr0.0 mm/hr 0.71 in18.0 mm
06:57 AM 60.8°F16.0°C 60.8°F16.0°C 100% 6.0 mph W9.7 kmh W 13.0 mph20.9 kmh 29.54 in1000.3 mb 0.00 in0.0 mm 0.00 in/hr0.0 mm/hr 0.71 in18.0 mm
06:58 AM 61.0°F16.1°C 61.0°F16.1°C 100% 6.0 mph W9.7 kmh W 13.0 mph20.9 kmh 29.55 in1000.7 mb 0.00 in0.0 mm 0.00 in/hr0.0 mm/hr 0.71 in18.0 mm
06:59 AM 61.0°F16.1°C 61.0°F16.1°C 100% 6.0 mph W9.7 kmh W 13.0 mph20.9 kmh 29.54 in1000.3 mb 0.00 in0.0 mm 0.00 in/hr0.0 mm/hr 0.71 in18.0 mm
07:00 AM 61.0°F16.1°C 61.0°F16.1°C 100% 3.1 mph W5.0 kmh W 13.0 mph20.9 kmh 29.55 in1000.7 mb 0.00 in0.0 mm 0.00 in/hr0.0 mm/hr 0.71 in18.0 mm
07:01 AM 61.0°F16.1°C 61.0°F16.1°C 100% 3.1 mph WSW5.0 kmh WSW 13.0 mph20.9 kmh 29.55 in1000.7 mb 0.00 in0.0 mm 0.00 in/hr0.0 mm/hr 0.71 in18.0 mm
07:02 AM 61.0°F16.1°C 61.0°F16.1°C 100% 3.1 mph WSW5.0 kmh WSW 13.0 mph20.9 kmh 29.54 in1000.3 mb 0.00 in0.0 mm 0.00 in/hr0.0 mm/hr 0.71 in18.0 mm
07:03 AM 61.0°F16.1°C 61.0°F16.1°C 100% 3.1 mph WSW5.0 kmh WSW 13.0 mph20.9 kmh 29.55 in1000.7 mb 0.00 in0.0 mm 0.00 in/hr0.0 mm/hr 0.71 in18.0 mm
07:04 AM 61.0°F16.1°C 61.0°F16.1°C 100% 3.1 mph WSW5.0 kmh WSW 13.0 mph20.9 kmh 29.55 in1000.7 mb 0.00 in0.0 mm 0.00 in/hr0.0 mm/hr 0.71 in18.0 mm
07:05 AM 61.0°F16.1°C 61.0°F16.1°C 100% 3.1 mph WSW5.0 kmh WSW 13.0 mph20.9 kmh 29.55 in1000.7 mb 0.00 in0.0 mm 0.00 in/hr0.0 mm/hr 0.71 in18.0 mm
07:06 AM 61.0°F16.1°C 61.0°F16.1°C 100% 3.1 mph WSW5.0 kmh WSW 13.0 mph20.9 kmh 29.55 in1000.7 mb 0.00 in0.0 mm 0.00 in/hr0.0 mm/hr 0.71 in18.0 mm
07:07 AM 61.0°F16.1°C 61.0°F16.1°C 100% 3.1 mph WSW5.0 kmh WSW 10.7 mph17.2 kmh 29.55 in1000.7 mb 0.00 in0.0 mm 0.00 in/hr0.0 mm/hr 0.71 in18.0 mm
07:08 AM 61.0°F16.1°C 61.0°F16.1°C 100% 3.8 mph WSW6.1 kmh WSW 10.7 mph17.2 kmh 29.55 in1000.7 mb 0.00 in0.0 mm 0.00 in/hr0.0 mm/hr 0.71 in18.0 mm
07:09 AM 61.2°F16.2°C 61.2°F16.2°C 100% 6.0 mph WSW9.7 kmh WSW 13.0 mph20.9 kmh 29.55 in1000.7 mb 0.00 in0.0 mm 0.00 in/hr0.0 mm/hr 0.71 in18.0 mm
07:10 AM 61.2°F16.2°C 61.2°F16.2°C 100% 5.4 mph WSW8.7 kmh WSW 13.0 mph20.9 kmh 29.55 in1000.7 mb 0.00 in0.0 mm 0.00 in/hr0.0 mm/hr 0.71 in18.0 mm
07:11 AM 61.2°F16.2°C 61.2°F16.2°C 100% 6.0 mph WSW9.7 kmh WSW 13.0 mph20.9 kmh 29.55 in1000.7 mb 0.00 in0.0 mm 0.00 in/hr0.0 mm/hr 0.71 in18.0 mm
07:12 AM 61.2°F16.2°C 61.2°F16.2°C 100% 5.4 mph WSW8.7 kmh WSW 13.0 mph20.9 kmh 29.55 in1000.7 mb 0.00 in0.0 mm 0.00 in/hr0.0 mm/hr 0.71 in18.0 mm
07:13 AM 61.3°F16.3°C 61.4°F16.3°C 100% 3.1 mph WSW5.0 kmh WSW 13.0 mph20.9 kmh 29.55 in1000.7 mb 0.00 in0.0 mm 0.00 in/hr0.0 mm/hr 0.71 in18.0 mm
07:14 AM 61.3°F16.3°C 61.4°F16.3°C 100% 3.1 mph WSW5.0 kmh WSW 13.0 mph20.9 kmh 29.55 in1000.7 mb 0.00 in0.0 mm 0.00 in/hr0.0 mm/hr 0.71 in18.0 mm
07:15 AM 61.2°F16.2°C 61.2°F16.2°C 100% 4.5 mph WSW7.2 kmh WSW 13.0 mph20.9 kmh 29.55 in1000.7 mb 0.00 in0.0 mm 0.00 in/hr0.0 mm/hr 0.71 in18.0 mm
07:16 AM 61.2°F16.2°C 61.2°F16.2°C 100% 5.4 mph WSW8.7 kmh WSW 13.0 mph20.9 kmh 29.55 in1000.7 mb 0.00 in0.0 mm 0.00 in/hr0.0 mm/hr 0.71 in18.0 mm
07:17 AM 61.2°F16.2°C 61.2°F16.2°C 100% 2.2 mph WSW3.5 kmh WSW 13.0 mph20.9 kmh 29.55 in1000.7 mb 0.00 in0.0 mm 0.00 in/hr0.0 mm/hr 0.71 in18.0 mm
07:18 AM 61.2°F16.2°C 61.2°F16.2°C 100% 3.8 mph WSW6.1 kmh WSW 13.0 mph20.9 kmh 29.55 in1000.7 mb 0.00 in0.0 mm 0.00 in/hr0.0 mm/hr 0.71 in18.0 mm
07:19 AM 61.2°F16.2°C 61.2°F16.2°C 100% 6.0 mph WSW9.7 kmh WSW 13.0 mph20.9 kmh 29.55 in1000.7 mb 0.00 in0.0 mm 0.00 in/hr0.0 mm/hr 0.71 in18.0 mm
07:20 AM 61.3°F16.3°C 61.4°F16.3°C 100% 6.9 mph WSW11.1 kmh WSW 10.7 mph17.2 kmh 29.55 in1000.7 mb 0.00 in0.0 mm 0.00 in/hr0.0 mm/hr 0.71 in18.0 mm
07:21 AM 61.3°F16.3°C 61.4°F16.3°C 100% 4.5 mph WSW7.2 kmh WSW 10.7 mph17.2 kmh 29.55 in1000.7 mb 0.00 in0.0 mm 0.00 in/hr0.0 mm/hr 0.71 in18.0 mm
07:22 AM 61.3°F16.3°C 61.4°F16.3°C 100% 2.2 mph WSW3.5 kmh WSW 10.7 mph17.2 kmh 29.55 in1000.7 mb 0.00 in0.0 mm 0.00 in/hr0.0 mm/hr 0.71 in18.0 mm
07:23 AM 61.3°F16.3°C 61.4°F16.3°C 100% 5.4 mph WSW8.7 kmh WSW 9.2 mph14.8 kmh 29.55 in1000.7 mb 0.00 in0.0 mm 0.00 in/hr0.0 mm/hr 0.71 in18.0 mm
07:24 AM 61.3°F16.3°C 61.4°F16.3°C 100% 5.4 mph WSW8.7 kmh WSW 9.2 mph14.8 kmh 29.55 in1000.7 mb 0.00 in0.0 mm 0.00 in/hr0.0 mm/hr 0.71 in18.0 mm
07:25 AM 61.3°F16.3°C 61.4°F16.3°C 100% 5.4 mph WSW8.7 kmh WSW 9.2 mph14.8 kmh 29.55 in1000.7 mb 0.00 in0.0 mm 0.00 in/hr0.0 mm/hr 0.71 in18.0 mm
07:26 AM 61.3°F16.3°C 61.4°F16.3°C 100% 3.8 mph WSW6.1 kmh WSW 9.2 mph14.8 kmh 29.55 in1000.7 mb 0.00 in0.0 mm 0.00 in/hr0.0 mm/hr 0.71 in18.0 mm
07:27 AM 61.3°F16.3°C 61.4°F16.3°C 100% 3.8 mph WSW6.1 kmh WSW 9.2 mph14.8 kmh 29.55 in1000.7 mb 0.00 in0.0 mm 0.00 in/hr0.0 mm/hr 0.71 in18.0 mm
07:28 AM 61.3°F16.3°C 61.4°F16.3°C 100% 6.0 mph WSW9.7 kmh WSW 9.2 mph14.8 kmh 29.55 in1000.7 mb 0.00 in0.0 mm 0.00 in/hr0.0 mm/hr 0.71 in18.0 mm
07:29 AM 61.3°F16.3°C 61.4°F16.3°C 100% 5.4 mph WSW8.7 kmh WSW 9.2 mph14.8 kmh 29.55 in1000.7 mb 0.00 in0.0 mm 0.00 in/hr0.0 mm/hr 0.71 in18.0 mm
07:30 AM 61.3°F16.3°C 61.4°F16.3°C 100% 5.4 mph WSW8.7 kmh WSW 9.2 mph14.8 kmh 29.55 in1000.7 mb 0.00 in0.0 mm 0.00 in/hr0.0 mm/hr 0.71 in18.0 mm
07:31 AM 61.3°F16.3°C 61.4°F16.3°C 100% 3.8 mph W6.1 kmh W 9.2 mph14.8 kmh 29.55 in1000.7 mb 0.00 in0.0 mm 0.00 in/hr0.0 mm/hr 0.71 in18.0 mm
07:32 AM 61.3°F16.3°C 61.4°F16.3°C 100% 3.1 mph W5.0 kmh W 9.2 mph14.8 kmh 29.55 in1000.7 mb 0.00 in0.0 mm 0.00 in/hr0.0 mm/hr 0.71 in18.0 mm
07:33 AM 61.2°F16.2°C 61.2°F16.2°C 100% 4.5 mph W7.2 kmh W 9.8 mph15.8 kmh 29.55 in1000.7 mb 0.00 in0.0 mm 0.00 in/hr0.0 mm/hr 0.71 in18.0 mm
07:34 AM 61.2°F16.2°C 61.2°F16.2°C 100% 3.1 mph W5.0 kmh W 9.8 mph15.8 kmh 29.55 in1000.7 mb 0.00 in0.0 mm 0.00 in/hr0.0 mm/hr 0.71 in18.0 mm
07:35 AM 61.2°F16.2°C 61.2°F16.2°C 100% 4.5 mph WSW7.2 kmh WSW 9.8 mph15.8 kmh 29.55 in1000.7 mb 0.00 in0.0 mm 0.00 in/hr0.0 mm/hr 0.71 in18.0 mm
07:36 AM 61.2°F16.2°C 61.2°F16.2°C 100% 5.4 mph W8.7 kmh W 9.8 mph15.8 kmh 29.55 in1000.7 mb 0.00 in0.0 mm 0.00 in/hr0.0 mm/hr 0.71 in18.0 mm
07:37 AM 61.2°F16.2°C 61.2°F16.2°C 100% 4.5 mph W7.2 kmh W 9.8 mph15.8 kmh 29.55 in1000.7 mb 0.00 in0.0 mm 0.00 in/hr0.0 mm/hr 0.71 in18.0 mm
07:38 AM 61.2°F16.2°C 61.2°F16.2°C 100% 4.5 mph W7.2 kmh W 9.8 mph15.8 kmh 29.55 in1000.7 mb 0.00 in0.0 mm 0.00 in/hr0.0 mm/hr 0.71 in18.0 mm
07:39 AM 61.2°F16.2°C 61.2°F16.2°C 100% 5.4 mph WSW8.7 kmh WSW 9.8 mph15.8 kmh 29.55 in1000.7 mb 0.00 in0.0 mm 0.00 in/hr0.0 mm/hr 0.71 in18.0 mm
07:40 AM 61.2°F16.2°C 61.2°F16.2°C 100% 4.5 mph WSW7.2 kmh WSW 9.8 mph15.8 kmh 29.55 in1000.7 mb 0.00 in0.0 mm 0.00 in/hr0.0 mm/hr 0.71 in18.0 mm
07:41 AM 61.2°F16.2°C 61.2°F16.2°C 100% 5.4 mph WSW8.7 kmh WSW 9.8 mph15.8 kmh 29.55 in1000.7 mb 0.00 in0.0 mm 0.00 in/hr0.0 mm/hr 0.71 in18.0 mm
07:42 AM 61.3°F16.3°C 61.4°F16.3°C 100% 3.8 mph WSW6.1 kmh WSW 9.8 mph15.8 kmh 29.55 in1000.7 mb 0.00 in0.0 mm 0.00 in/hr0.0 mm/hr 0.71 in18.0 mm
07:43 AM 61.2°F16.2°C 61.2°F16.2°C 100% 5.4 mph WSW8.7 kmh WSW 9.8 mph15.8 kmh 29.55 in1000.7 mb 0.00 in0.0 mm 0.00 in/hr0.0 mm/hr 0.71 in18.0 mm
07:44 AM 61.2°F16.2°C 61.2°F16.2°C 100% 3.8 mph WSW6.1 kmh WSW 9.8 mph15.8 kmh 29.55 in1000.7 mb 0.00 in0.0 mm 0.00 in/hr0.0 mm/hr 0.71 in18.0 mm
07:45 AM 61.2°F16.2°C 61.2°F16.2°C 100% 4.5 mph WSW7.2 kmh WSW 9.8 mph15.8 kmh 29.55 in1000.7 mb 0.00 in0.0 mm 0.00 in/hr0.0 mm/hr 0.71 in18.0 mm
07:46 AM 61.2°F16.2°C 61.2°F16.2°C 100% 5.4 mph SW8.7 kmh SW 9.2 mph14.8 kmh 29.55 in1000.7 mb 0.00 in0.0 mm 0.00 in/hr0.0 mm/hr 0.71 in18.0 mm
07:47 AM 61.3°F16.3°C 61.4°F16.3°C 100% 5.4 mph WSW8.7 kmh WSW 9.2 mph14.8 kmh 29.55 in1000.7 mb 0.00 in0.0 mm 0.00 in/hr0.0 mm/hr 0.71 in18.0 mm
07:48 AM 61.3°F16.3°C 61.4°F16.3°C 100% 6.0 mph WSW9.7 kmh WSW 9.8 mph15.8 kmh 29.55 in1000.7 mb 0.00 in0.0 mm 0.00 in/hr0.0 mm/hr 0.71 in18.0 mm
07:49 AM 61.2°F16.2°C 61.2°F16.2°C 100% 4.5 mph WSW7.2 kmh WSW 9.8 mph15.8 kmh 29.55 in1000.7 mb 0.00 in0.0 mm 0.00 in/hr0.0 mm/hr 0.71 in18.0 mm
07:50 AM 61.2°F16.2°C 61.2°F16.2°C 100% 4.5 mph WSW7.2 kmh WSW 9.8 mph15.8 kmh 29.55 in1000.7 mb 0.00 in0.0 mm 0.00 in/hr0.0 mm/hr 0.71 in18.0 mm
07:51 AM 61.2°F16.2°C 61.2°F16.2°C 100% 4.5 mph WSW7.2 kmh WSW 9.8 mph15.8 kmh 29.55 in1000.7 mb 0.00 in0.0 mm 0.00 in/hr0.0 mm/hr 0.71 in18.0 mm
07:52 AM 61.2°F16.2°C 61.2°F16.2°C 100% 3.8 mph WSW6.1 kmh WSW 9.8 mph15.8 kmh 29.55 in1000.7 mb 0.00 in0.0 mm 0.00 in/hr0.0 mm/hr 0.71 in18.0 mm
07:53 AM 61.2°F16.2°C 61.2°F16.2°C 100% 2.2 mph WSW3.5 kmh WSW 9.8 mph15.8 kmh 29.55 in1000.7 mb 0.00 in0.0 mm 0.00 in/hr0.0 mm/hr 0.71 in18.0 mm
07:54 AM 61.2°F16.2°C 61.2°F16.2°C 100% 3.1 mph WSW5.0 kmh WSW 9.8 mph15.8 kmh 29.55 in1000.7 mb 0.00 in0.0 mm 0.00 in/hr0.0 mm/hr 0.71 in18.0 mm
07:55 AM 61.2°F16.2°C 61.2°F16.2°C 100% 5.4 mph WSW8.7 kmh WSW 9.8 mph15.8 kmh 29.55 in1000.7 mb 0.00 in0.0 mm 0.00 in/hr0.0 mm/hr 0.71 in18.0 mm
07:56 AM 61.2°F16.2°C 61.2°F16.2°C 100% 3.1 mph WSW5.0 kmh WSW 9.8 mph15.8 kmh 29.55 in1000.7 mb 0.00 in0.0 mm 0.00 in/hr0.0 mm/hr 0.71 in18.0 mm
07:57 AM 61.2°F16.2°C 61.2°F16.2°C 100% 4.5 mph WSW7.2 kmh WSW 9.8 mph15.8 kmh 29.55 in1000.7 mb 0.00 in0.0 mm 0.00 in/hr0.0 mm/hr 0.71 in18.0 mm
07:58 AM 61.2°F16.2°C 61.2°F16.2°C 100% 3.1 mph WSW5.0 kmh WSW 9.2 mph14.8 kmh 29.55 in1000.7 mb 0.00 in0.0 mm 0.00 in/hr0.0 mm/hr 0.71 in18.0 mm
07:59 AM 61.2°F16.2°C 61.2°F16.2°C 100% 3.8 mph WSW6.1 kmh WSW 9.2 mph14.8 kmh 29.55 in1000.7 mb 0.00 in0.0 mm 0.00 in/hr0.0 mm/hr 0.71 in18.0 mm
08:00 AM 61.2°F16.2°C 61.2°F16.2°C 100% 5.4 mph WSW8.7 kmh WSW 9.2 mph14.8 kmh 29.55 in1000.7 mb 0.00 in0.0 mm 0.00 in/hr0.0 mm/hr 0.71 in18.0 mm
08:01 AM 61.2°F16.2°C 61.2°F16.2°C 100% 4.5 mph WSW7.2 kmh WSW 9.2 mph14.8 kmh 29.55 in1000.7 mb 0.00 in0.0 mm 0.00 in/hr0.0 mm/hr 0.71 in18.0 mm
08:02 AM 61.2°F16.2°C 61.2°F16.2°C 100% 2.2 mph WSW3.5 kmh WSW 9.2 mph14.8 kmh 29.55 in1000.7 mb 0.00 in0.0 mm 0.00 in/hr0.0 mm/hr 0.71 in18.0 mm
08:03 AM 61.2°F16.2°C 61.2°F16.2°C 100% 5.4 mph WSW8.7 kmh WSW 12.1 mph19.5 kmh 29.55 in1000.7 mb 0.00 in0.0 mm 0.00 in/hr0.0 mm/hr 0.71 in18.0 mm
08:04 AM 61.3°F16.3°C 61.4°F16.3°C 100% 4.5 mph WSW7.2 kmh WSW 12.1 mph19.5 kmh 29.54 in1000.3 mb 0.00 in0.0 mm 0.00 in/hr0.0 mm/hr 0.71 in18.0 mm
08:05 AM 61.3°F16.3°C 61.4°F16.3°C 100% 4.5 mph WSW7.2 kmh WSW 12.1 mph19.5 kmh 29.55 in1000.7 mb 0.00 in0.0 mm 0.00 in/hr0.0 mm/hr 0.71 in18.0 mm
08:06 AM 61.3°F16.3°C 61.4°F16.3°C 100% 6.0 mph WSW9.7 kmh WSW 12.1 mph19.5 kmh 29.55 in1000.7 mb 0.00 in0.0 mm 0.00 in/hr0.0 mm/hr 0.71 in18.0 mm
08:07 AM 61.5°F16.4°C 61.5°F16.4°C 100% 3.8 mph WSW6.1 kmh WSW 12.1 mph19.5 kmh 29.55 in1000.7 mb 0.00 in0.0 mm 0.00 in/hr0.0 mm/hr 0.71 in18.0 mm
08:08 AM 61.5°F16.4°C 61.5°F16.4°C 100% 4.5 mph WSW7.2 kmh WSW 12.1 mph19.5 kmh 29.55 in1000.7 mb 0.00 in0.0 mm 0.00 in/hr0.0 mm/hr 0.71 in18.0 mm
08:09 AM 61.5°F16.4°C 61.5°F16.4°C 100% 3.8 mph WSW6.1 kmh WSW 12.1 mph19.5 kmh 29.55 in1000.7 mb 0.00 in0.0 mm 0.00 in/hr0.0 mm/hr 0.71 in18.0 mm
08:10 AM 61.5°F16.4°C 61.5°F16.4°C 100% 6.0 mph WSW9.7 kmh WSW 12.1 mph19.5 kmh 29.55 in1000.7 mb 0.00 in0.0 mm 0.00 in/hr0.0 mm/hr 0.71 in18.0 mm
08:11 AM 61.5°F16.4°C 61.5°F16.4°C 100% 3.8 mph WSW6.1 kmh WSW 12.1 mph19.5 kmh 29.55 in1000.7 mb 0.00 in0.0 mm 0.00 in/hr0.0 mm/hr 0.71 in18.0 mm
08:12 AM 61.5°F16.4°C 61.5°F16.4°C 100% 3.8 mph WSW6.1 kmh WSW 12.1 mph19.5 kmh 29.56 in1001.0 mb 0.00 in0.0 mm 0.00 in/hr0.0 mm/hr 0.71 in18.0 mm
08:13 AM 61.5°F16.4°C 61.5°F16.4°C 100% 4.5 mph WSW7.2 kmh WSW 12.1 mph19.5 kmh 29.56 in1001.0 mb 0.00 in0.0 mm 0.00 in/hr0.0 mm/hr 0.71 in18.0 mm
08:14 AM 61.5°F16.4°C 61.5°F16.4°C 100% 5.4 mph WSW8.7 kmh WSW 12.1 mph19.5 kmh 29.56 in1001.0 mb 0.00 in0.0 mm 0.00 in/hr0.0 mm/hr 0.71 in18.0 mm
08:15 AM 61.5°F16.4°C 61.5°F16.4°C 100% 3.8 mph SW6.1 kmh SW 10.7 mph17.2 kmh 29.56 in1001.0 mb 0.00 in0.0 mm 0.00 in/hr0.0 mm/hr 0.71 in18.0 mm
08:16 AM 61.5°F16.4°C 61.5°F16.4°C 100% 2.2 mph WSW3.5 kmh WSW 10.7 mph17.2 kmh 29.56 in1001.0 mb 0.00 in0.0 mm 0.00 in/hr0.0 mm/hr 0.71 in18.0 mm
08:17 AM 61.5°F16.4°C 61.5°F16.4°C 100% 6.9 mph WSW11.1 kmh WSW 10.7 mph17.2 kmh 29.56 in1001.0 mb 0.00 in0.0 mm 0.00 in/hr0.0 mm/hr 0.71 in18.0 mm
08:18 AM 61.7°F16.5°C 61.7°F16.5°C 100% 7.6 mph WSW12.2 kmh WSW 10.7 mph17.2 kmh 29.56 in1001.0 mb 0.00 in0.0 mm 0.00 in/hr0.0 mm/hr 0.71 in18.0 mm
08:19 AM 61.7°F16.5°C 61.7°F16.5°C 100% 3.1 mph WSW5.0 kmh WSW 10.7 mph17.2 kmh 29.56 in1001.0 mb 0.00 in0.0 mm 0.00 in/hr0.0 mm/hr 0.71 in18.0 mm
08:20 AM 61.9°F16.6°C 61.9°F16.6°C 100% 3.1 mph WSW5.0 kmh WSW 10.7 mph17.2 kmh 29.56 in1001.0 mb 0.00 in0.0 mm 0.00 in/hr0.0 mm/hr 0.71 in18.0 mm
08:21 AM 61.9°F16.6°C 61.9°F16.6°C 100% 4.5 mph WSW7.2 kmh WSW 10.7 mph17.2 kmh 29.56 in1001.0 mb 0.00 in0.0 mm 0.00 in/hr0.0 mm/hr 0.71 in18.0 mm
08:22 AM 61.9°F16.6°C 61.9°F16.6°C 100% 3.8 mph WSW6.1 kmh WSW 10.7 mph17.2 kmh 29.56 in1001.0 mb 0.00 in0.0 mm 0.00 in/hr0.0 mm/hr 0.71 in18.0 mm
08:23 AM 61.9°F16.6°C 61.9°F16.6°C 100% 3.1 mph W5.0 kmh W 10.7 mph17.2 kmh 29.55 in1000.7 mb 0.00 in0.0 mm 0.00 in/hr0.0 mm/hr 0.71 in18.0 mm
08:24 AM 61.9°F16.6°C 61.9°F16.6°C 100% 4.5 mph WSW7.2 kmh WSW 10.7 mph17.2 kmh 29.55 in1000.7 mb 0.00 in0.0 mm 0.00 in/hr0.0 mm/hr 0.71 in18.0 mm
08:25 AM 62.1°F16.7°C 62.1°F16.7°C 100% 3.8 mph WSW6.1 kmh WSW 10.7 mph17.2 kmh 29.56 in1001.0 mb 0.00 in0.0 mm 0.00 in/hr0.0 mm/hr 0.71 in18.0 mm
08:26 AM 62.1°F16.7°C 62.1°F16.7°C 100% 5.4 mph W8.7 kmh W 10.7 mph17.2 kmh 29.56 in1001.0 mb 0.00 in0.0 mm 0.00 in/hr0.0 mm/hr 0.71 in18.0 mm
08:27 AM 62.1°F16.7°C 62.1°F16.7°C 100% 3.8 mph W6.1 kmh W 10.7 mph17.2 kmh 29.55 in1000.7 mb 0.00 in0.0 mm 0.00 in/hr0.0 mm/hr 0.71 in18.0 mm
08:28 AM 62.1°F16.7°C 62.1°F16.7°C 100% 5.4 mph W8.7 kmh W 11.4 mph18.3 kmh 29.55 in1000.7 mb 0.00 in0.0 mm 0.00 in/hr0.0 mm/hr 0.71 in18.0 mm
08:29 AM 62.8°F17.1°C 62.8°F17.1°C 100% 2.2 mph W3.5 kmh W 11.4 mph18.3 kmh 29.56 in1001.0 mb 0.00 in0.0 mm 0.00 in/hr0.0 mm/hr 0.71 in18.0 mm
08:30 AM 63.0°F17.2°C 63.0°F17.2°C 100% 3.8 mph WSW6.1 kmh WSW 11.4 mph18.3 kmh 29.56 in1001.0 mb 0.00 in0.0 mm 0.00 in/hr0.0 mm/hr 0.71 in18.0 mm
08:31 AM 62.6°F17.0°C 62.6°F17.0°C 100% 3.8 mph WSW6.1 kmh WSW 11.4 mph18.3 kmh 29.55 in1000.7 mb 0.00 in0.0 mm 0.00 in/hr0.0 mm/hr 0.71 in18.0 mm
08:32 AM 62.8°F17.1°C 62.8°F17.1°C 100% 3.8 mph WSW6.1 kmh WSW 11.4 mph18.3 kmh 29.55 in1000.7 mb 0.00 in0.0 mm 0.00 in/hr0.0 mm/hr 0.71 in18.0 mm
08:33 AM 62.6°F17.0°C 62.6°F17.0°C 100% 3.8 mph WSW6.1 kmh WSW 11.4 mph18.3 kmh 29.55 in1000.7 mb 0.00 in0.0 mm 0.00 in/hr0.0 mm/hr 0.71 in18.0 mm
08:34 AM 62.6°F17.0°C 62.6°F17.0°C 100% 2.2 mph W3.5 kmh W 11.4 mph18.3 kmh 29.55 in1000.7 mb 0.00 in0.0 mm 0.00 in/hr0.0 mm/hr 0.71 in18.0 mm
08:35 AM 62.8°F17.1°C 62.8°F17.1°C 100% 4.5 mph W7.2 kmh W 11.4 mph18.3 kmh 29.55 in1000.7 mb 0.00 in0.0 mm 0.00 in/hr0.0 mm/hr 0.71 in18.0 mm
08:36 AM 62.8°F17.1°C 62.8°F17.1°C 100% 4.5 mph WSW7.2 kmh WSW 12.1 mph19.5 kmh 29.56 in1001.0 mb 0.00 in0.0 mm 0.00 in/hr0.0 mm/hr 0.71 in18.0 mm
08:37 AM 62.6°F17.0°C 62.6°F17.0°C 100% 5.4 mph WSW8.7 kmh WSW 12.1 mph19.5 kmh 29.56 in1001.0 mb 0.00 in0.0 mm 0.00 in/hr0.0 mm/hr 0.71 in18.0 mm
08:38 AM 62.6°F17.0°C 62.6°F17.0°C 100% 2.2 mph WSW3.5 kmh WSW 12.1 mph19.5 kmh 29.56 in1001.0 mb 0.00 in0.0 mm 0.00 in/hr0.0 mm/hr 0.71 in18.0 mm
08:39 AM 62.8°F17.1°C 62.8°F17.1°C 100% 5.4 mph WSW8.7 kmh WSW 12.1 mph19.5 kmh 29.56 in1001.0 mb 0.00 in0.0 mm 0.00 in/hr0.0 mm/hr 0.71 in18.0 mm
08:40 AM 62.6°F17.0°C 62.6°F17.0°C 100% 3.1 mph WSW5.0 kmh WSW 12.1 mph19.5 kmh 29.56 in1001.0 mb 0.00 in0.0 mm 0.00 in/hr0.0 mm/hr 0.71 in18.0 mm
08:41 AM 62.6°F17.0°C 62.6°F17.0°C 100% 3.1 mph WSW5.0 kmh WSW 12.1 mph19.5 kmh 29.55 in1000.7 mb 0.00 in0.0 mm 0.00 in/hr0.0 mm/hr 0.71 in18.0 mm
08:42 AM 62.8°F17.1°C 62.8°F17.1°C 100% 4.5 mph WSW7.2 kmh WSW 12.1 mph19.5 kmh 29.56 in1001.0 mb 0.00 in0.0 mm 0.00 in/hr0.0 mm/hr 0.71 in18.0 mm
08:43 AM 62.8°F17.1°C 62.8°F17.1°C 100% 3.8 mph WSW6.1 kmh WSW 12.1 mph19.5 kmh 29.56 in1001.0 mb 0.00 in0.0 mm 0.00 in/hr0.0 mm/hr 0.71 in18.0 mm
08:44 AM 62.8°F17.1°C 62.8°F17.1°C 100% 3.1 mph SW5.0 kmh SW 12.1 mph19.5 kmh 29.55 in1000.7 mb 0.00 in0.0 mm 0.00 in/hr0.0 mm/hr 0.71 in18.0 mm
08:45 AM 62.6°F17.0°C 62.6°F17.0°C 100% 6.0 mph WSW9.7 kmh WSW 12.1 mph19.5 kmh 29.56 in1001.0 mb 0.00 in0.0 mm 0.00 in/hr0.0 mm/hr 0.71 in18.0 mm
08:46 AM 62.6°F17.0°C 62.6°F17.0°C 100% 3.1 mph WSW5.0 kmh WSW 9.8 mph15.8 kmh 29.55 in1000.7 mb 0.00 in0.0 mm 0.00 in/hr0.0 mm/hr 0.71 in18.0 mm
08:47 AM 62.8°F17.1°C 62.8°F17.1°C 100% 6.9 mph WSW11.1 kmh WSW 11.4 mph18.3 kmh 29.55 in1000.7 mb 0.00 in0.0 mm 0.00 in/hr0.0 mm/hr 0.71 in18.0 mm
08:48 AM 62.6°F17.0°C 62.6°F17.0°C 100% 6.9 mph WSW11.1 kmh WSW 11.4 mph18.3 kmh 29.55 in1000.7 mb 0.00 in0.0 mm 0.00 in/hr0.0 mm/hr 0.71 in18.0 mm
08:49 AM 62.8°F17.1°C 62.8°F17.1°C 100% 3.1 mph WSW5.0 kmh WSW 11.4 mph18.3 kmh 29.56 in1001.0 mb 0.00 in0.0 mm 0.00 in/hr0.0 mm/hr 0.71 in18.0 mm
08:50 AM 62.8°F17.1°C 62.8°F17.1°C 100% 5.4 mph WSW8.7 kmh WSW 11.4 mph18.3 kmh 29.55 in1000.7 mb 0.00 in0.0 mm 0.00 in/hr0.0 mm/hr 0.71 in18.0 mm
08:51 AM 63.0°F17.2°C 63.0°F17.2°C 100% 4.5 mph WSW7.2 kmh WSW 11.4 mph18.3 kmh 29.56 in1001.0 mb 0.00 in0.0 mm 0.00 in/hr0.0 mm/hr 0.71 in18.0 mm
08:52 AM 63.0°F17.2°C 63.0°F17.2°C 100% 3.8 mph WSW6.1 kmh WSW 11.4 mph18.3 kmh 29.56 in1001.0 mb 0.00 in0.0 mm 0.00 in/hr0.0 mm/hr 0.71 in18.0 mm
08:53 AM 63.0°F17.2°C 63.0°F17.2°C 100% 2.2 mph WSW3.5 kmh WSW 11.4 mph18.3 kmh 29.55 in1000.7 mb 0.00 in0.0 mm 0.00 in/hr0.0 mm/hr 0.71 in18.0 mm
08:54 AM 63.1°F17.3°C 63.2°F17.3°C 100% 3.1 mph WSW5.0 kmh WSW 11.4 mph18.3 kmh 29.56 in1001.0 mb 0.00 in0.0 mm 0.00 in/hr0.0 mm/hr 0.71 in18.0 mm
08:55 AM 63.1°F17.3°C 63.2°F17.3°C 100% 3.1 mph WSW5.0 kmh WSW 11.4 mph18.3 kmh 29.56 in1001.0 mb 0.00 in0.0 mm 0.00 in/hr0.0 mm/hr 0.71 in18.0 mm
08:56 AM 63.1°F17.3°C 63.2°F17.3°C 100% 4.5 mph WSW7.2 kmh WSW 11.4 mph18.3 kmh 29.56 in1001.0 mb 0.00 in0.0 mm 0.00 in/hr0.0 mm/hr 0.71 in18.0 mm
08:57 AM 63.1°F17.3°C 63.2°F17.3°C 100% 3.8 mph WSW6.1 kmh WSW 10.7 mph17.2 kmh 29.55 in1000.7 mb 0.00 in0.0 mm 0.00 in/hr0.0 mm/hr 0.71 in18.0 mm
08:58 AM 63.0°F17.2°C 63.0°F17.2°C 100% 3.8 mph WSW6.1 kmh WSW 10.7 mph17.2 kmh 29.55 in1000.7 mb 0.00 in0.0 mm 0.00 in/hr0.0 mm/hr 0.71 in18.0 mm
08:59 AM 63.1°F17.3°C 63.2°F17.3°C 100% 3.1 mph WSW5.0 kmh WSW 10.7 mph17.2 kmh 29.56 in1001.0 mb 0.00 in0.0 mm 0.00 in/hr0.0 mm/hr 0.71 in18.0 mm
09:00 AM 63.1°F17.3°C 63.2°F17.3°C 100% 3.1 mph WSW5.0 kmh WSW 10.7 mph17.2 kmh 29.55 in1000.7 mb 0.00 in0.0 mm 0.00 in/hr0.0 mm/hr 0.71 in18.0 mm
09:01 AM 63.1°F17.3°C 63.2°F17.3°C 100% 3.1 mph WSW5.0 kmh WSW 10.7 mph17.2 kmh 29.56 in1001.0 mb 0.00 in0.0 mm 0.00 in/hr0.0 mm/hr 0.71 in18.0 mm
09:02 AM 63.1°F17.3°C 63.2°F17.3°C 100% 3.1 mph WSW5.0 kmh WSW 10.7 mph17.2 kmh 29.56 in1001.0 mb 0.00 in0.0 mm 0.00 in/hr0.0 mm/hr 0.71 in18.0 mm
09:03 AM 63.1°F17.3°C 63.2°F17.3°C 100% 3.1 mph WSW5.0 kmh WSW 10.7 mph17.2 kmh 29.56 in1001.0 mb 0.00 in0.0 mm 0.00 in/hr0.0 mm/hr 0.71 in18.0 mm
09:04 AM 63.1°F17.3°C 63.2°F17.3°C 100% 3.1 mph SW5.0 kmh SW 10.7 mph17.2 kmh 29.56 in1001.0 mb 0.00 in0.0 mm 0.00 in/hr0.0 mm/hr 0.71 in18.0 mm
09:05 AM 63.1°F17.3°C 63.2°F17.3°C 100% 3.1 mph SW5.0 kmh SW 10.7 mph17.2 kmh 29.55 in1000.7 mb 0.00 in0.0 mm 0.00 in/hr0.0 mm/hr 0.71 in18.0 mm
09:06 AM 63.3°F17.4°C 63.3°F17.4°C 100% 4.5 mph SW7.2 kmh SW 8.3 mph13.4 kmh 29.56 in1001.0 mb 0.00 in0.0 mm 0.00 in/hr0.0 mm/hr 0.71 in18.0 mm
09:07 AM 64.0°F17.8°C 64.1°F17.8°C 100% 5.4 mph SW8.7 kmh SW 9.8 mph15.8 kmh 29.56 in1001.0 mb 0.00 in0.0 mm 0.00 in/hr0.0 mm/hr 0.71 in18.0 mm
09:08 AM 63.9°F17.7°C 63.9°F17.7°C 100% 4.5 mph SW7.2 kmh SW 9.8 mph15.8 kmh 29.55 in1000.7 mb 0.00 in0.0 mm 0.00 in/hr0.0 mm/hr 0.71 in18.0 mm
09:09 AM 63.9°F17.7°C 63.9°F17.7°C 100% 4.5 mph SW7.2 kmh SW 9.8 mph15.8 kmh 29.56 in1001.0 mb 0.00 in0.0 mm 0.00 in/hr0.0 mm/hr 0.71 in18.0 mm
09:10 AM 63.9°F17.7°C 63.9°F17.7°C 100% 7.6 mph SW12.2 kmh SW 10.7 mph17.2 kmh 29.55 in1000.7 mb 0.00 in0.0 mm 0.00 in/hr0.0 mm/hr 0.71 in18.0 mm
09:11 AM 63.7°F17.6°C 63.7°F17.6°C 100% 5.4 mph SW8.7 kmh SW 10.7 mph17.2 kmh 29.55 in1000.7 mb 0.00 in0.0 mm 0.00 in/hr0.0 mm/hr 0.71 in18.0 mm
09:12 AM 63.7°F17.6°C 63.7°F17.6°C 100% 5.4 mph SW8.7 kmh SW 10.7 mph17.2 kmh 29.55 in1000.7 mb 0.00 in0.0 mm 0.00 in/hr0.0 mm/hr 0.71 in18.0 mm
09:13 AM 63.9°F17.7°C 63.9°F17.7°C 100% 7.6 mph SW12.2 kmh SW 13.0 mph20.9 kmh 29.55 in1000.7 mb 0.00 in0.0 mm 0.00 in/hr0.0 mm/hr 0.71 in18.0 mm
09:14 AM 63.9°F17.7°C 63.9°F17.7°C 100% 4.5 mph WSW7.2 kmh WSW 13.0 mph20.9 kmh 29.56 in1001.0 mb 0.00 in0.0 mm 0.00 in/hr0.0 mm/hr 0.71 in18.0 mm
09:15 AM 63.9°F17.7°C 63.9°F17.7°C 100% 6.9 mph WSW11.1 kmh WSW 13.6 mph21.9 kmh 29.55 in1000.7 mb 0.00 in0.0 mm 0.00 in/hr0.0 mm/hr 0.71 in18.0 mm
09:16 AM 63.7°F17.6°C 63.7°F17.6°C 100% 6.9 mph WSW11.1 kmh WSW 13.6 mph21.9 kmh 29.56 in1001.0 mb 0.00 in0.0 mm 0.00 in/hr0.0 mm/hr 0.71 in18.0 mm
09:17 AM 63.9°F17.7°C 63.9°F17.7°C 100% 5.4 mph WSW8.7 kmh WSW 13.6 mph21.9 kmh 29.56 in1001.0 mb 0.00 in0.0 mm 0.00 in/hr0.0 mm/hr 0.71 in18.0 mm
09:18 AM 63.9°F17.7°C 63.9°F17.7°C 100% 6.9 mph WSW11.1 kmh WSW 17.4 mph28.0 kmh 29.56 in1001.0 mb 0.00 in0.0 mm 0.00 in/hr0.0 mm/hr 0.71 in18.0 mm
09:19 AM 63.7°F17.6°C 63.7°F17.6°C 100% 6.0 mph WSW9.7 kmh WSW 17.4 mph28.0 kmh 29.55 in1000.7 mb 0.00 in0.0 mm 0.00 in/hr0.0 mm/hr 0.71 in18.0 mm
09:20 AM 63.7°F17.6°C 63.7°F17.6°C 100% 3.8 mph WSW6.1 kmh WSW 17.4 mph28.0 kmh 29.55 in1000.7 mb 0.00 in0.0 mm 0.00 in/hr0.0 mm/hr 0.71 in18.0 mm
09:21 AM 63.9°F17.7°C 63.9°F17.7°C 100% 4.5 mph WSW7.2 kmh WSW 17.4 mph28.0 kmh 29.55 in1000.7 mb 0.00 in0.0 mm 0.00 in/hr0.0 mm/hr 0.71 in18.0 mm
09:22 AM 63.9°F17.7°C 63.9°F17.7°C 100% 5.4 mph WSW8.7 kmh WSW 17.4 mph28.0 kmh 29.55 in1000.7 mb 0.00 in0.0 mm 0.00 in/hr0.0 mm/hr 0.71 in18.0 mm
09:23 AM 64.0°F17.8°C 64.1°F17.8°C 100% 6.0 mph WSW9.7 kmh WSW 17.4 mph28.0 kmh 29.55 in1000.7 mb 0.00 in0.0 mm 0.00 in/hr0.0 mm/hr 0.71 in18.0 mm
09:24 AM 64.2°F17.9°C 64.2°F17.9°C 100% 6.0 mph WSW9.7 kmh WSW 17.4 mph28.0 kmh 29.55 in1000.7 mb 0.00 in0.0 mm 0.00 in/hr0.0 mm/hr 0.71 in18.0 mm
09:25 AM 63.9°F17.7°C 63.9°F17.7°C 100% 6.0 mph WSW9.7 kmh WSW 17.4 mph28.0 kmh 29.55 in1000.7 mb 0.00 in0.0 mm 0.00 in/hr0.0 mm/hr 0.71 in18.0 mm
09:26 AM 64.0°F17.8°C 64.1°F17.8°C 100% 3.8 mph WSW6.1 kmh WSW 17.4 mph28.0 kmh 29.55 in1000.7 mb 0.00 in0.0 mm 0.00 in/hr0.0 mm/hr 0.71 in18.0 mm
09:27 AM 64.0°F17.8°C 64.1°F17.8°C 100% 5.4 mph WSW8.7 kmh WSW 17.4 mph28.0 kmh 29.55 in1000.7 mb 0.00 in0.0 mm 0.00 in/hr0.0 mm/hr 0.71 in18.0 mm
09:28 AM 63.9°F17.7°C 63.9°F17.7°C 100% 4.5 mph WSW7.2 kmh WSW 17.4 mph28.0 kmh 29.55 in1000.7 mb 0.00 in0.0 mm 0.00 in/hr0.0 mm/hr 0.71 in18.0 mm
09:29 AM 64.0°F17.8°C 64.1°F17.8°C 100% 4.5 mph SW7.2 kmh SW 12.1 mph19.5 kmh 29.55 in1000.7 mb 0.00 in0.0 mm 0.00 in/hr0.0 mm/hr 0.71 in18.0 mm
09:30 AM 64.0°F17.8°C 64.1°F17.8°C 100% 3.1 mph SW5.0 kmh SW 12.1 mph19.5 kmh 29.55 in1000.7 mb 0.00 in0.0 mm 0.00 in/hr0.0 mm/hr 0.71 in18.0 mm
09:31 AM 64.2°F17.9°C 64.2°F17.9°C 100% 3.1 mph SW5.0 kmh SW 12.1 mph19.5 kmh 29.55 in1000.7 mb 0.00 in0.0 mm 0.00 in/hr0.0 mm/hr 0.71 in18.0 mm
09:32 AM 64.2°F17.9°C 64.2°F17.9°C 100% 6.0 mph WSW9.7 kmh WSW 12.1 mph19.5 kmh 29.56 in1001.0 mb 0.00 in0.0 mm 0.00 in/hr0.0 mm/hr 0.71 in18.0 mm
09:33 AM 64.2°F17.9°C 64.2°F17.9°C 100% 4.5 mph WSW7.2 kmh WSW 12.1 mph19.5 kmh 29.56 in1001.0 mb 0.00 in0.0 mm 0.00 in/hr0.0 mm/hr 0.71 in18.0 mm
09:34 AM 64.0°F17.8°C 64.1°F17.8°C 100% 4.5 mph WSW7.2 kmh WSW 12.1 mph19.5 kmh 29.56 in1001.0 mb 0.00 in0.0 mm 0.00 in/hr0.0 mm/hr 0.71 in18.0 mm
09:35 AM 64.2°F17.9°C 64.2°F17.9°C 100% 9.8 mph WSW15.8 kmh WSW 13.6 mph21.9 kmh 29.55 in1000.7 mb 0.00 in0.0 mm 0.00 in/hr0.0 mm/hr 0.71 in18.0 mm
09:36 AM 64.6°F18.1°C 64.6°F18.1°C 100% 6.0 mph WSW9.7 kmh WSW 13.6 mph21.9 kmh 29.55 in1000.7 mb 0.00 in0.0 mm 0.00 in/hr0.0 mm/hr 0.71 in18.0 mm
09:37 AM 64.4°F18.0°C 64.4°F18.0°C 100% 5.4 mph WSW8.7 kmh WSW 13.6 mph21.9 kmh 29.56 in1001.0 mb 0.00 in0.0 mm 0.00 in/hr0.0 mm/hr 0.71 in18.0 mm
09:38 AM 64.4°F18.0°C 64.4°F18.0°C 100% 5.4 mph WSW8.7 kmh WSW 13.6 mph21.9 kmh 29.56 in1001.0 mb 0.00 in0.0 mm 0.00 in/hr0.0 mm/hr 0.71 in18.0 mm
09:39 AM 64.2°F17.9°C 64.2°F17.9°C 100% 5.4 mph WSW8.7 kmh WSW 13.6 mph21.9 kmh 29.56 in1001.0 mb 0.00 in0.0 mm 0.00 in/hr0.0 mm/hr 0.71 in18.0 mm
09:40 AM 64.4°F18.0°C 64.4°F18.0°C 100% 4.5 mph WSW7.2 kmh WSW 13.6 mph21.9 kmh 29.55 in1000.7 mb 0.00 in0.0 mm 0.00 in/hr0.0 mm/hr 0.71 in18.0 mm
09:41 AM 64.6°F18.1°C 64.6°F18.1°C 100% 5.4 mph WSW8.7 kmh WSW 13.6 mph21.9 kmh 29.56 in1001.0 mb 0.00 in0.0 mm 0.00 in/hr0.0 mm/hr 0.71 in18.0 mm
09:42 AM 64.9°F18.3°C 65.0°F18.3°C 100% 9.2 mph WSW14.8 kmh WSW 13.6 mph21.9 kmh 29.55 in1000.7 mb 0.00 in0.0 mm 0.00 in/hr0.0 mm/hr 0.71 in18.0 mm
09:43 AM 64.8°F18.2°C 64.8°F18.2°C 100% 6.0 mph WSW9.7 kmh WSW 13.6 mph21.9 kmh 29.55 in1000.7 mb 0.00 in0.0 mm 0.00 in/hr0.0 mm/hr 0.71 in18.0 mm
09:44 AM 64.8°F18.2°C 64.8°F18.2°C 100% 6.0 mph WSW9.7 kmh WSW 14.5 mph23.3 kmh 29.55 in1000.7 mb 0.00 in0.0 mm 0.00 in/hr0.0 mm/hr 0.71 in18.0 mm
09:45 AM 64.8°F18.2°C 64.8°F18.2°C 100% 6.0 mph WSW9.7 kmh WSW 14.5 mph23.3 kmh 29.55 in1000.7 mb 0.00 in0.0 mm 0.00 in/hr0.0 mm/hr 0.71 in18.0 mm
09:46 AM 64.9°F18.3°C 65.0°F18.3°C 100% 5.4 mph WSW8.7 kmh WSW 14.5 mph23.3 kmh 29.55 in1000.7 mb 0.00 in0.0 mm 0.00 in/hr0.0 mm/hr 0.71 in18.0 mm
09:47 AM 64.9°F18.3°C 65.0°F18.3°C 100% 6.9 mph W11.1 kmh W 14.5 mph23.3 kmh 29.55 in1000.7 mb 0.00 in0.0 mm 0.00 in/hr0.0 mm/hr 0.71 in18.0 mm
09:48 AM 65.3°F18.5°C 65.3°F18.5°C 100% 5.4 mph W8.7 kmh W 14.5 mph23.3 kmh 29.55 in1000.7 mb 0.00 in0.0 mm 0.00 in/hr0.0 mm/hr 0.71 in18.0 mm
09:49 AM 65.3°F18.5°C 65.3°F18.5°C 100% 4.5 mph W7.2 kmh W 14.5 mph23.3 kmh 29.55 in1000.7 mb 0.00 in0.0 mm 0.00 in/hr0.0 mm/hr 0.71 in18.0 mm
09:50 AM 65.3°F18.5°C 65.3°F18.5°C 100% 6.9 mph W11.1 kmh W 14.5 mph23.3 kmh 29.55 in1000.7 mb 0.00 in0.0 mm 0.00 in/hr0.0 mm/hr 0.71 in18.0 mm
09:51 AM 65.1°F18.4°C 65.1°F18.4°C 100% 7.6 mph W12.2 kmh W 14.5 mph23.3 kmh 29.55 in1000.7 mb 0.00 in0.0 mm 0.00 in/hr0.0 mm/hr 0.71 in18.0 mm
09:52 AM 64.8°F18.2°C 64.8°F18.2°C 100% 5.4 mph W8.7 kmh W 14.5 mph23.3 kmh 29.56 in1001.0 mb 0.00 in0.0 mm 0.00 in/hr0.0 mm/hr 0.71 in18.0 mm
09:53 AM 64.9°F18.3°C 65.0°F18.3°C 100% 6.9 mph W11.1 kmh W 14.5 mph23.3 kmh 29.56 in1001.0 mb 0.00 in0.0 mm 0.00 in/hr0.0 mm/hr 0.71 in18.0 mm
09:54 AM 65.3°F18.5°C 65.3°F18.5°C 100% 6.0 mph W9.7 kmh W 14.5 mph23.3 kmh 29.56 in1001.0 mb 0.00 in0.0 mm 0.00 in/hr0.0 mm/hr 0.71 in18.0 mm
09:55 AM 65.3°F18.5°C 65.3°F18.5°C 100% 9.2 mph WSW14.8 kmh WSW 14.5 mph23.3 kmh 29.55 in1000.7 mb 0.00 in0.0 mm 0.00 in/hr0.0 mm/hr 0.71 in18.0 mm
09:56 AM 66.2°F19.0°C 66.2°F19.0°C 100% 9.2 mph WSW14.8 kmh WSW 14.5 mph23.3 kmh 29.56 in1001.0 mb 0.00 in0.0 mm 0.00 in/hr0.0 mm/hr 0.71 in18.0 mm
09:57 AM 65.8°F18.8°C 65.9°F18.8°C 100% 6.9 mph WSW11.1 kmh WSW 14.5 mph23.3 kmh 29.56 in1001.0 mb 0.00 in0.0 mm 0.00 in/hr0.0 mm/hr 0.71 in18.0 mm
09:58 AM 66.2°F19.0°C 66.2°F19.0°C 100% 5.4 mph WSW8.7 kmh WSW 14.5 mph23.3 kmh 29.56 in1001.0 mb 0.00 in0.0 mm 0.00 in/hr0.0 mm/hr 0.71 in18.0 mm
09:59 AM 66.4°F19.1°C 66.4°F19.1°C 100% 5.4 mph WSW8.7 kmh WSW 14.5 mph23.3 kmh 29.56 in1001.0 mb 0.00 in0.0 mm 0.00 in/hr0.0 mm/hr 0.71 in18.0 mm
10:00 AM 66.2°F19.0°C 66.2°F19.0°C 100% 4.5 mph WSW7.2 kmh WSW 14.5 mph23.3 kmh 29.56 in1001.0 mb 0.00 in0.0 mm 0.00 in/hr0.0 mm/hr 0.71 in18.0 mm
10:01 AM 66.4°F19.1°C 66.4°F19.1°C 100% 4.5 mph W7.2 kmh W 14.5 mph23.3 kmh 29.56 in1001.0 mb 0.00 in0.0 mm 0.00 in/hr0.0 mm/hr 0.71 in18.0 mm
10:02 AM 66.9°F19.4°C 67.0°F19.4°C 100% 7.6 mph W12.2 kmh W 14.5 mph23.3 kmh 29.56 in1001.0 mb 0.00 in0.0 mm 0.00 in/hr0.0 mm/hr 0.71 in18.0 mm
10:03 AM 66.6°F19.2°C 66.6°F19.2°C 100% 6.9 mph W11.1 kmh W 14.5 mph23.3 kmh 29.56 in1001.0 mb 0.00 in0.0 mm 0.00 in/hr0.0 mm/hr 0.71 in18.0 mm
10:04 AM 66.2°F19.0°C 66.2°F19.0°C 100% 6.0 mph W9.7 kmh W 14.5 mph23.3 kmh 29.56 in1001.0 mb 0.00 in0.0 mm 0.00 in/hr0.0 mm/hr 0.71 in18.0 mm
10:05 AM 66.4°F19.1°C 66.4°F19.1°C 100% 6.9 mph W11.1 kmh W 14.5 mph23.3 kmh 29.56 in1001.0 mb 0.00 in0.0 mm 0.00 in/hr0.0 mm/hr 0.71 in18.0 mm
10:06 AM 66.4°F19.1°C 66.4°F19.1°C 100% 5.4 mph W8.7 kmh W 14.5 mph23.3 kmh 29.56 in1001.0 mb 0.00 in0.0 mm 0.00 in/hr0.0 mm/hr 0.71 in18.0 mm
10:07 AM 66.7°F19.3°C 66.8°F19.3°C 100% 5.4 mph W8.7 kmh W 14.5 mph23.3 kmh 29.56 in1001.0 mb 0.00 in0.0 mm 0.00 in/hr0.0 mm/hr 0.71 in18.0 mm
10:08 AM 66.9°F19.4°C 67.0°F19.4°C 100% 5.4 mph W8.7 kmh W 14.5 mph23.3 kmh 29.56 in1001.0 mb 0.00 in0.0 mm 0.00 in/hr0.0 mm/hr 0.71 in18.0 mm
10:09 AM 67.6°F19.8°C 67.7°F19.8°C 100% 6.9 mph W11.1 kmh W 14.5 mph23.3 kmh 29.55 in1000.7 mb 0.00 in0.0 mm 0.00 in/hr0.0 mm/hr 0.71 in18.0 mm
10:10 AM 66.9°F19.4°C 67.0°F19.4°C 100% 7.6 mph W12.2 kmh W 14.5 mph23.3 kmh 29.56 in1001.0 mb 0.00 in0.0 mm 0.00 in/hr0.0 mm/hr 0.71 in18.0 mm
10:11 AM 66.6°F19.2°C 66.0°F18.9°C 98% 6.0 mph W9.7 kmh W 14.5 mph23.3 kmh 29.56 in1001.0 mb 0.00 in0.0 mm 0.00 in/hr0.0 mm/hr 0.71 in18.0 mm
10:12 AM 67.5°F19.7°C 66.9°F19.4°C 98% 5.4 mph W8.7 kmh W 14.5 mph23.3 kmh 29.55 in1000.7 mb 0.00 in0.0 mm 0.00 in/hr0.0 mm/hr 0.71 in18.0 mm
10:13 AM 67.1°F19.5°C 66.5°F19.2°C 98% 5.4 mph W8.7 kmh W 14.5 mph23.3 kmh 29.55 in1000.7 mb 0.00 in0.0 mm 0.00 in/hr0.0 mm/hr 0.71 in18.0 mm
10:14 AM 67.1°F19.5°C 66.5°F19.2°C 98% 6.9 mph W11.1 kmh W 11.4 mph18.3 kmh 29.55 in1000.7 mb 0.00 in0.0 mm 0.00 in/hr0.0 mm/hr 0.71 in18.0 mm
10:15 AM 67.1°F19.5°C 66.5°F19.2°C 98% 6.9 mph W11.1 kmh W 11.4 mph18.3 kmh 29.55 in1000.7 mb 0.00 in0.0 mm 0.00 in/hr0.0 mm/hr 0.71 in18.0 mm
10:16 AM 66.6°F19.2°C 66.0°F18.9°C 98% 3.8 mph W6.1 kmh W 11.4 mph18.3 kmh 29.55 in1000.7 mb 0.00 in0.0 mm 0.00 in/hr0.0 mm/hr 0.71 in18.0 mm
10:17 AM 66.7°F19.3°C 66.2°F19.0°C 98% 5.4 mph W8.7 kmh W 11.4 mph18.3 kmh 29.55 in1000.7 mb 0.00 in0.0 mm 0.00 in/hr0.0 mm/hr 0.71 in18.0 mm
10:18 AM 66.6°F19.2°C 66.0°F18.9°C 98% 6.0 mph W9.7 kmh W 11.4 mph18.3 kmh 29.55 in1000.7 mb 0.00 in0.0 mm 0.00 in/hr0.0 mm/hr 0.71 in18.0 mm
10:19 AM 66.7°F19.3°C 66.2°F19.0°C 98% 4.5 mph W7.2 kmh W 11.4 mph18.3 kmh 29.56 in1001.0 mb 0.00 in0.0 mm 0.00 in/hr0.0 mm/hr 0.71 in18.0 mm
10:20 AM 66.7°F19.3°C 66.2°F19.0°C 98% 3.8 mph W6.1 kmh W 11.4 mph18.3 kmh 29.56 in1001.0 mb 0.00 in0.0 mm 0.00 in/hr0.0 mm/hr 0.71 in18.0 mm
10:21 AM 67.3°F19.6°C 66.7°F19.3°C 98% 4.5 mph W7.2 kmh W 11.4 mph18.3 kmh 29.55 in1000.7 mb 0.00 in0.0 mm 0.00 in/hr0.0 mm/hr 0.71 in18.0 mm
10:22 AM 67.6°F19.8°C 67.1°F19.5°C 98% 6.9 mph W11.1 kmh W 11.4 mph18.3 kmh 29.55 in1000.7 mb 0.00 in0.0 mm 0.00 in/hr0.0 mm/hr 0.71 in18.0 mm
10:23 AM 67.5°F19.7°C 66.9°F19.4°C 98% 9.8 mph W15.8 kmh W 13.0 mph20.9 kmh 29.55 in1000.7 mb 0.00 in0.0 mm 0.00 in/hr0.0 mm/hr 0.71 in18.0 mm
10:24 AM 67.3°F19.6°C 66.4°F19.1°C 97% 4.5 mph W7.2 kmh W 13.0 mph20.9 kmh 29.55 in1000.7 mb 0.00 in0.0 mm 0.00 in/hr0.0 mm/hr 0.71 in18.0 mm
10:25 AM 68.0°F20.0°C 67.1°F19.5°C 97% 5.4 mph W8.7 kmh W 13.0 mph20.9 kmh 29.55 in1000.7 mb 0.00 in0.0 mm 0.00 in/hr0.0 mm/hr 0.71 in18.0 mm
10:26 AM 68.0°F20.0°C 66.8°F19.3°C 96% 3.8 mph W6.1 kmh W 13.0 mph20.9 kmh 29.55 in1000.7 mb 0.00 in0.0 mm 0.00 in/hr0.0 mm/hr 0.71 in18.0 mm
10:27 AM 67.8°F19.9°C 67.0°F19.4°C 97% 4.5 mph W7.2 kmh W 13.0 mph20.9 kmh 29.55 in1000.7 mb 0.00 in0.0 mm 0.00 in/hr0.0 mm/hr 0.71 in18.0 mm
10:28 AM 68.0°F20.0°C 66.8°F19.3°C 96% 6.0 mph W9.7 kmh W 13.0 mph20.9 kmh 29.55 in1000.7 mb 0.00 in0.0 mm 0.00 in/hr0.0 mm/hr 0.71 in18.0 mm
10:29 AM 67.8°F19.9°C 67.0°F19.4°C 97% 5.4 mph W8.7 kmh W 13.0 mph20.9 kmh 29.55 in1000.7 mb 0.00 in0.0 mm 0.00 in/hr0.0 mm/hr 0.71 in18.0 mm
10:30 AM 68.0°F20.0°C 66.8°F19.3°C 96% 6.9 mph W11.1 kmh W 13.0 mph20.9 kmh 29.55 in1000.7 mb 0.00 in0.0 mm 0.00 in/hr0.0 mm/hr 0.71 in18.0 mm
10:31 AM 67.3°F19.6°C 66.1°F18.9°C 96% 8.3 mph W13.4 kmh W 13.0 mph20.9 kmh 29.55 in1000.7 mb 0.00 in0.0 mm 0.00 in/hr0.0 mm/hr 0.71 in18.0 mm
10:32 AM 67.3°F19.6°C 66.1°F18.9°C 96% 8.3 mph WSW13.4 kmh WSW 13.6 mph21.9 kmh 29.55 in1000.7 mb 0.00 in0.0 mm 0.00 in/hr0.0 mm/hr 0.71 in18.0 mm
10:33 AM 67.6°F19.8°C 66.8°F19.3°C 97% 10.7 mph WSW17.2 kmh WSW 18.3 mph29.5 kmh 29.55 in1000.7 mb 0.00 in0.0 mm 0.00 in/hr0.0 mm/hr 0.71 in18.0 mm
10:34 AM 67.3°F19.6°C 66.4°F19.1°C 97% 6.0 mph WSW9.7 kmh WSW 18.3 mph29.5 kmh 29.55 in1000.7 mb 0.00 in0.0 mm 0.00 in/hr0.0 mm/hr 0.71 in18.0 mm
10:35 AM 67.1°F19.5°C 66.3°F19.1°C 97% 6.0 mph WSW9.7 kmh WSW 18.3 mph29.5 kmh 29.55 in1000.7 mb 0.00 in0.0 mm 0.00 in/hr0.0 mm/hr 0.71 in18.0 mm
10:36 AM 67.5°F19.7°C 66.6°F19.2°C 97% 6.9 mph WSW11.1 kmh WSW 18.3 mph29.5 kmh 29.55 in1000.7 mb 0.00 in0.0 mm 0.00 in/hr0.0 mm/hr 0.71 in18.0 mm
10:37 AM 67.3°F19.6°C 66.4°F19.1°C 97% 9.2 mph WSW14.8 kmh WSW 18.3 mph29.5 kmh 29.55 in1000.7 mb 0.00 in0.0 mm 0.00 in/hr0.0 mm/hr 0.71 in18.0 mm
10:38 AM 66.9°F19.4°C 66.1°F18.9°C 97% 10.7 mph WSW17.2 kmh WSW 18.3 mph29.5 kmh 29.55 in1000.7 mb 0.00 in0.0 mm 0.00 in/hr0.0 mm/hr 0.71 in18.0 mm
10:39 AM 66.6°F19.2°C 65.7°F18.7°C 97% 9.2 mph WSW14.8 kmh WSW 18.3 mph29.5 kmh 29.55 in1000.7 mb 0.00 in0.0 mm 0.00 in/hr0.0 mm/hr 0.71 in18.0 mm
10:40 AM 66.7°F19.3°C 65.9°F18.8°C 97% 5.4 mph WSW8.7 kmh WSW 18.3 mph29.5 kmh 29.55 in1000.7 mb 0.00 in0.0 mm 0.00 in/hr0.0 mm/hr 0.71 in18.0 mm
10:41 AM 67.6°F19.8°C 67.1°F19.5°C 98% 6.0 mph WSW9.7 kmh WSW 18.3 mph29.5 kmh 29.55 in1000.7 mb 0.00 in0.0 mm 0.00 in/hr0.0 mm/hr 0.71 in18.0 mm
10:42 AM 67.8°F19.9°C 67.3°F19.6°C 98% 8.3 mph WSW13.4 kmh WSW 18.3 mph29.5 kmh 29.54 in1000.3 mb 0.00 in0.0 mm 0.00 in/hr0.0 mm/hr 0.71 in18.0 mm
10:43 AM 67.6°F19.8°C 67.1°F19.5°C 98% 8.3 mph WSW13.4 kmh WSW 18.3 mph29.5 kmh 29.54 in1000.3 mb 0.00 in0.0 mm 0.00 in/hr0.0 mm/hr 0.71 in18.0 mm
10:44 AM 67.5°F19.7°C 66.9°F19.4°C 98% 6.9 mph W11.1 kmh W 13.6 mph21.9 kmh 29.54 in1000.3 mb 0.00 in0.0 mm 0.00 in/hr0.0 mm/hr 0.71 in18.0 mm
10:45 AM 67.5°F19.7°C 66.6°F19.2°C 97% 6.0 mph W9.7 kmh W 14.5 mph23.3 kmh 29.54 in1000.3 mb 0.00 in0.0 mm 0.00 in/hr0.0 mm/hr 0.71 in18.0 mm
10:46 AM 67.8°F19.9°C 67.0°F19.4°C 97% 6.9 mph W11.1 kmh W 14.5 mph23.3 kmh 29.54 in1000.3 mb 0.00 in0.0 mm 0.00 in/hr0.0 mm/hr 0.71 in18.0 mm
10:47 AM 67.8°F19.9°C 67.0°F19.4°C 97% 9.8 mph W15.8 kmh W 17.4 mph28.0 kmh 29.54 in1000.3 mb 0.00 in0.0 mm 0.00 in/hr0.0 mm/hr 0.71 in18.0 mm
10:48 AM 67.5°F19.7°C 66.6°F19.2°C 97% 8.3 mph W13.4 kmh W 17.4 mph28.0 kmh 29.54 in1000.3 mb 0.00 in0.0 mm 0.00 in/hr0.0 mm/hr 0.71 in18.0 mm
10:49 AM 67.6°F19.8°C 66.8°F19.3°C 97% 5.4 mph W8.7 kmh W 17.4 mph28.0 kmh 29.54 in1000.3 mb 0.00 in0.0 mm 0.00 in/hr0.0 mm/hr 0.71 in18.0 mm
10:50 AM 67.8°F19.9°C 67.0°F19.4°C 97% 7.6 mph W12.2 kmh W 17.4 mph28.0 kmh 29.54 in1000.3 mb 0.00 in0.0 mm 0.00 in/hr0.0 mm/hr 0.71 in18.0 mm
10:51 AM 67.6°F19.8°C 66.8°F19.3°C 97% 9.2 mph W14.8 kmh W 17.4 mph28.0 kmh 29.54 in1000.3 mb 0.00 in0.0 mm 0.00 in/hr0.0 mm/hr 0.71 in18.0 mm
10:52 AM 67.3°F19.6°C 66.1°F18.9°C 96% 8.3 mph W13.4 kmh W 17.4 mph28.0 kmh 29.54 in1000.3 mb 0.00 in0.0 mm 0.00 in/hr0.0 mm/hr 0.71 in18.0 mm
10:53 AM 67.5°F19.7°C 66.3°F19.1°C 96% 6.9 mph WSW11.1 kmh WSW 17.4 mph28.0 kmh 29.54 in1000.3 mb 0.00 in0.0 mm 0.00 in/hr0.0 mm/hr 0.71 in18.0 mm
10:54 AM 67.6°F19.8°C 66.5°F19.2°C 96% 6.9 mph W11.1 kmh W 17.4 mph28.0 kmh 29.54 in1000.3 mb 0.00 in0.0 mm 0.00 in/hr0.0 mm/hr 0.71 in18.0 mm
10:55 AM 67.5°F19.7°C 66.6°F19.2°C 97% 8.3 mph W13.4 kmh W 17.4 mph28.0 kmh 29.54 in1000.3 mb 0.00 in0.0 mm 0.00 in/hr0.0 mm/hr 0.71 in18.0 mm
10:56 AM 67.5°F19.7°C 66.3°F19.1°C 96% 6.9 mph WSW11.1 kmh WSW 17.4 mph28.0 kmh 29.54 in1000.3 mb 0.00 in0.0 mm 0.00 in/hr0.0 mm/hr 0.71 in18.0 mm
10:57 AM 67.5°F19.7°C 66.3°F19.1°C 96% 6.0 mph W9.7 kmh W 14.5 mph23.3 kmh 29.54 in1000.3 mb 0.00 in0.0 mm 0.00 in/hr0.0 mm/hr 0.71 in18.0 mm
10:58 AM 67.5°F19.7°C 66.3°F19.1°C 96% 7.6 mph WSW12.2 kmh WSW 14.5 mph23.3 kmh 29.54 in1000.3 mb 0.00 in0.0 mm 0.00 in/hr0.0 mm/hr 0.71 in18.0 mm
10:59 AM 67.5°F19.7°C 66.3°F19.1°C 96% 8.3 mph WSW13.4 kmh WSW 14.5 mph23.3 kmh 29.53 in1000.0 mb 0.00 in0.0 mm 0.00 in/hr0.0 mm/hr 0.71 in18.0 mm
11:00 AM 67.3°F19.6°C 66.1°F18.9°C 96% 6.9 mph W11.1 kmh W 14.5 mph23.3 kmh 29.54 in1000.3 mb 0.00 in0.0 mm 0.00 in/hr0.0 mm/hr 0.71 in18.0 mm
11:01 AM 67.3°F19.6°C 66.1°F18.9°C 96% 6.9 mph W11.1 kmh W 14.5 mph23.3 kmh 29.53 in1000.0 mb 0.00 in0.0 mm 0.00 in/hr0.0 mm/hr 0.71 in18.0 mm
11:02 AM 67.3°F19.6°C 66.1°F18.9°C 96% 5.4 mph W8.7 kmh W 14.5 mph23.3 kmh 29.53 in1000.0 mb 0.00 in0.0 mm 0.00 in/hr0.0 mm/hr 0.71 in18.0 mm
11:03 AM 68.0°F20.0°C 66.5°F19.2°C 95% 3.8 mph W6.1 kmh W 14.5 mph23.3 kmh 29.53 in1000.0 mb 0.00 in0.0 mm 0.00 in/hr0.0 mm/hr 0.71 in18.0 mm
11:04 AM 68.4°F20.2°C 66.9°F19.4°C 95% 6.0 mph W9.7 kmh W 14.5 mph23.3 kmh 29.53 in1000.0 mb 0.00 in0.0 mm 0.00 in/hr0.0 mm/hr 0.71 in18.0 mm
11:05 AM 68.4°F20.2°C 66.9°F19.4°C 95% 5.4 mph W8.7 kmh W 13.6 mph21.9 kmh 29.54 in1000.3 mb 0.00 in0.0 mm 0.00 in/hr0.0 mm/hr 0.71 in18.0 mm
11:06 AM 68.4°F20.2°C 66.9°F19.4°C 95% 3.8 mph WNW6.1 kmh WNW 13.6 mph21.9 kmh 29.53 in1000.0 mb 0.00 in0.0 mm 0.00 in/hr0.0 mm/hr 0.71 in18.0 mm
11:07 AM 68.4°F20.2°C 66.9°F19.4°C 95% 6.9 mph W11.1 kmh W 13.6 mph21.9 kmh 29.54 in1000.3 mb 0.00 in0.0 mm 0.00 in/hr0.0 mm/hr 0.71 in18.0 mm
11:08 AM 68.2°F20.1°C 66.7°F19.3°C 95% 4.5 mph W7.2 kmh W 13.6 mph21.9 kmh 29.53 in1000.0 mb 0.00 in0.0 mm 0.00 in/hr0.0 mm/hr 0.71 in18.0 mm
11:09 AM 68.0°F20.0°C 65.9°F18.8°C 93% 7.6 mph W12.2 kmh W 13.6 mph21.9 kmh 29.54 in1000.3 mb 0.00 in0.0 mm 0.00 in/hr0.0 mm/hr 0.71 in18.0 mm
11:10 AM 68.4°F20.2°C 66.3°F19.1°C 93% 6.9 mph W11.1 kmh W 13.6 mph21.9 kmh 29.53 in1000.0 mb 0.00 in0.0 mm 0.00 in/hr0.0 mm/hr 0.71 in18.0 mm
11:11 AM 68.2°F20.1°C 66.1°F18.9°C 93% 7.6 mph W12.2 kmh W 15.2 mph24.5 kmh 29.54 in1000.3 mb 0.00 in0.0 mm 0.00 in/hr0.0 mm/hr 0.71 in18.0 mm
11:12 AM 68.2°F20.1°C 66.1°F18.9°C 93% 7.6 mph WSW12.2 kmh WSW 15.2 mph24.5 kmh 29.54 in1000.3 mb 0.00 in0.0 mm 0.00 in/hr0.0 mm/hr 0.71 in18.0 mm
11:13 AM 68.4°F20.2°C 66.3°F19.1°C 93% 9.2 mph WSW14.8 kmh WSW 15.2 mph24.5 kmh 29.53 in1000.0 mb 0.00 in0.0 mm 0.00 in/hr0.0 mm/hr 0.71 in18.0 mm
11:14 AM 67.8°F19.9°C 65.8°F18.8°C 93% 7.6 mph WSW12.2 kmh WSW 17.4 mph28.0 kmh 29.53 in1000.0 mb 0.00 in0.0 mm 0.00 in/hr0.0 mm/hr 0.71 in18.0 mm
11:15 AM 68.0°F20.0°C 65.6°F18.7°C 92% 7.6 mph WSW12.2 kmh WSW 17.4 mph28.0 kmh 29.53 in1000.0 mb 0.00 in0.0 mm 0.00 in/hr0.0 mm/hr 0.71 in18.0 mm
11:16 AM 67.6°F19.8°C 65.6°F18.7°C 93% 7.6 mph WSW12.2 kmh WSW 17.4 mph28.0 kmh 29.53 in1000.0 mb 0.00 in0.0 mm 0.00 in/hr0.0 mm/hr 0.71 in18.0 mm
11:17 AM 68.0°F20.0°C 65.6°F18.7°C 92% 9.2 mph WSW14.8 kmh WSW 17.4 mph28.0 kmh 29.53 in1000.0 mb 0.00 in0.0 mm 0.00 in/hr0.0 mm/hr 0.71 in18.0 mm
11:18 AM 68.4°F20.2°C 66.0°F18.9°C 92% 6.9 mph WSW11.1 kmh WSW 17.4 mph28.0 kmh 29.53 in1000.0 mb 0.00 in0.0 mm 0.00 in/hr0.0 mm/hr 0.71 in18.0 mm
11:19 AM 68.5°F20.3°C 66.2°F19.0°C 92% 9.2 mph WSW14.8 kmh WSW 17.4 mph28.0 kmh 29.53 in1000.0 mb 0.00 in0.0 mm 0.00 in/hr0.0 mm/hr 0.71 in18.0 mm
11:20 AM 68.0°F20.0°C 65.6°F18.7°C 92% 9.2 mph WSW14.8 kmh WSW 17.4 mph28.0 kmh 29.53 in1000.0 mb 0.00 in0.0 mm 0.00 in/hr0.0 mm/hr 0.71 in18.0 mm
11:21 AM 68.2°F20.1°C 65.8°F18.8°C 92% 4.5 mph WSW7.2 kmh WSW 17.4 mph28.0 kmh 29.53 in1000.0 mb 0.00 in0.0 mm 0.00 in/hr0.0 mm/hr 0.71 in18.0 mm
11:22 AM 68.7°F20.4°C 66.3°F19.1°C 92% 10.7 mph WSW17.2 kmh WSW 17.4 mph28.0 kmh 29.53 in1000.0 mb 0.00 in0.0 mm 0.00 in/hr0.0 mm/hr 0.71 in18.0 mm
11:23 AM 68.4°F20.2°C 66.0°F18.9°C 92% 11.4 mph WSW18.3 kmh WSW 17.4 mph28.0 kmh 29.54 in1000.3 mb 0.00 in0.0 mm 0.00 in/hr0.0 mm/hr 0.71 in18.0 mm
11:24 AM 67.8°F19.9°C 65.1°F18.4°C 91% 7.6 mph W12.2 kmh W 17.4 mph28.0 kmh 29.53 in1000.0 mb 0.00 in0.0 mm 0.00 in/hr0.0 mm/hr 0.71 in18.0 mm
11:25 AM 68.7°F20.4°C 66.0°F18.9°C 91% 6.9 mph WSW11.1 kmh WSW 17.4 mph28.0 kmh 29.53 in1000.0 mb 0.00 in0.0 mm 0.00 in/hr0.0 mm/hr 0.71 in18.0 mm
11:26 AM 68.7°F20.4°C 65.7°F18.7°C 90% 9.2 mph WSW14.8 kmh WSW 17.4 mph28.0 kmh 29.53 in1000.0 mb 0.00 in0.0 mm 0.00 in/hr0.0 mm/hr 0.71 in18.0 mm
11:27 AM 68.2°F20.1°C 64.5°F18.1°C 88% 7.6 mph WSW12.2 kmh WSW 17.4 mph28.0 kmh 29.53 in1000.0 mb 0.00 in0.0 mm 0.00 in/hr0.0 mm/hr 0.71 in18.0 mm
11:28 AM 68.4°F20.2°C 64.7°F18.2°C 88% 7.6 mph W12.2 kmh W 17.4 mph28.0 kmh 29.53 in1000.0 mb 0.00 in0.0 mm 0.00 in/hr0.0 mm/hr 0.71 in18.0 mm
11:29 AM 68.2°F20.1°C 64.5°F18.1°C 88% 8.3 mph W13.4 kmh W 17.4 mph28.0 kmh 29.53 in1000.0 mb 0.00 in0.0 mm 0.00 in/hr0.0 mm/hr 0.71 in18.0 mm
11:30 AM 68.0°F20.0°C 64.3°F17.9°C 88% 8.3 mph W13.4 kmh W 17.4 mph28.0 kmh 29.53 in1000.0 mb 0.00 in0.0 mm 0.00 in/hr0.0 mm/hr 0.71 in18.0 mm
11:31 AM 68.2°F20.1°C 64.2°F17.9°C 87% 6.9 mph W11.1 kmh W 17.4 mph28.0 kmh 29.53 in1000.0 mb 0.00 in0.0 mm 0.00 in/hr0.0 mm/hr 0.71 in18.0 mm
11:32 AM 68.2°F20.1°C 64.2°F17.9°C 87% 9.2 mph W14.8 kmh W 17.4 mph28.0 kmh 29.53 in1000.0 mb 0.00 in0.0 mm 0.00 in/hr0.0 mm/hr 0.71 in18.0 mm
11:33 AM 68.2°F20.1°C 63.9°F17.7°C 86% 9.8 mph W15.8 kmh W 18.3 mph29.5 kmh 29.53 in1000.0 mb 0.00 in0.0 mm 0.00 in/hr0.0 mm/hr 0.71 in18.0 mm
11:34 AM 68.4°F20.2°C 64.0°F17.8°C 86% 11.4 mph W18.3 kmh W 19.7 mph31.7 kmh 29.53 in1000.0 mb 0.00 in0.0 mm 0.00 in/hr0.0 mm/hr 0.71 in18.0 mm
11:35 AM 67.8°F19.9°C 63.8°F17.7°C 87% 8.3 mph W13.4 kmh W 19.7 mph31.7 kmh 29.53 in1000.0 mb 0.00 in0.0 mm 0.00 in/hr0.0 mm/hr 0.71 in18.0 mm
11:36 AM 67.8°F19.9°C 63.8°F17.7°C 87% 9.8 mph W15.8 kmh W 19.7 mph31.7 kmh 29.53 in1000.0 mb 0.00 in0.0 mm 0.00 in/hr0.0 mm/hr 0.71 in18.0 mm
11:37 AM 67.6°F19.8°C 64.0°F17.8°C 88% 9.2 mph W14.8 kmh W 19.7 mph31.7 kmh 29.52 in999.7 mb 0.00 in0.0 mm 0.00 in/hr0.0 mm/hr 0.71 in18.0 mm
11:38 AM 67.8°F19.9°C 64.2°F17.9°C 88% 6.0 mph W9.7 kmh W 19.7 mph31.7 kmh 29.52 in999.7 mb 0.00 in0.0 mm 0.00 in/hr0.0 mm/hr 0.71 in18.0 mm
11:39 AM 67.8°F19.9°C 64.8°F18.2°C 90% 6.9 mph W11.1 kmh W 19.7 mph31.7 kmh 29.52 in999.7 mb 0.00 in0.0 mm 0.00 in/hr0.0 mm/hr 0.71 in18.0 mm
11:40 AM 67.6°F19.8°C 64.6°F18.1°C 90% 9.2 mph W14.8 kmh W 19.7 mph31.7 kmh 29.52 in999.7 mb 0.00 in0.0 mm 0.00 in/hr0.0 mm/hr 0.71 in18.0 mm
11:41 AM 67.5°F19.7°C 64.5°F18.1°C 90% 5.4 mph W8.7 kmh W 19.7 mph31.7 kmh 29.53 in1000.0 mb 0.00 in0.0 mm 0.00 in/hr0.0 mm/hr 0.71 in18.0 mm
11:42 AM 67.6°F19.8°C 64.6°F18.1°C 90% 6.9 mph W11.1 kmh W 19.7 mph31.7 kmh 29.52 in999.7 mb 0.00 in0.0 mm 0.00 in/hr0.0 mm/hr 0.71 in18.0 mm
11:43 AM 67.8°F19.9°C 64.8°F18.2°C 90% 7.6 mph W12.2 kmh W 19.7 mph31.7 kmh 29.52 in999.7 mb 0.00 in0.0 mm 0.00 in/hr0.0 mm/hr 0.71 in18.0 mm
11:44 AM 67.6°F19.8°C 64.6°F18.1°C 90% 6.0 mph W9.7 kmh W 19.7 mph31.7 kmh 29.52 in999.7 mb 0.00 in0.0 mm 0.00 in/hr0.0 mm/hr 0.71 in18.0 mm
11:45 AM 67.6°F19.8°C 64.6°F18.1°C 90% 9.8 mph W15.8 kmh W 15.9 mph25.6 kmh 29.52 in999.7 mb 0.00 in0.0 mm 0.00 in/hr0.0 mm/hr 0.71 in18.0 mm
11:46 AM 68.0°F20.0°C 64.3°F17.9°C 88% 6.9 mph W11.1 kmh W 15.9 mph25.6 kmh 29.52 in999.7 mb 0.00 in0.0 mm 0.00 in/hr0.0 mm/hr 0.71 in18.0 mm
11:47 AM 68.2°F20.1°C 64.5°F18.1°C 88% 7.6 mph W12.2 kmh W 15.9 mph25.6 kmh 29.52 in999.7 mb 0.00 in0.0 mm 0.00 in/hr0.0 mm/hr 0.71 in18.0 mm
11:48 AM 68.4°F20.2°C 64.7°F18.2°C 88% 8.3 mph WSW13.4 kmh WSW 15.9 mph25.6 kmh 29.52 in999.7 mb 0.00 in0.0 mm 0.00 in/hr0.0 mm/hr 0.71 in18.0 mm
11:49 AM 67.8°F19.9°C 64.8°F18.2°C 90% 6.9 mph WSW11.1 kmh WSW 15.9 mph25.6 kmh 29.52 in999.7 mb 0.00 in0.0 mm 0.00 in/hr0.0 mm/hr 0.71 in18.0 mm
11:50 AM 67.6°F19.8°C 64.6°F18.1°C 90% 6.9 mph WSW11.1 kmh WSW 15.9 mph25.6 kmh 29.52 in999.7 mb 0.00 in0.0 mm 0.00 in/hr0.0 mm/hr 0.71 in18.0 mm
11:51 AM 68.0°F20.0°C 64.3°F17.9°C 88% 5.4 mph WSW8.7 kmh WSW 15.9 mph25.6 kmh 29.52 in999.7 mb 0.00 in0.0 mm 0.00 in/hr0.0 mm/hr 0.71 in18.0 mm
11:52 AM 68.2°F20.1°C 64.5°F18.1°C 88% 5.4 mph WSW8.7 kmh WSW 15.9 mph25.6 kmh 29.52 in999.7 mb 0.00 in0.0 mm 0.00 in/hr0.0 mm/hr 0.71 in18.0 mm
11:53 AM 68.2°F20.1°C 64.5°F18.1°C 88% 6.0 mph WSW9.7 kmh WSW 15.9 mph25.6 kmh 29.52 in999.7 mb 0.00 in0.0 mm 0.00 in/hr0.0 mm/hr 0.71 in18.0 mm
11:54 AM 67.6°F19.8°C 64.6°F18.1°C 90% 6.9 mph WSW11.1 kmh WSW 15.9 mph25.6 kmh 29.51 in999.3 mb 0.00 in0.0 mm 0.00 in/hr0.0 mm/hr 0.71 in18.0 mm
11:55 AM 67.8°F19.9°C 64.8°F18.2°C 90% 5.4 mph WSW8.7 kmh WSW 15.9 mph25.6 kmh 29.51 in999.3 mb 0.00 in0.0 mm 0.00 in/hr0.0 mm/hr 0.71 in18.0 mm
11:56 AM 67.6°F19.8°C 64.6°F18.1°C 90% 4.5 mph WSW7.2 kmh WSW 15.2 mph24.5 kmh 29.52 in999.7 mb 0.00 in0.0 mm 0.00 in/hr0.0 mm/hr 0.71 in18.0 mm
11:57 AM 68.0°F20.0°C 65.0°F18.3°C 90% 2.2 mph WSW3.5 kmh WSW 15.2 mph24.5 kmh 29.52 in999.7 mb 0.00 in0.0 mm 0.00 in/hr0.0 mm/hr 0.71 in18.0 mm
11:58 AM 68.4°F20.2°C 65.3°F18.5°C 90% 5.4 mph WSW8.7 kmh WSW 15.2 mph24.5 kmh 29.52 in999.7 mb 0.00 in0.0 mm 0.00 in/hr0.0 mm/hr 0.71 in18.0 mm
11:59 AM 68.2°F20.1°C 65.5°F18.6°C 91% 5.4 mph WSW8.7 kmh WSW 15.2 mph24.5 kmh 29.52 in999.7 mb 0.00 in0.0 mm 0.00 in/hr0.0 mm/hr 0.71 in18.0 mm
12:00 PM 68.2°F20.1°C 65.5°F18.6°C 91% 4.5 mph W7.2 kmh W 13.0 mph20.9 kmh 29.52 in999.7 mb 0.00 in0.0 mm 0.00 in/hr0.0 mm/hr 0.71 in18.0 mm
12:01 PM 68.5°F20.3°C 65.8°F18.8°C 91% 4.5 mph W7.2 kmh W 13.0 mph20.9 kmh 29.52 in999.7 mb 0.00 in0.0 mm 0.00 in/hr0.0 mm/hr 0.71 in18.0 mm
12:02 PM 68.9°F20.5°C 66.2°F19.0°C 91% 5.4 mph W8.7 kmh W 13.0 mph20.9 kmh 29.52 in999.7 mb 0.00 in0.0 mm 0.00 in/hr0.0 mm/hr 0.71 in18.0 mm
12:03 PM 68.7°F20.4°C 66.0°F18.9°C 91% 3.1 mph W5.0 kmh W 12.1 mph19.5 kmh 29.52 in999.7 mb 0.00 in0.0 mm 0.00 in/hr0.0 mm/hr 0.71 in18.0 mm
12:04 PM 69.1°F20.6°C 66.4°F19.1°C 91% 5.4 mph W8.7 kmh W 12.1 mph19.5 kmh 29.52 in999.7 mb 0.00 in0.0 mm 0.00 in/hr0.0 mm/hr 0.71 in18.0 mm
12:05 PM 68.4°F20.2°C 65.3°F18.5°C 90% 6.0 mph W9.7 kmh W 12.1 mph19.5 kmh 29.52 in999.7 mb 0.00 in0.0 mm 0.00 in/hr0.0 mm/hr 0.71 in18.0 mm
12:06 PM 68.2°F20.1°C 64.5°F18.1°C 88% 6.0 mph W9.7 kmh W 13.0 mph20.9 kmh 29.51 in999.3 mb 0.00 in0.0 mm 0.00 in/hr0.0 mm/hr 0.71 in18.0 mm
12:07 PM 68.2°F20.1°C 65.2°F18.4°C 90% 3.8 mph WSW6.1 kmh WSW 13.0 mph20.9 kmh 29.51 in999.3 mb 0.00 in0.0 mm 0.00 in/hr0.0 mm/hr 0.71 in18.0 mm
12:08 PM 68.2°F20.1°C 65.2°F18.4°C 90% 3.8 mph W6.1 kmh W 13.0 mph20.9 kmh 29.51 in999.3 mb 0.00 in0.0 mm 0.00 in/hr0.0 mm/hr 0.71 in18.0 mm
12:09 PM 69.1°F20.6°C 66.4°F19.1°C 91% 3.1 mph WSW5.0 kmh WSW 13.0 mph20.9 kmh 29.52 in999.7 mb 0.00 in0.0 mm 0.00 in/hr0.0 mm/hr 0.71 in18.0 mm
12:10 PM 69.6°F20.9°C 66.9°F19.4°C 91% 5.4 mph WSW8.7 kmh WSW 13.0 mph20.9 kmh 29.51 in999.3 mb 0.00 in0.0 mm 0.00 in/hr0.0 mm/hr 0.71 in18.0 mm
12:11 PM 69.3°F20.7°C 66.2°F19.0°C 90% 5.4 mph WSW8.7 kmh WSW 13.0 mph20.9 kmh 29.51 in999.3 mb 0.00 in0.0 mm 0.00 in/hr0.0 mm/hr 0.71 in18.0 mm
12:13 PM 69.1°F20.6°C 65.1°F18.4°C 87% 6.0 mph WSW9.7 kmh WSW 13.0 mph20.9 kmh 29.51 in999.3 mb 0.00 in0.0 mm 0.00 in/hr0.0 mm/hr 0.71 in18.0 mm
12:14 PM 69.1°F20.6°C 65.1°F18.4°C 87% 3.8 mph WSW6.1 kmh WSW 13.0 mph20.9 kmh 29.51 in999.3 mb 0.00 in0.0 mm 0.00 in/hr0.0 mm/hr 0.71 in18.0 mm
12:15 PM 69.3°F20.7°C 65.3°F18.5°C 87% 5.4 mph WSW8.7 kmh WSW 13.0 mph20.9 kmh 29.51 in999.3 mb 0.00 in0.0 mm 0.00 in/hr0.0 mm/hr 0.71 in18.0 mm
12:16 PM 69.1°F20.6°C 65.1°F18.4°C 87% 5.4 mph WSW8.7 kmh WSW 13.0 mph20.9 kmh 29.51 in999.3 mb 0.00 in0.0 mm 0.00 in/hr0.0 mm/hr 0.71 in18.0 mm
12:17 PM 68.7°F20.4°C 64.7°F18.2°C 87% 6.9 mph WSW11.1 kmh WSW 13.0 mph20.9 kmh 29.51 in999.3 mb 0.00 in0.0 mm 0.00 in/hr0.0 mm/hr 0.71 in18.0 mm
12:18 PM 68.5°F20.3°C 64.5°F18.1°C 87% 7.6 mph WSW12.2 kmh WSW 13.0 mph20.9 kmh 29.51 in999.3 mb 0.00 in0.0 mm 0.00 in/hr0.0 mm/hr 0.71 in18.0 mm
12:19 PM 68.0°F20.0°C 64.0°F17.8°C 87% 4.5 mph WSW7.2 kmh WSW 13.0 mph20.9 kmh 29.51 in999.3 mb 0.00 in0.0 mm 0.00 in/hr0.0 mm/hr 0.71 in18.0 mm
12:20 PM 68.5°F20.3°C 64.9°F18.3°C 88% 3.8 mph WSW6.1 kmh WSW 13.0 mph20.9 kmh 29.51 in999.3 mb 0.00 in0.0 mm 0.00 in/hr0.0 mm/hr 0.71 in18.0 mm
12:21 PM 69.1°F20.6°C 65.4°F18.6°C 88% 3.8 mph WSW6.1 kmh WSW 11.4 mph18.3 kmh 29.51 in999.3 mb 0.00 in0.0 mm 0.00 in/hr0.0 mm/hr 0.71 in18.0 mm
12:22 PM 68.9°F20.5°C 65.2°F18.4°C 88% 6.9 mph WSW11.1 kmh WSW 12.1 mph19.5 kmh 29.50 in999.0 mb 0.00 in0.0 mm 0.00 in/hr0.0 mm/hr 0.71 in18.0 mm
12:23 PM 68.7°F20.4°C 65.1°F18.4°C 88% 6.0 mph WSW9.7 kmh WSW 12.1 mph19.5 kmh 29.51 in999.3 mb 0.00 in0.0 mm 0.00 in/hr0.0 mm/hr 0.71 in18.0 mm
12:24 PM 68.7°F20.4°C 65.1°F18.4°C 88% 5.4 mph WSW8.7 kmh WSW 12.1 mph19.5 kmh 29.50 in999.0 mb 0.00 in0.0 mm 0.00 in/hr0.0 mm/hr 0.71 in18.0 mm
12:25 PM 68.0°F20.0°C 64.0°F17.8°C 87% 6.0 mph WSW9.7 kmh WSW 13.0 mph20.9 kmh 29.51 in999.3 mb 0.00 in0.0 mm 0.00 in/hr0.0 mm/hr 0.71 in18.0 mm
12:26 PM 68.0°F20.0°C 64.3°F17.9°C 88% 6.9 mph WSW11.1 kmh WSW 13.0 mph20.9 kmh 29.50 in999.0 mb 0.00 in0.0 mm 0.00 in/hr0.0 mm/hr 0.71 in18.0 mm
12:27 PM 67.8°F19.9°C 64.8°F18.2°C 90% 10.7 mph WSW17.2 kmh WSW 15.9 mph25.6 kmh 29.50 in999.0 mb 0.00 in0.0 mm 0.00 in/hr0.0 mm/hr 0.71 in18.0 mm
12:28 PM 67.5°F19.7°C 64.5°F18.1°C 90% 5.4 mph WSW8.7 kmh WSW 15.9 mph25.6 kmh 29.50 in999.0 mb 0.00 in0.0 mm 0.00 in/hr0.0 mm/hr 0.71 in18.0 mm
12:29 PM 68.0°F20.0°C 65.0°F18.3°C 90% 6.0 mph WSW9.7 kmh WSW 15.9 mph25.6 kmh 29.51 in999.3 mb 0.00 in0.0 mm 0.00 in/hr0.0 mm/hr 0.71 in18.0 mm
12:30 PM 68.2°F20.1°C 65.2°F18.4°C 90% 7.6 mph WSW12.2 kmh WSW 15.9 mph25.6 kmh 29.50 in999.0 mb 0.00 in0.0 mm 0.00 in/hr0.0 mm/hr 0.71 in18.0 mm
12:31 PM 68.0°F20.0°C 64.3°F17.9°C 88% 5.4 mph WSW8.7 kmh WSW 15.9 mph25.6 kmh 29.51 in999.3 mb 0.00 in0.0 mm 0.00 in/hr0.0 mm/hr 0.71 in18.0 mm
12:32 PM 68.0°F20.0°C 64.3°F17.9°C 88% 6.0 mph WSW9.7 kmh WSW 15.9 mph25.6 kmh 29.50 in999.0 mb 0.00 in0.0 mm 0.00 in/hr0.0 mm/hr 0.71 in18.0 mm
12:33 PM 67.8°F19.9°C 64.8°F18.2°C 90% 5.4 mph WSW8.7 kmh WSW 15.9 mph25.6 kmh 29.50 in999.0 mb 0.00 in0.0 mm 0.00 in/hr0.0 mm/hr 0.71 in18.0 mm
12:34 PM 67.8°F19.9°C 64.8°F18.2°C 90% 4.5 mph WSW7.2 kmh WSW 15.9 mph25.6 kmh 29.50 in999.0 mb 0.00 in0.0 mm 0.00 in/hr0.0 mm/hr 0.71 in18.0 mm
12:35 PM 67.6°F19.8°C 64.6°F18.1°C 90% 7.6 mph WSW12.2 kmh WSW 15.9 mph25.6 kmh 29.50 in999.0 mb 0.00 in0.0 mm 0.00 in/hr0.0 mm/hr 0.71 in18.0 mm
12:36 PM 67.8°F19.9°C 64.8°F18.2°C 90% 6.0 mph WSW9.7 kmh WSW 15.9 mph25.6 kmh 29.50 in999.0 mb 0.00 in0.0 mm 0.00 in/hr0.0 mm/hr 0.71 in18.0 mm
12:37 PM 68.4°F20.2°C 64.7°F18.2°C 88% 4.5 mph WSW7.2 kmh WSW 15.9 mph25.6 kmh 29.50 in999.0 mb 0.00 in0.0 mm 0.00 in/hr0.0 mm/hr 0.71 in18.0 mm
12:38 PM 68.7°F20.4°C 65.1°F18.4°C 88% 3.1 mph WSW5.0 kmh WSW 13.0 mph20.9 kmh 29.50 in999.0 mb 0.00 in0.0 mm 0.00 in/hr0.0 mm/hr 0.71 in18.0 mm
12:39 PM 69.1°F20.6°C 65.4°F18.6°C 88% 7.6 mph WSW12.2 kmh WSW 14.5 mph23.3 kmh 29.50 in999.0 mb 0.00 in0.0 mm 0.00 in/hr0.0 mm/hr 0.71 in18.0 mm
12:40 PM 68.9°F20.5°C 64.9°F18.3°C 87% 13.0 mph W20.9 kmh W 22.1 mph35.6 kmh 29.50 in999.0 mb 0.00 in0.0 mm 0.00 in/hr0.0 mm/hr 0.71 in18.0 mm
12:41 PM 68.2°F20.1°C 62.8°F17.1°C 83% 8.3 mph W13.4 kmh W 22.1 mph35.6 kmh 29.50 in999.0 mb 0.00 in0.0 mm 0.00 in/hr0.0 mm/hr 0.71 in18.0 mm
12:42 PM 67.8°F19.9°C 63.2°F17.3°C 85% 9.2 mph W14.8 kmh W 22.1 mph35.6 kmh 29.50 in999.0 mb 0.00 in0.0 mm 0.00 in/hr0.0 mm/hr 0.71 in18.0 mm
12:43 PM 68.2°F20.1°C 62.8°F17.1°C 83% 5.4 mph W8.7 kmh W 22.1 mph35.6 kmh 29.50 in999.0 mb 0.00 in0.0 mm 0.00 in/hr0.0 mm/hr 0.71 in18.0 mm
12:44 PM 68.9°F20.5°C 64.2°F17.9°C 85% 5.4 mph W8.7 kmh W 22.1 mph35.6 kmh 29.49 in998.6 mb 0.00 in0.0 mm 0.00 in/hr0.0 mm/hr 0.71 in18.0 mm
12:45 PM 69.6°F20.9°C 64.9°F18.3°C 85% 5.4 mph W8.7 kmh W 22.1 mph35.6 kmh 29.49 in998.6 mb 0.00 in0.0 mm 0.00 in/hr0.0 mm/hr 0.71 in18.0 mm
12:46 PM 69.3°F20.7°C 64.6°F18.1°C 85% 6.0 mph WSW9.7 kmh WSW 22.1 mph35.6 kmh 29.50 in999.0 mb 0.00 in0.0 mm 0.00 in/hr0.0 mm/hr 0.71 in18.0 mm
12:47 PM 68.7°F20.4°C 63.4°F17.4°C 83% 6.0 mph WSW9.7 kmh WSW 22.1 mph35.6 kmh 29.50 in999.0 mb 0.00 in0.0 mm 0.00 in/hr0.0 mm/hr 0.71 in18.0 mm
12:48 PM 68.4°F20.2°C 62.7°F17.1°C 82% 5.4 mph WSW8.7 kmh WSW 22.1 mph35.6 kmh 29.50 in999.0 mb 0.00 in0.0 mm 0.00 in/hr0.0 mm/hr 0.71 in18.0 mm
12:49 PM 69.1°F20.6°C 63.7°F17.6°C 83% 5.4 mph WSW8.7 kmh WSW 22.1 mph35.6 kmh 29.49 in998.6 mb 0.00 in0.0 mm 0.00 in/hr0.0 mm/hr 0.71 in18.0 mm
12:50 PM 68.9°F20.5°C 63.6°F17.6°C 83% 3.8 mph WSW6.1 kmh WSW 16.8 mph27.0 kmh 29.49 in998.6 mb 0.00 in0.0 mm 0.00 in/hr0.0 mm/hr 0.71 in18.0 mm
12:51 PM 68.9°F20.5°C 63.6°F17.6°C 83% 4.5 mph WSW7.2 kmh WSW 16.8 mph27.0 kmh 29.49 in998.6 mb 0.00 in0.0 mm 0.00 in/hr0.0 mm/hr 0.71 in18.0 mm
12:52 PM 68.4°F20.2°C 63.0°F17.2°C 83% 6.0 mph SW9.7 kmh SW 16.8 mph27.0 kmh 29.49 in998.6 mb 0.00 in0.0 mm 0.00 in/hr0.0 mm/hr 0.71 in18.0 mm
12:53 PM 68.2°F20.1°C 62.8°F17.1°C 83% 3.8 mph SW6.1 kmh SW 10.7 mph17.2 kmh 29.49 in998.6 mb 0.00 in0.0 mm 0.00 in/hr0.0 mm/hr 0.71 in18.0 mm
12:54 PM 68.2°F20.1°C 63.5°F17.5°C 85% 6.0 mph SW9.7 kmh SW 10.7 mph17.2 kmh 29.48 in998.3 mb 0.00 in0.0 mm 0.00 in/hr0.0 mm/hr 0.71 in18.0 mm
12:55 PM 68.5°F20.3°C 63.9°F17.7°C 85% 5.4 mph SW8.7 kmh SW 10.7 mph17.2 kmh 29.48 in998.3 mb 0.00 in0.0 mm 0.00 in/hr0.0 mm/hr 0.71 in18.0 mm
12:56 PM 68.5°F20.3°C 63.9°F17.7°C 85% 3.8 mph SW6.1 kmh SW 10.7 mph17.2 kmh 29.49 in998.6 mb 0.00 in0.0 mm 0.00 in/hr0.0 mm/hr 0.71 in18.0 mm
12:57 PM 69.1°F20.6°C 64.4°F18.0°C 85% 5.4 mph SW8.7 kmh SW 11.4 mph18.3 kmh 29.49 in998.6 mb 0.00 in0.0 mm 0.00 in/hr0.0 mm/hr 0.71 in18.0 mm
12:58 PM 69.3°F20.7°C 64.6°F18.1°C 85% 3.1 mph SW5.0 kmh SW 11.4 mph18.3 kmh 29.49 in998.6 mb 0.00 in0.0 mm 0.00 in/hr0.0 mm/hr 0.71 in18.0 mm
12:59 PM 69.6°F20.9°C 64.9°F18.3°C 85% 3.1 mph SW5.0 kmh SW 11.4 mph18.3 kmh 29.49 in998.6 mb 0.00 in0.0 mm 0.00 in/hr0.0 mm/hr 0.71 in18.0 mm
01:00 PM 69.3°F20.7°C 63.9°F17.7°C 83% 7.6 mph SW12.2 kmh SW 11.4 mph18.3 kmh 29.49 in998.6 mb 0.00 in0.0 mm 0.00 in/hr0.0 mm/hr 0.71 in18.0 mm
01:01 PM 69.4°F20.8°C 64.1°F17.8°C 83% 6.0 mph WSW9.7 kmh WSW 11.4 mph18.3 kmh 29.49 in998.6 mb 0.00 in0.0 mm 0.00 in/hr0.0 mm/hr 0.71 in18.0 mm
01:02 PM 69.1°F20.6°C 63.7°F17.6°C 83% 6.0 mph WSW9.7 kmh WSW 11.4 mph18.3 kmh 29.48 in998.3 mb 0.00 in0.0 mm 0.00 in/hr0.0 mm/hr 0.71 in18.0 mm
01:03 PM 69.1°F20.6°C 63.7°F17.6°C 83% 6.0 mph WSW9.7 kmh WSW 11.4 mph18.3 kmh 29.49 in998.6 mb 0.00 in0.0 mm 0.00 in/hr0.0 mm/hr 0.71 in18.0 mm
01:04 PM 68.5°F20.3°C 63.2°F17.3°C 83% 8.3 mph WSW13.4 kmh WSW 15.9 mph25.6 kmh 29.48 in998.3 mb 0.00 in0.0 mm 0.00 in/hr0.0 mm/hr 0.71 in18.0 mm
01:05 PM 68.5°F20.3°C 62.9°F17.2°C 82% 6.0 mph W9.7 kmh W 15.9 mph25.6 kmh 29.49 in998.6 mb 0.00 in0.0 mm 0.00 in/hr0.0 mm/hr 0.71 in18.0 mm
01:06 PM 68.9°F20.5°C 63.2°F17.3°C 82% 7.6 mph W12.2 kmh W 15.9 mph25.6 kmh 29.48 in998.3 mb 0.00 in0.0 mm 0.00 in/hr0.0 mm/hr 0.71 in18.0 mm
01:07 PM 68.9°F20.5°C 63.2°F17.3°C 82% 7.6 mph W12.2 kmh W 15.9 mph25.6 kmh 29.48 in998.3 mb 0.00 in0.0 mm 0.00 in/hr0.0 mm/hr 0.71 in18.0 mm
01:08 PM 68.4°F20.2°C 62.3°F16.8°C 81% 7.6 mph WSW12.2 kmh WSW 15.9 mph25.6 kmh 29.48 in998.3 mb 0.00 in0.0 mm 0.00 in/hr0.0 mm/hr 0.71 in18.0 mm
01:09 PM 68.4°F20.2°C 62.3°F16.8°C 81% 6.9 mph WSW11.1 kmh WSW 15.9 mph25.6 kmh 29.48 in998.3 mb 0.00 in0.0 mm 0.00 in/hr0.0 mm/hr 0.71 in18.0 mm
01:10 PM 68.2°F20.1°C 62.2°F16.8°C 81% 11.4 mph WSW18.3 kmh WSW 19.0 mph30.6 kmh 29.48 in998.3 mb 0.00 in0.0 mm 0.00 in/hr0.0 mm/hr 0.71 in18.0 mm
01:11 PM 67.5°F19.7°C 61.5°F16.4°C 81% 9.8 mph WSW15.8 kmh WSW 19.0 mph30.6 kmh 29.48 in998.3 mb 0.00 in0.0 mm 0.00 in/hr0.0 mm/hr 0.71 in18.0 mm
01:12 PM 67.5°F19.7°C 61.8°F16.6°C 82% 10.7 mph WSW17.2 kmh WSW 19.0 mph30.6 kmh 29.48 in998.3 mb 0.00 in0.0 mm 0.00 in/hr0.0 mm/hr 0.71 in18.0 mm
01:13 PM 67.3°F19.6°C 61.6°F16.4°C 82% 9.2 mph WSW14.8 kmh WSW 19.0 mph30.6 kmh 29.48 in998.3 mb 0.00 in0.0 mm 0.00 in/hr0.0 mm/hr 0.71 in18.0 mm
01:14 PM 67.5°F19.7°C 61.8°F16.6°C 82% 7.6 mph WSW12.2 kmh WSW 19.0 mph30.6 kmh 29.48 in998.3 mb 0.00 in0.0 mm 0.00 in/hr0.0 mm/hr 0.71 in18.0 mm
01:15 PM 67.3°F19.6°C 61.6°F16.4°C 82% 9.2 mph WSW14.8 kmh WSW 19.0 mph30.6 kmh 29.48 in998.3 mb 0.00 in0.0 mm 0.00 in/hr0.0 mm/hr 0.71 in18.0 mm
01:16 PM 67.3°F19.6°C 61.6°F16.4°C 82% 9.2 mph WSW14.8 kmh WSW 19.0 mph30.6 kmh 29.48 in998.3 mb 0.00 in0.0 mm 0.00 in/hr0.0 mm/hr 0.71 in18.0 mm
01:17 PM 67.3°F19.6°C 61.6°F16.4°C 82% 7.6 mph WSW12.2 kmh WSW 19.0 mph30.6 kmh 29.48 in998.3 mb 0.00 in0.0 mm 0.00 in/hr0.0 mm/hr 0.71 in18.0 mm
01:18 PM 67.3°F19.6°C 61.6°F16.4°C 82% 7.6 mph WSW12.2 kmh WSW 19.0 mph30.6 kmh 29.48 in998.3 mb 0.00 in0.0 mm 0.00 in/hr0.0 mm/hr 0.71 in18.0 mm
01:19 PM 67.6°F19.8°C 62.0°F16.7°C 82% 9.8 mph WSW15.8 kmh WSW 19.0 mph30.6 kmh 29.48 in998.3 mb 0.00 in0.0 mm 0.00 in/hr0.0 mm/hr 0.71 in18.0 mm
01:20 PM 67.6°F19.8°C 61.6°F16.4°C 81% 5.4 mph WSW8.7 kmh WSW 17.4 mph28.0 kmh 29.48 in998.3 mb 0.00 in0.0 mm 0.00 in/hr0.0 mm/hr 0.71 in18.0 mm
01:21 PM 68.4°F20.2°C 62.3°F16.8°C 81% 11.4 mph WSW18.3 kmh WSW 17.4 mph28.0 kmh 29.48 in998.3 mb 0.00 in0.0 mm 0.00 in/hr0.0 mm/hr 0.71 in18.0 mm
01:22 PM 68.2°F20.1°C 61.1°F16.2°C 78% 9.2 mph W14.8 kmh W 17.4 mph28.0 kmh 29.48 in998.3 mb 0.00 in0.0 mm 0.00 in/hr0.0 mm/hr 0.71 in18.0 mm
01:23 PM 68.0°F20.0°C 60.9°F16.1°C 78% 6.9 mph WSW11.1 kmh WSW 17.4 mph28.0 kmh 29.48 in998.3 mb 0.00 in0.0 mm 0.00 in/hr0.0 mm/hr 0.71 in18.0 mm
01:24 PM 68.2°F20.1°C 61.1°F16.2°C 78% 5.4 mph W8.7 kmh W 17.4 mph28.0 kmh 29.48 in998.3 mb 0.00 in0.0 mm 0.00 in/hr0.0 mm/hr 0.71 in18.0 mm
01:25 PM 68.9°F20.5°C 62.5°F16.9°C 80% 6.0 mph W9.7 kmh W 17.4 mph28.0 kmh 29.48 in998.3 mb 0.00 in0.0 mm 0.00 in/hr0.0 mm/hr 0.71 in18.0 mm
01:26 PM 68.5°F20.3°C 62.2°F16.8°C 80% 7.6 mph W12.2 kmh W 17.4 mph28.0 kmh 29.48 in998.3 mb 0.00 in0.0 mm 0.00 in/hr0.0 mm/hr 0.71 in18.0 mm
01:27 PM 68.2°F20.1°C 61.1°F16.2°C 78% 9.2 mph W14.8 kmh W 17.4 mph28.0 kmh 29.48 in998.3 mb 0.00 in0.0 mm 0.00 in/hr0.0 mm/hr 0.71 in18.0 mm
01:28 PM 67.8°F19.9°C 61.4°F16.3°C 80% 9.2 mph W14.8 kmh W 17.4 mph28.0 kmh 29.48 in998.3 mb 0.00 in0.0 mm 0.00 in/hr0.0 mm/hr 0.71 in18.0 mm
01:29 PM 67.5°F19.7°C 61.1°F16.2°C 80% 6.9 mph WNW11.1 kmh WNW 17.4 mph28.0 kmh 29.48 in998.3 mb 0.00 in0.0 mm 0.00 in/hr0.0 mm/hr 0.71 in18.0 mm
01:30 PM 68.2°F20.1°C 61.8°F16.6°C 80% 6.0 mph WNW9.7 kmh WNW 17.4 mph28.0 kmh 29.47 in998.0 mb 0.00 in0.0 mm 0.00 in/hr0.0 mm/hr 0.71 in18.0 mm
01:31 PM 68.0°F20.0°C 61.6°F16.4°C 80% 4.5 mph W7.2 kmh W 15.2 mph24.5 kmh 29.47 in998.0 mb 0.00 in0.0 mm 0.00 in/hr0.0 mm/hr 0.71 in18.0 mm
01:32 PM 67.8°F19.9°C 61.8°F16.6°C 81% 6.0 mph WSW9.7 kmh WSW 15.2 mph24.5 kmh 29.48 in998.3 mb 0.00 in0.0 mm 0.00 in/hr0.0 mm/hr 0.71 in18.0 mm
01:33 PM 67.8°F19.9°C 61.8°F16.6°C 81% 5.4 mph WSW8.7 kmh WSW 15.2 mph24.5 kmh 29.47 in998.0 mb 0.00 in0.0 mm 0.00 in/hr0.0 mm/hr 0.71 in18.0 mm
01:34 PM 68.7°F20.4°C 62.3°F16.8°C 80% 6.9 mph WSW11.1 kmh WSW 15.2 mph24.5 kmh 29.47 in998.0 mb 0.00 in0.0 mm 0.00 in/hr0.0 mm/hr 0.71 in18.0 mm
01:35 PM 68.9°F20.5°C 62.5°F16.9°C 80% 7.6 mph WSW12.2 kmh WSW 15.2 mph24.5 kmh 29.47 in998.0 mb 0.00 in0.0 mm 0.00 in/hr0.0 mm/hr 0.71 in18.0 mm
01:36 PM 68.9°F20.5°C 61.8°F16.6°C 78% 6.9 mph SW11.1 kmh SW 17.4 mph28.0 kmh 29.47 in998.0 mb 0.00 in0.0 mm 0.00 in/hr0.0 mm/hr 0.71 in18.0 mm
01:37 PM 69.1°F20.6°C 62.0°F16.7°C 78% 5.4 mph SW8.7 kmh SW 17.4 mph28.0 kmh 29.48 in998.3 mb 0.00 in0.0 mm 0.00 in/hr0.0 mm/hr 0.71 in18.0 mm
01:38 PM 69.3°F20.7°C 61.8°F16.6°C 77% 5.4 mph SW8.7 kmh SW 17.4 mph28.0 kmh 29.47 in998.0 mb 0.00 in0.0 mm 0.00 in/hr0.0 mm/hr 0.71 in18.0 mm
01:39 PM 69.4°F20.8°C 61.9°F16.6°C 77% 3.8 mph SW6.1 kmh SW 17.4 mph28.0 kmh 29.48 in998.3 mb 0.00 in0.0 mm 0.00 in/hr0.0 mm/hr 0.71 in18.0 mm
01:40 PM 69.6°F20.9°C 62.1°F16.7°C 77% 3.8 mph SW6.1 kmh SW 17.4 mph28.0 kmh 29.47 in998.0 mb 0.00 in0.0 mm 0.00 in/hr0.0 mm/hr 0.71 in18.0 mm
01:41 PM 69.8°F21.0°C 61.9°F16.6°C 76% 4.5 mph SW7.2 kmh SW 17.4 mph28.0 kmh 29.47 in998.0 mb 0.00 in0.0 mm 0.00 in/hr0.0 mm/hr 0.71 in18.0 mm
01:42 PM 69.6°F20.9°C 62.1°F16.7°C 77% 7.6 mph SW12.2 kmh SW 17.4 mph28.0 kmh 29.48 in998.3 mb 0.00 in0.0 mm 0.00 in/hr0.0 mm/hr 0.71 in18.0 mm
01:43 PM 69.4°F20.8°C 61.9°F16.6°C 77% 7.6 mph WSW12.2 kmh WSW 17.4 mph28.0 kmh 29.48 in998.3 mb 0.00 in0.0 mm 0.00 in/hr0.0 mm/hr 0.71 in18.0 mm
01:44 PM 69.3°F20.7°C 61.8°F16.6°C 77% 6.0 mph WSW9.7 kmh WSW 17.4 mph28.0 kmh 29.48 in998.3 mb 0.00 in0.0 mm 0.00 in/hr0.0 mm/hr 0.71 in18.0 mm
01:45 PM 69.1°F20.6°C 61.6°F16.4°C 77% 3.1 mph WSW5.0 kmh WSW 17.4 mph28.0 kmh 29.48 in998.3 mb 0.00 in0.0 mm 0.00 in/hr0.0 mm/hr 0.71 in18.0 mm
01:46 PM 70.3°F21.3°C 62.8°F17.1°C 77% 4.5 mph WSW7.2 kmh WSW 15.2 mph24.5 kmh 29.48 in998.3 mb 0.00 in0.0 mm 0.00 in/hr0.0 mm/hr 0.71 in18.0 mm
01:47 PM 70.3°F21.3°C 62.8°F17.1°C 77% 6.0 mph W9.7 kmh W 15.2 mph24.5 kmh 29.48 in998.3 mb 0.00 in0.0 mm 0.00 in/hr0.0 mm/hr 0.71 in18.0 mm
01:48 PM 70.0°F21.1°C 62.1°F16.7°C 76% 6.0 mph W9.7 kmh W 13.6 mph21.9 kmh 29.48 in998.3 mb 0.00 in0.0 mm 0.00 in/hr0.0 mm/hr 0.71 in18.0 mm
01:49 PM 69.4°F20.8°C 61.9°F16.6°C 77% 6.0 mph WNW9.7 kmh WNW 13.6 mph21.9 kmh 29.48 in998.3 mb 0.00 in0.0 mm 0.00 in/hr0.0 mm/hr 0.71 in18.0 mm
01:50 PM 68.9°F20.5°C 61.4°F16.3°C 77% 3.8 mph WNW6.1 kmh WNW 13.6 mph21.9 kmh 29.48 in998.3 mb 0.00 in0.0 mm 0.00 in/hr0.0 mm/hr 0.71 in18.0 mm
01:51 PM 69.4°F20.8°C 62.3°F16.8°C 78% 5.4 mph WNW8.7 kmh WNW 13.6 mph21.9 kmh 29.48 in998.3 mb 0.00 in0.0 mm 0.00 in/hr0.0 mm/hr 0.71 in18.0 mm
01:52 PM 69.3°F20.7°C 62.1°F16.7°C 78% 3.8 mph WNW6.1 kmh WNW 13.6 mph21.9 kmh 29.48 in998.3 mb 0.00 in0.0 mm 0.00 in/hr0.0 mm/hr 0.71 in18.0 mm
01:53 PM 69.8°F21.0°C 62.3°F16.8°C 77% 3.8 mph W6.1 kmh W 13.6 mph21.9 kmh 29.48 in998.3 mb 0.00 in0.0 mm 0.00 in/hr0.0 mm/hr 0.71 in18.0 mm
01:54 PM 70.0°F21.1°C 62.1°F16.7°C 76% 3.8 mph W6.1 kmh W 11.4 mph18.3 kmh 29.48 in998.3 mb 0.00 in0.0 mm 0.00 in/hr0.0 mm/hr 0.71 in18.0 mm
01:55 PM 70.0°F21.1°C 61.7°F16.5°C 75% 5.4 mph W8.7 kmh W 11.4 mph18.3 kmh 29.48 in998.3 mb 0.00 in0.0 mm 0.00 in/hr0.0 mm/hr 0.71 in18.0 mm
01:56 PM 70.2°F21.2°C 61.9°F16.6°C 75% 6.0 mph WSW9.7 kmh WSW 11.4 mph18.3 kmh 29.48 in998.3 mb 0.00 in0.0 mm 0.00 in/hr0.0 mm/hr 0.71 in18.0 mm
01:57 PM 69.6°F20.9°C 61.4°F16.3°C 75% 7.6 mph W12.2 kmh W 11.4 mph18.3 kmh 29.48 in998.3 mb 0.00 in0.0 mm 0.00 in/hr0.0 mm/hr 0.71 in18.0 mm
01:58 PM 69.3°F20.7°C 61.0°F16.1°C 75% 13.0 mph W20.9 kmh W 19.7 mph31.7 kmh 29.48 in998.3 mb 0.00 in0.0 mm 0.00 in/hr0.0 mm/hr 0.71 in18.0 mm
01:59 PM 68.4°F20.2°C 59.4°F15.2°C 73% 8.3 mph WSW13.4 kmh WSW 19.7 mph31.7 kmh 29.48 in998.3 mb 0.00 in0.0 mm 0.00 in/hr0.0 mm/hr 0.71 in18.0 mm
02:00 PM 68.7°F20.4°C 59.7°F15.4°C 73% 9.8 mph WSW15.8 kmh WSW 19.7 mph31.7 kmh 29.48 in998.3 mb 0.00 in0.0 mm 0.00 in/hr0.0 mm/hr 0.71 in18.0 mm
02:01 PM 68.5°F20.3°C 59.6°F15.3°C 73% 6.0 mph WSW9.7 kmh WSW 19.7 mph31.7 kmh 29.48 in998.3 mb 0.00 in0.0 mm 0.00 in/hr0.0 mm/hr 0.71 in18.0 mm
02:02 PM 68.9°F20.5°C 59.9°F15.5°C 73% 5.4 mph WSW8.7 kmh WSW 19.7 mph31.7 kmh 29.48 in998.3 mb 0.00 in0.0 mm 0.00 in/hr0.0 mm/hr 0.71 in18.0 mm
02:03 PM 68.5°F20.3°C 59.6°F15.3°C 73% 9.2 mph WSW14.8 kmh WSW 19.7 mph31.7 kmh 29.48 in998.3 mb 0.00 in0.0 mm 0.00 in/hr0.0 mm/hr 0.71 in18.0 mm
02:04 PM 68.0°F20.0°C 59.0°F15.0°C 73% 3.1 mph WSW5.0 kmh WSW 19.7 mph31.7 kmh 29.48 in998.3 mb 0.00 in0.0 mm 0.00 in/hr0.0 mm/hr 0.71 in18.0 mm
02:05 PM 68.4°F20.2°C 60.2°F15.7°C 75% 8.3 mph W13.4 kmh W 19.7 mph31.7 kmh 29.48 in998.3 mb 0.00 in0.0 mm 0.00 in/hr0.0 mm/hr 0.71 in18.0 mm
02:06 PM 68.2°F20.1°C 60.0°F15.6°C 75% 9.8 mph W15.8 kmh W 19.7 mph31.7 kmh 29.48 in998.3 mb 0.00 in0.0 mm 0.00 in/hr0.0 mm/hr 0.71 in18.0 mm
02:07 PM 67.8°F19.9°C 60.0°F15.6°C 76% 8.3 mph W13.4 kmh W 19.7 mph31.7 kmh 29.48 in998.3 mb 0.00 in0.0 mm 0.00 in/hr0.0 mm/hr 0.71 in18.0 mm
02:08 PM 68.0°F20.0°C 59.8°F15.4°C 75% 6.9 mph W11.1 kmh W 19.7 mph31.7 kmh 29.48 in998.3 mb 0.00 in0.0 mm 0.00 in/hr0.0 mm/hr 0.71 in18.0 mm
02:09 PM 68.2°F20.1°C 60.0°F15.6°C 75% 6.0 mph W9.7 kmh W 15.2 mph24.5 kmh 29.48 in998.3 mb 0.00 in0.0 mm 0.00 in/hr0.0 mm/hr 0.71 in18.0 mm
02:10 PM 68.4°F20.2°C 60.2°F15.7°C 75% 15.2 mph W24.5 kmh W 21.3 mph34.3 kmh 29.48 in998.3 mb 0.00 in0.0 mm 0.00 in/hr0.0 mm/hr 0.71 in18.0 mm
02:11 PM 68.0°F20.0°C 59.8°F15.4°C 75% 6.9 mph WNW11.1 kmh WNW 21.3 mph34.3 kmh 29.48 in998.3 mb 0.00 in0.0 mm 0.00 in/hr0.0 mm/hr 0.71 in18.0 mm
02:12 PM 68.4°F20.2°C 60.2°F15.7°C 75% 10.7 mph W17.2 kmh W 21.3 mph34.3 kmh 29.48 in998.3 mb 0.00 in0.0 mm 0.00 in/hr0.0 mm/hr 0.71 in18.0 mm
02:13 PM 67.6°F19.8°C 59.8°F15.4°C 76% 9.8 mph W15.8 kmh W 21.3 mph34.3 kmh 29.48 in998.3 mb 0.00 in0.0 mm 0.00 in/hr0.0 mm/hr 0.71 in18.0 mm
02:14 PM 67.5°F19.7°C 59.7°F15.4°C 76% 9.2 mph W14.8 kmh W 21.3 mph34.3 kmh 29.48 in998.3 mb 0.00 in0.0 mm 0.00 in/hr0.0 mm/hr 0.71 in18.0 mm
02:15 PM 67.5°F19.7°C 59.7°F15.4°C 76% 9.2 mph W14.8 kmh W 21.3 mph34.3 kmh 29.48 in998.3 mb 0.00 in0.0 mm 0.00 in/hr0.0 mm/hr 0.71 in18.0 mm
02:16 PM 67.8°F19.9°C 60.0°F15.6°C 76% 9.8 mph W15.8 kmh W 21.3 mph34.3 kmh 29.48 in998.3 mb 0.00 in0.0 mm 0.00 in/hr0.0 mm/hr 0.71 in18.0 mm
02:17 PM 68.0°F20.0°C 59.8°F15.4°C 75% 7.6 mph W12.2 kmh W 21.3 mph34.3 kmh 29.48 in998.3 mb 0.00 in0.0 mm 0.00 in/hr0.0 mm/hr 0.71 in18.0 mm
02:18 PM 67.8°F19.9°C 60.4°F15.8°C 77% 8.3 mph W13.4 kmh W 21.3 mph34.3 kmh 29.48 in998.3 mb 0.00 in0.0 mm 0.00 in/hr0.0 mm/hr 0.71 in18.0 mm
02:19 PM 67.8°F19.9°C 60.4°F15.8°C 77% 6.9 mph W11.1 kmh W 21.3 mph34.3 kmh 29.48 in998.3 mb 0.00 in0.0 mm 0.00 in/hr0.0 mm/hr 0.71 in18.0 mm
02:20 PM 68.2°F20.1°C 60.4°F15.8°C 76% 5.4 mph W8.7 kmh W 21.3 mph34.3 kmh 29.48 in998.3 mb 0.00 in0.0 mm 0.00 in/hr0.0 mm/hr 0.71 in18.0 mm
02:21 PM 68.5°F20.3°C 60.7°F15.9°C 76% 5.4 mph W8.7 kmh W 16.8 mph27.0 kmh 29.48 in998.3 mb 0.00 in0.0 mm 0.00 in/hr0.0 mm/hr 0.71 in18.0 mm
02:22 PM 68.4°F20.2°C 60.5°F15.8°C 76% 4.5 mph WSW7.2 kmh WSW 16.8 mph27.0 kmh 29.48 in998.3 mb 0.00 in0.0 mm 0.00 in/hr0.0 mm/hr 0.71 in18.0 mm
02:23 PM 68.4°F20.2°C 60.5°F15.8°C 76% 6.9 mph W11.1 kmh W 15.2 mph24.5 kmh 29.48 in998.3 mb 0.00 in0.0 mm 0.00 in/hr0.0 mm/hr 0.71 in18.0 mm
02:24 PM 68.4°F20.2°C 60.5°F15.8°C 76% 7.6 mph W12.2 kmh W 15.2 mph24.5 kmh 29.48 in998.3 mb 0.00 in0.0 mm 0.00 in/hr0.0 mm/hr 0.71 in18.0 mm
02:25 PM 68.4°F20.2°C 60.5°F15.8°C 76% 5.4 mph W8.7 kmh W 13.6 mph21.9 kmh 29.48 in998.3 mb 0.00 in0.0 mm 0.00 in/hr0.0 mm/hr 0.71 in18.0 mm
02:26 PM 68.9°F20.5°C 61.0°F16.1°C 76% 6.9 mph WSW11.1 kmh WSW 13.6 mph21.9 kmh 29.48 in998.3 mb 0.00 in0.0 mm 0.00 in/hr0.0 mm/hr 0.71 in18.0 mm
02:27 PM 68.7°F20.4°C 60.5°F15.8°C 75% 6.0 mph WSW9.7 kmh WSW 13.6 mph21.9 kmh 29.48 in998.3 mb 0.00 in0.0 mm 0.00 in/hr0.0 mm/hr 0.71 in18.0 mm
02:28 PM 68.9°F20.5°C 60.7°F15.9°C 75% 5.4 mph WSW8.7 kmh WSW 13.6 mph21.9 kmh 29.48 in998.3 mb 0.00 in0.0 mm 0.00 in/hr0.0 mm/hr 0.71 in18.0 mm
02:29 PM 68.9°F20.5°C 60.7°F15.9°C 75% 6.0 mph WSW9.7 kmh WSW 13.6 mph21.9 kmh 29.48 in998.3 mb 0.00 in0.0 mm 0.00 in/hr0.0 mm/hr 0.71 in18.0 mm
02:30 PM 68.5°F20.3°C 60.3°F15.7°C 75% 6.9 mph WSW11.1 kmh WSW 13.6 mph21.9 kmh 29.48 in998.3 mb 0.00 in0.0 mm 0.00 in/hr0.0 mm/hr 0.71 in18.0 mm
02:31 PM 68.9°F20.5°C 60.7°F15.9°C 75% 5.4 mph WSW8.7 kmh WSW 13.6 mph21.9 kmh 29.48 in998.3 mb 0.00 in0.0 mm 0.00 in/hr0.0 mm/hr 0.71 in18.0 mm
02:32 PM 68.7°F20.4°C 60.5°F15.8°C 75% 4.5 mph WSW7.2 kmh WSW 13.6 mph21.9 kmh 29.48 in998.3 mb 0.00 in0.0 mm 0.00 in/hr0.0 mm/hr 0.71 in18.0 mm
02:33 PM 68.9°F20.5°C 60.7°F15.9°C 75% 4.5 mph WSW7.2 kmh WSW 13.6 mph21.9 kmh 29.48 in998.3 mb 0.00 in0.0 mm 0.00 in/hr0.0 mm/hr 0.71 in18.0 mm
02:34 PM 68.7°F20.4°C 60.5°F15.8°C 75% 4.5 mph WSW7.2 kmh WSW 13.0 mph20.9 kmh 29.47 in998.0 mb 0.00 in0.0 mm 0.00 in/hr0.0 mm/hr 0.71 in18.0 mm
02:35 PM 68.9°F20.5°C 60.7°F15.9°C 75% 7.6 mph W12.2 kmh W 13.0 mph20.9 kmh 29.48 in998.3 mb 0.00 in0.0 mm 0.00 in/hr0.0 mm/hr 0.71 in18.0 mm
02:36 PM 68.7°F20.4°C 60.5°F15.8°C 75% 10.7 mph WSW17.2 kmh WSW 13.0 mph20.9 kmh 29.48 in998.3 mb 0.00 in0.0 mm 0.00 in/hr0.0 mm/hr 0.71 in18.0 mm
02:37 PM 68.5°F20.3°C 60.3°F15.7°C 75% 6.0 mph W9.7 kmh W 13.0 mph20.9 kmh 29.48 in998.3 mb 0.00 in0.0 mm 0.00 in/hr0.0 mm/hr 0.71 in18.0 mm
02:38 PM 69.3°F20.7°C 61.0°F16.1°C 75% 5.4 mph W8.7 kmh W 13.0 mph20.9 kmh 29.48 in998.3 mb 0.00 in0.0 mm 0.00 in/hr0.0 mm/hr 0.71 in18.0 mm
02:39 PM 68.7°F20.4°C 60.5°F15.8°C 75% 4.5 mph W7.2 kmh W 13.0 mph20.9 kmh 29.48 in998.3 mb 0.00 in0.0 mm 0.00 in/hr0.0 mm/hr 0.71 in18.0 mm
02:40 PM 69.3°F20.7°C 60.3°F15.7°C 73% 6.0 mph W9.7 kmh W 13.0 mph20.9 kmh 29.48 in998.3 mb 0.00 in0.0 mm 0.00 in/hr0.0 mm/hr 0.71 in18.0 mm
02:41 PM 69.1°F20.6°C 60.1°F15.6°C 73% 3.1 mph W5.0 kmh W 13.0 mph20.9 kmh 29.48 in998.3 mb 0.00 in0.0 mm 0.00 in/hr0.0 mm/hr 0.71 in18.0 mm
02:42 PM 69.1°F20.6°C 60.8°F16.0°C 75% 2.2 mph W3.5 kmh W 13.0 mph20.9 kmh 29.48 in998.3 mb 0.00 in0.0 mm 0.00 in/hr0.0 mm/hr 0.71 in18.0 mm
02:43 PM 69.8°F21.0°C 60.8°F16.0°C 73% 1.6 mph W2.6 kmh W 13.0 mph20.9 kmh 29.48 in998.3 mb 0.00 in0.0 mm 0.00 in/hr0.0 mm/hr 0.71 in18.0 mm
02:44 PM 70.3°F21.3°C 61.3°F16.3°C 73% 2.2 mph W3.5 kmh W 13.0 mph20.9 kmh 29.48 in998.3 mb 0.00 in0.0 mm 0.00 in/hr0.0 mm/hr 0.71 in18.0 mm
02:45 PM 70.3°F21.3°C 61.3°F16.3°C 73% 3.1 mph WSW5.0 kmh WSW 13.0 mph20.9 kmh 29.48 in998.3 mb 0.00 in0.0 mm 0.00 in/hr0.0 mm/hr 0.71 in18.0 mm
02:46 PM 70.3°F21.3°C 61.3°F16.3°C 73% 4.5 mph WSW7.2 kmh WSW 10.7 mph17.2 kmh 29.48 in998.3 mb 0.00 in0.0 mm 0.00 in/hr0.0 mm/hr 0.71 in18.0 mm
02:47 PM 69.6°F20.9°C 60.6°F15.9°C 73% 5.4 mph WSW8.7 kmh WSW 10.7 mph17.2 kmh 29.48 in998.3 mb 0.00 in0.0 mm 0.00 in/hr0.0 mm/hr 0.71 in18.0 mm
02:48 PM 69.4°F20.8°C 60.4°F15.8°C 73% 4.5 mph WSW7.2 kmh WSW 10.7 mph17.2 kmh 29.48 in998.3 mb 0.00 in0.0 mm 0.00 in/hr0.0 mm/hr 0.71 in18.0 mm
02:49 PM 69.6°F20.9°C 60.6°F15.9°C 73% 6.0 mph WSW9.7 kmh WSW 13.0 mph20.9 kmh 29.48 in998.3 mb 0.00 in0.0 mm 0.00 in/hr0.0 mm/hr 0.71 in18.0 mm
02:50 PM 69.4°F20.8°C 60.4°F15.8°C 73% 4.5 mph WSW7.2 kmh WSW 13.0 mph20.9 kmh 29.48 in998.3 mb 0.00 in0.0 mm 0.00 in/hr0.0 mm/hr 0.71 in18.0 mm
02:51 PM 69.4°F20.8°C 60.4°F15.8°C 73% 4.5 mph WSW7.2 kmh WSW 13.0 mph20.9 kmh 29.48 in998.3 mb 0.00 in0.0 mm 0.00 in/hr0.0 mm/hr 0.71 in18.0 mm
02:52 PM 69.4°F20.8°C 60.4°F15.8°C 73% 5.4 mph WSW8.7 kmh WSW 13.0 mph20.9 kmh 29.48 in998.3 mb 0.00 in0.0 mm 0.00 in/hr0.0 mm/hr 0.71 in18.0 mm
02:53 PM 69.1°F20.6°C 60.1°F15.6°C 73% 3.1 mph WSW5.0 kmh WSW 13.0 mph20.9 kmh 29.48 in998.3 mb 0.00 in0.0 mm 0.00 in/hr0.0 mm/hr 0.71 in18.0 mm
02:54 PM 69.1°F20.6°C 60.8°F16.0°C 75% 5.4 mph WSW8.7 kmh WSW 13.0 mph20.9 kmh 29.48 in998.3 mb 0.00 in0.0 mm 0.00 in/hr0.0 mm/hr 0.71 in18.0 mm
02:55 PM 69.1°F20.6°C 60.8°F16.0°C 75% 4.5 mph WSW7.2 kmh WSW 13.0 mph20.9 kmh 29.48 in998.3 mb 0.00 in0.0 mm 0.00 in/hr0.0 mm/hr 0.71 in18.0 mm
02:56 PM 69.1°F20.6°C 61.2°F16.2°C 76% 6.0 mph WSW9.7 kmh WSW 13.0 mph20.9 kmh 29.48 in998.3 mb 0.00 in0.0 mm 0.00 in/hr0.0 mm/hr 0.71 in18.0 mm
02:57 PM 68.9°F20.5°C 61.0°F16.1°C 76% 6.0 mph WSW9.7 kmh WSW 13.0 mph20.9 kmh 29.48 in998.3 mb 0.00 in0.0 mm 0.00 in/hr0.0 mm/hr 0.71 in18.0 mm
02:58 PM 69.1°F20.6°C 61.2°F16.2°C 76% 4.5 mph WSW7.2 kmh WSW 13.0 mph20.9 kmh 29.48 in998.3 mb 0.00 in0.0 mm 0.00 in/hr0.0 mm/hr 0.71 in18.0 mm
02:59 PM 69.1°F20.6°C 61.2°F16.2°C 76% 4.5 mph WSW7.2 kmh WSW 10.7 mph17.2 kmh 29.48 in998.3 mb 0.00 in0.0 mm 0.00 in/hr0.0 mm/hr 0.71 in18.0 mm
03:00 PM 69.3°F20.7°C 61.4°F16.3°C 76% 6.0 mph WSW9.7 kmh WSW 11.4 mph18.3 kmh 29.49 in998.6 mb 0.00 in0.0 mm 0.00 in/hr0.0 mm/hr 0.71 in18.0 mm
03:01 PM 69.3°F20.7°C 61.0°F16.1°C 75% 5.4 mph WSW8.7 kmh WSW 11.4 mph18.3 kmh 29.48 in998.3 mb 0.00 in0.0 mm 0.00 in/hr0.0 mm/hr 0.71 in18.0 mm
03:02 PM 68.9°F20.5°C 59.9°F15.5°C 73% 5.4 mph WSW8.7 kmh WSW 11.4 mph18.3 kmh 29.48 in998.3 mb 0.00 in0.0 mm 0.00 in/hr0.0 mm/hr 0.71 in18.0 mm
03:03 PM 69.1°F20.6°C 60.1°F15.6°C 73% 6.9 mph WSW11.1 kmh WSW 13.6 mph21.9 kmh 29.49 in998.6 mb 0.00 in0.0 mm 0.00 in/hr0.0 mm/hr 0.71 in18.0 mm
03:04 PM 68.9°F20.5°C 59.5°F15.3°C 72% 6.9 mph WSW11.1 kmh WSW 13.6 mph21.9 kmh 29.49 in998.6 mb 0.00 in0.0 mm 0.00 in/hr0.0 mm/hr 0.71 in18.0 mm
03:05 PM 68.9°F20.5°C 59.5°F15.3°C 72% 6.9 mph WSW11.1 kmh WSW 13.6 mph21.9 kmh 29.48 in998.3 mb 0.00 in0.0 mm 0.00 in/hr0.0 mm/hr 0.71 in18.0 mm
03:06 PM 68.9°F20.5°C 59.1°F15.1°C 71% 4.5 mph WSW7.2 kmh WSW 13.6 mph21.9 kmh 29.48 in998.3 mb 0.00 in0.0 mm 0.00 in/hr0.0 mm/hr 0.71 in18.0 mm
03:07 PM 69.3°F20.7°C 59.5°F15.3°C 71% 2.2 mph WSW3.5 kmh WSW 13.6 mph21.9 kmh 29.49 in998.6 mb 0.00 in0.0 mm 0.00 in/hr0.0 mm/hr 0.71 in18.0 mm
03:08 PM 69.8°F21.0°C 59.6°F15.3°C 70% 3.8 mph WSW6.1 kmh WSW 13.6 mph21.9 kmh 29.49 in998.6 mb 0.00 in0.0 mm 0.00 in/hr0.0 mm/hr 0.71 in18.0 mm
03:09 PM 69.6°F20.9°C 59.8°F15.4°C 71% 3.8 mph WSW6.1 kmh WSW 13.6 mph21.9 kmh 29.49 in998.6 mb 0.00 in0.0 mm 0.00 in/hr0.0 mm/hr 0.71 in18.0 mm
03:10 PM 69.6°F20.9°C 59.8°F15.4°C 71% 5.4 mph WSW8.7 kmh WSW 13.6 mph21.9 kmh 29.49 in998.6 mb 0.00 in0.0 mm 0.00 in/hr0.0 mm/hr 0.71 in18.0 mm
03:11 PM 69.4°F20.8°C 59.7°F15.4°C 71% 6.0 mph WSW9.7 kmh WSW 13.6 mph21.9 kmh 29.49 in998.6 mb 0.00 in0.0 mm 0.00 in/hr0.0 mm/hr 0.71 in18.0 mm
03:12 PM 69.3°F20.7°C 59.5°F15.3°C 71% 6.9 mph WSW11.1 kmh WSW 13.6 mph21.9 kmh 29.49 in998.6 mb 0.00 in0.0 mm 0.00 in/hr0.0 mm/hr 0.71 in18.0 mm
03:13 PM 69.1°F20.6°C 59.3°F15.2°C 71% 7.6 mph WSW12.2 kmh WSW 13.6 mph21.9 kmh 29.49 in998.6 mb 0.00 in0.0 mm 0.00 in/hr0.0 mm/hr 0.71 in18.0 mm
03:14 PM 69.1°F20.6°C 59.3°F15.2°C 71% 3.8 mph WSW6.1 kmh WSW 13.6 mph21.9 kmh 29.50 in999.0 mb 0.00 in0.0 mm 0.00 in/hr0.0 mm/hr 0.71 in18.0 mm
03:15 PM 69.3°F20.7°C 59.5°F15.3°C 71% 5.4 mph W8.7 kmh W 13.6 mph21.9 kmh 29.49 in998.6 mb 0.00 in0.0 mm 0.00 in/hr0.0 mm/hr 0.71 in18.0 mm
03:16 PM 69.3°F20.7°C 59.5°F15.3°C 71% 4.5 mph W7.2 kmh W 13.0 mph20.9 kmh 29.50 in999.0 mb 0.00 in0.0 mm 0.00 in/hr0.0 mm/hr 0.71 in18.0 mm
03:17 PM 69.1°F20.6°C 59.3°F15.2°C 71% 6.0 mph W9.7 kmh W 13.0 mph20.9 kmh 29.49 in998.6 mb 0.00 in0.0 mm 0.00 in/hr0.0 mm/hr 0.71 in18.0 mm
03:18 PM 68.9°F20.5°C 58.7°F14.8°C 70% 2.2 mph W3.5 kmh W 13.0 mph20.9 kmh 29.50 in999.0 mb 0.00 in0.0 mm 0.00 in/hr0.0 mm/hr 0.71 in18.0 mm
03:19 PM 69.3°F20.7°C 59.5°F15.3°C 71% 9.2 mph W14.8 kmh W 13.0 mph20.9 kmh 29.50 in999.0 mb 0.00 in0.0 mm 0.00 in/hr0.0 mm/hr 0.71 in18.0 mm
03:20 PM 68.9°F20.5°C 58.7°F14.8°C 70% 6.9 mph W11.1 kmh W 13.0 mph20.9 kmh 29.50 in999.0 mb 0.00 in0.0 mm 0.00 in/hr0.0 mm/hr 0.71 in18.0 mm
03:21 PM 68.7°F20.4°C 58.6°F14.8°C 70% 6.9 mph W11.1 kmh W 13.0 mph20.9 kmh 29.50 in999.0 mb 0.00 in0.0 mm 0.00 in/hr0.0 mm/hr 0.71 in18.0 mm
03:22 PM 69.1°F20.6°C 58.9°F14.9°C 70% 7.6 mph W12.2 kmh W 13.0 mph20.9 kmh 29.50 in999.0 mb 0.00 in0.0 mm 0.00 in/hr0.0 mm/hr 0.71 in18.0 mm
03:23 PM 68.7°F20.4°C 58.6°F14.8°C 70% 4.5 mph W7.2 kmh W 13.0 mph20.9 kmh 29.50 in999.0 mb 0.00 in0.0 mm 0.00 in/hr0.0 mm/hr 0.71 in18.0 mm
03:24 PM 69.1°F20.6°C 58.9°F14.9°C 70% 7.6 mph W12.2 kmh W 14.5 mph23.3 kmh 29.50 in999.0 mb 0.00 in0.0 mm 0.00 in/hr0.0 mm/hr 0.71 in18.0 mm
03:25 PM 68.9°F20.5°C 58.7°F14.8°C 70% 6.9 mph W11.1 kmh W 14.5 mph23.3 kmh 29.50 in999.0 mb 0.00 in0.0 mm 0.00 in/hr0.0 mm/hr 0.71 in18.0 mm
03:26 PM 69.3°F20.7°C 59.1°F15.1°C 70% 4.5 mph W7.2 kmh W 14.5 mph23.3 kmh 29.50 in999.0 mb 0.00 in0.0 mm 0.00 in/hr0.0 mm/hr 0.71 in18.0 mm
03:27 PM 69.1°F20.6°C 58.9°F14.9°C 70% 7.6 mph WSW12.2 kmh WSW 14.5 mph23.3 kmh 29.50 in999.0 mb 0.00 in0.0 mm 0.00 in/hr0.0 mm/hr 0.71 in18.0 mm
03:28 PM 68.9°F20.5°C 58.7°F14.8°C 70% 9.8 mph WSW15.8 kmh WSW 14.5 mph23.3 kmh 29.50 in999.0 mb 0.00 in0.0 mm 0.00 in/hr0.0 mm/hr 0.71 in18.0 mm
03:29 PM 68.9°F20.5°C 58.7°F14.8°C 70% 4.5 mph WSW7.2 kmh WSW 14.5 mph23.3 kmh 29.51 in999.3 mb 0.00 in0.0 mm 0.00 in/hr0.0 mm/hr 0.71 in18.0 mm
03:30 PM 69.1°F20.6°C 58.9°F14.9°C 70% 9.2 mph WSW14.8 kmh WSW 14.5 mph23.3 kmh 29.51 in999.3 mb 0.00 in0.0 mm 0.00 in/hr0.0 mm/hr 0.71 in18.0 mm
03:31 PM 69.1°F20.6°C 58.9°F14.9°C 70% 9.2 mph WSW14.8 kmh WSW 14.5 mph23.3 kmh 29.51 in999.3 mb 0.00 in0.0 mm 0.00 in/hr0.0 mm/hr 0.71 in18.0 mm
03:32 PM 68.9°F20.5°C 57.9°F14.4°C 68% 5.4 mph WSW8.7 kmh WSW 14.5 mph23.3 kmh 29.51 in999.3 mb 0.00 in0.0 mm 0.00 in/hr0.0 mm/hr 0.71 in18.0 mm
03:33 PM 69.1°F20.6°C 58.1°F14.5°C 68% 9.8 mph WSW15.8 kmh WSW 14.5 mph23.3 kmh 29.51 in999.3 mb 0.00 in0.0 mm 0.00 in/hr0.0 mm/hr 0.71 in18.0 mm
03:34 PM 68.7°F20.4°C 57.8°F14.3°C 68% 6.0 mph WSW9.7 kmh WSW 14.5 mph23.3 kmh 29.51 in999.3 mb 0.00 in0.0 mm 0.00 in/hr0.0 mm/hr 0.71 in18.0 mm
03:35 PM 68.9°F20.5°C 57.9°F14.4°C 68% 7.6 mph WSW12.2 kmh WSW 14.5 mph23.3 kmh 29.51 in999.3 mb 0.00 in0.0 mm 0.00 in/hr0.0 mm/hr 0.71 in18.0 mm
03:36 PM 68.9°F20.5°C 57.9°F14.4°C 68% 7.6 mph WSW12.2 kmh WSW 14.5 mph23.3 kmh 29.51 in999.3 mb 0.00 in0.0 mm 0.00 in/hr0.0 mm/hr 0.71 in18.0 mm
03:37 PM 68.9°F20.5°C 57.9°F14.4°C 68% 5.4 mph WSW8.7 kmh WSW 15.2 mph24.5 kmh 29.51 in999.3 mb 0.00 in0.0 mm 0.00 in/hr0.0 mm/hr 0.71 in18.0 mm
03:38 PM 68.9°F20.5°C 57.9°F14.4°C 68% 5.4 mph WSW8.7 kmh WSW 15.2 mph24.5 kmh 29.51 in999.3 mb 0.00 in0.0 mm 0.00 in/hr0.0 mm/hr 0.71 in18.0 mm
03:39 PM 68.7°F20.4°C 57.8°F14.3°C 68% 3.1 mph WSW5.0 kmh WSW 15.2 mph24.5 kmh 29.51 in999.3 mb 0.00 in0.0 mm 0.00 in/hr0.0 mm/hr 0.71 in18.0 mm
03:40 PM 69.1°F20.6°C 58.1°F14.5°C 68% 5.4 mph WSW8.7 kmh WSW 15.2 mph24.5 kmh 29.51 in999.3 mb 0.00 in0.0 mm 0.00 in/hr0.0 mm/hr 0.71 in18.0 mm
03:41 PM 68.9°F20.5°C 57.9°F14.4°C 68% 3.8 mph WSW6.1 kmh WSW 15.2 mph24.5 kmh 29.51 in999.3 mb 0.00 in0.0 mm 0.00 in/hr0.0 mm/hr 0.71 in18.0 mm
03:42 PM 69.1°F20.6°C 58.1°F14.5°C 68% 6.0 mph WSW9.7 kmh WSW 15.2 mph24.5 kmh 29.51 in999.3 mb 0.00 in0.0 mm 0.00 in/hr0.0 mm/hr 0.71 in18.0 mm
03:43 PM 68.9°F20.5°C 57.9°F14.4°C 68% 3.8 mph WSW6.1 kmh WSW 15.2 mph24.5 kmh 29.52 in999.7 mb 0.00 in0.0 mm 0.00 in/hr0.0 mm/hr 0.71 in18.0 mm
03:44 PM 68.9°F20.5°C 57.9°F14.4°C 68% 7.6 mph WSW12.2 kmh WSW 15.2 mph24.5 kmh 29.52 in999.7 mb 0.00 in0.0 mm 0.00 in/hr0.0 mm/hr 0.71 in18.0 mm
03:45 PM 68.9°F20.5°C 57.9°F14.4°C 68% 3.8 mph WSW6.1 kmh WSW 15.2 mph24.5 kmh 29.52 in999.7 mb 0.00 in0.0 mm 0.00 in/hr0.0 mm/hr 0.71 in18.0 mm
03:46 PM 69.1°F20.6°C 58.9°F14.9°C 70% 4.5 mph WSW7.2 kmh WSW 15.2 mph24.5 kmh 29.52 in999.7 mb 0.00 in0.0 mm 0.00 in/hr0.0 mm/hr 0.71 in18.0 mm
03:47 PM 68.9°F20.5°C 58.7°F14.8°C 70% 3.8 mph WSW6.1 kmh WSW 11.4 mph18.3 kmh 29.52 in999.7 mb 0.00 in0.0 mm 0.00 in/hr0.0 mm/hr 0.71 in18.0 mm
03:48 PM 68.9°F20.5°C 58.7°F14.8°C 70% 6.9 mph WSW11.1 kmh WSW 13.0 mph20.9 kmh 29.52 in999.7 mb 0.00 in0.0 mm 0.00 in/hr0.0 mm/hr 0.71 in18.0 mm
03:49 PM 68.7°F20.4°C 58.6°F14.8°C 70% 6.9 mph WSW11.1 kmh WSW 13.0 mph20.9 kmh 29.52 in999.7 mb 0.00 in0.0 mm 0.00 in/hr0.0 mm/hr 0.71 in18.0 mm
03:50 PM 68.5°F20.3°C 58.4°F14.7°C 70% 5.4 mph WSW8.7 kmh WSW 13.0 mph20.9 kmh 29.52 in999.7 mb 0.00 in0.0 mm 0.00 in/hr0.0 mm/hr 0.71 in18.0 mm
03:51 PM 68.5°F20.3°C 58.4°F14.7°C 70% 6.0 mph WSW9.7 kmh WSW 13.0 mph20.9 kmh 29.52 in999.7 mb 0.00 in0.0 mm 0.00 in/hr0.0 mm/hr 0.71 in18.0 mm
03:52 PM 68.7°F20.4°C 57.8°F14.3°C 68% 6.0 mph W9.7 kmh W 13.0 mph20.9 kmh 29.52 in999.7 mb 0.00 in0.0 mm 0.00 in/hr0.0 mm/hr 0.71 in18.0 mm
03:53 PM 68.7°F20.4°C 58.6°F14.8°C 70% Calm Calm 13.0 mph20.9 kmh 29.52 in999.7 mb 0.00 in0.0 mm 0.00 in/hr0.0 mm/hr 0.71 in18.0 mm
03:54 PM 69.1°F20.6°C 58.9°F14.9°C 70% 2.2 mph WSW3.5 kmh WSW 13.0 mph20.9 kmh 29.52 in999.7 mb 0.00 in0.0 mm 0.00 in/hr0.0 mm/hr 0.71 in18.0 mm
03:55 PM 68.9°F20.5°C 58.7°F14.8°C 70% 2.2 mph WSW3.5 kmh WSW 13.0 mph20.9 kmh 29.52 in999.7 mb 0.00 in0.0 mm 0.00 in/hr0.0 mm/hr 0.71 in18.0 mm
03:56 PM 68.5°F20.3°C 58.8°F14.9°C 71% 2.2 mph WSW3.5 kmh WSW 13.0 mph20.9 kmh 29.52 in999.7 mb 0.00 in0.0 mm 0.00 in/hr0.0 mm/hr 0.71 in18.0 mm
03:57 PM 68.4°F20.2°C 59.0°F15.0°C 72% 3.1 mph WSW5.0 kmh WSW 13.0 mph20.9 kmh 29.52 in999.7 mb 0.00 in0.0 mm 0.00 in/hr0.0 mm/hr 0.71 in18.0 mm
03:58 PM 67.8°F19.9°C 58.9°F14.9°C 73% 3.1 mph WSW5.0 kmh WSW 11.4 mph18.3 kmh 29.52 in999.7 mb 0.00 in0.0 mm 0.00 in/hr0.0 mm/hr 0.71 in18.0 mm
03:59 PM 67.8°F19.9°C 59.6°F15.3°C 75% 1.6 mph WSW2.6 kmh WSW 11.4 mph18.3 kmh 29.52 in999.7 mb 0.00 in0.0 mm 0.00 in/hr0.0 mm/hr 0.71 in18.0 mm
04:00 PM 68.0°F20.0°C 59.0°F15.0°C 73% 3.8 mph WSW6.1 kmh WSW 11.4 mph18.3 kmh 29.52 in999.7 mb 0.00 in0.0 mm 0.00 in/hr0.0 mm/hr 0.71 in18.0 mm
04:01 PM 67.3°F19.6°C 59.5°F15.3°C 76% 2.2 mph WSW3.5 kmh WSW 11.4 mph18.3 kmh 29.52 in999.7 mb 0.00 in0.0 mm 0.00 in/hr0.0 mm/hr 0.71 in18.0 mm
04:02 PM 67.5°F19.7°C 59.7°F15.4°C 76% 3.1 mph SW5.0 kmh SW 6.9 mph11.1 kmh 29.52 in999.7 mb 0.00 in0.0 mm 0.00 in/hr0.0 mm/hr 0.71 in18.0 mm
04:03 PM 67.3°F19.6°C 59.8°F15.4°C 77% 2.2 mph WSW3.5 kmh WSW 6.9 mph11.1 kmh 29.52 in999.7 mb 0.00 in0.0 mm 0.00 in/hr0.0 mm/hr 0.71 in18.0 mm
04:04 PM 67.3°F19.6°C 59.8°F15.4°C 77% 3.8 mph WSW6.1 kmh WSW 6.9 mph11.1 kmh 29.53 in1000.0 mb 0.00 in0.0 mm 0.00 in/hr0.0 mm/hr 0.71 in18.0 mm
04:05 PM 67.3°F19.6°C 59.8°F15.4°C 77% 1.6 mph WSW2.6 kmh WSW 6.9 mph11.1 kmh 29.52 in999.7 mb 0.00 in0.0 mm 0.00 in/hr0.0 mm/hr 0.71 in18.0 mm
04:06 PM 67.3°F19.6°C 60.2°F15.7°C 78% 2.2 mph WSW3.5 kmh WSW 6.9 mph11.1 kmh 29.52 in999.7 mb 0.00 in0.0 mm 0.00 in/hr0.0 mm/hr 0.71 in18.0 mm
04:07 PM 67.1°F19.5°C 60.0°F15.6°C 78% 2.2 mph WSW3.5 kmh WSW 6.9 mph11.1 kmh 29.52 in999.7 mb 0.00 in0.0 mm 0.00 in/hr0.0 mm/hr 0.71 in18.0 mm
04:08 PM 67.1°F19.5°C 60.0°F15.6°C 78% 2.2 mph WSW3.5 kmh WSW 6.9 mph11.1 kmh 29.52 in999.7 mb 0.00 in0.0 mm 0.00 in/hr0.0 mm/hr 0.71 in18.0 mm
04:09 PM 66.7°F19.3°C 59.7°F15.4°C 78% 4.5 mph WSW7.2 kmh WSW 9.2 mph14.8 kmh 29.52 in999.7 mb 0.00 in0.0 mm 0.00 in/hr0.0 mm/hr 0.71 in18.0 mm
04:10 PM 66.7°F19.3°C 59.7°F15.4°C 78% 3.1 mph WSW5.0 kmh WSW 9.2 mph14.8 kmh 29.52 in999.7 mb 0.00 in0.0 mm 0.00 in/hr0.0 mm/hr 0.71 in18.0 mm
04:11 PM 66.7°F19.3°C 59.7°F15.4°C 78% 3.1 mph W5.0 kmh W 9.2 mph14.8 kmh 29.53 in1000.0 mb 0.00 in0.0 mm 0.00 in/hr0.0 mm/hr 0.71 in18.0 mm
04:12 PM 66.7°F19.3°C 59.7°F15.4°C 78% 3.1 mph W5.0 kmh W 9.2 mph14.8 kmh 29.52 in999.7 mb 0.00 in0.0 mm 0.00 in/hr0.0 mm/hr 0.71 in18.0 mm
04:13 PM 66.4°F19.1°C 60.0°F15.6°C 80% 3.1 mph W5.0 kmh W 9.2 mph14.8 kmh 29.53 in1000.0 mb 0.00 in0.0 mm 0.00 in/hr0.0 mm/hr 0.71 in18.0 mm
04:14 PM 66.0°F18.9°C 60.0°F15.6°C 81% 1.6 mph W2.6 kmh W 9.2 mph14.8 kmh 29.53 in1000.0 mb 0.00 in0.0 mm 0.00 in/hr0.0 mm/hr 0.71 in18.0 mm
04:15 PM 66.2°F19.0°C 59.9°F15.5°C 80% 2.2 mph W3.5 kmh W 9.2 mph14.8 kmh 29.53 in1000.0 mb 0.00 in0.0 mm 0.00 in/hr0.0 mm/hr 0.71 in18.0 mm
04:16 PM 65.8°F18.8°C 59.9°F15.5°C 81% 3.8 mph W6.1 kmh W 9.2 mph14.8 kmh 29.53 in1000.0 mb 0.00 in0.0 mm 0.00 in/hr0.0 mm/hr 0.71 in18.0 mm
04:17 PM 65.5°F18.6°C 59.9°F15.5°C 82% 2.2 mph W3.5 kmh W 9.2 mph14.8 kmh 29.53 in1000.0 mb 0.00 in0.0 mm 0.00 in/hr0.0 mm/hr 0.71 in18.0 mm
04:18 PM 65.5°F18.6°C 60.2°F15.7°C 83% 2.2 mph W3.5 kmh W 9.2 mph14.8 kmh 29.53 in1000.0 mb 0.00 in0.0 mm 0.00 in/hr0.0 mm/hr 0.71 in18.0 mm
04:19 PM 65.3°F18.5°C 60.0°F15.6°C 83% 6.0 mph W9.7 kmh W 9.8 mph15.8 kmh 29.53 in1000.0 mb 0.00 in0.0 mm 0.00 in/hr0.0 mm/hr 0.71 in18.0 mm
04:20 PM 65.3°F18.5°C 60.0°F15.6°C 83% 4.5 mph WSW7.2 kmh WSW 9.8 mph15.8 kmh 29.53 in1000.0 mb 0.00 in0.0 mm 0.00 in/hr0.0 mm/hr 0.71 in18.0 mm
04:21 PM 65.3°F18.5°C 60.0°F15.6°C 83% 3.1 mph W5.0 kmh W 9.8 mph15.8 kmh 29.53 in1000.0 mb 0.00 in0.0 mm 0.00 in/hr0.0 mm/hr 0.71 in18.0 mm
04:22 PM 65.1°F18.4°C 59.8°F15.4°C 83% 3.8 mph WSW6.1 kmh WSW 9.8 mph15.8 kmh 29.53 in1000.0 mb 0.00 in0.0 mm 0.00 in/hr0.0 mm/hr 0.71 in18.0 mm
04:23 PM 65.3°F18.5°C 60.0°F15.6°C 83% 6.9 mph WSW11.1 kmh WSW 9.8 mph15.8 kmh 29.53 in1000.0 mb 0.00 in0.0 mm 0.00 in/hr0.0 mm/hr 0.71 in18.0 mm
04:24 PM 65.3°F18.5°C 60.7°F15.9°C 85% 4.5 mph WSW7.2 kmh WSW 9.8 mph15.8 kmh 29.53 in1000.0 mb 0.00 in0.0 mm 0.00 in/hr0.0 mm/hr 0.71 in18.0 mm
04:25 PM 65.3°F18.5°C 60.7°F15.9°C 85% 3.1 mph WSW5.0 kmh WSW 9.8 mph15.8 kmh 29.53 in1000.0 mb 0.00 in0.0 mm 0.00 in/hr0.0 mm/hr 0.71 in18.0 mm
04:26 PM 65.1°F18.4°C 60.5°F15.8°C 85% 3.1 mph WSW5.0 kmh WSW 9.8 mph15.8 kmh 29.53 in1000.0 mb 0.00 in0.0 mm 0.00 in/hr0.0 mm/hr 0.71 in18.0 mm
04:27 PM 64.9°F18.3°C 60.3°F15.7°C 85% 2.2 mph WSW3.5 kmh WSW 9.8 mph15.8 kmh 29.53 in1000.0 mb 0.00 in0.0 mm 0.00 in/hr0.0 mm/hr 0.71 in18.0 mm
04:28 PM 64.8°F18.2°C 60.2°F15.7°C 85% 3.1 mph WSW5.0 kmh WSW 9.8 mph15.8 kmh 29.53 in1000.0 mb 0.00 in0.0 mm 0.00 in/hr0.0 mm/hr 0.71 in18.0 mm
04:29 PM 64.6°F18.1°C 60.0°F15.6°C 85% 3.1 mph WSW5.0 kmh WSW 9.8 mph15.8 kmh 29.53 in1000.0 mb 0.00 in0.0 mm 0.00 in/hr0.0 mm/hr 0.71 in18.0 mm
04:30 PM 64.8°F18.2°C 60.2°F15.7°C 85% 5.4 mph WSW8.7 kmh WSW 9.8 mph15.8 kmh 29.53 in1000.0 mb 0.00 in0.0 mm 0.00 in/hr0.0 mm/hr 0.71 in18.0 mm
04:31 PM 64.8°F18.2°C 60.2°F15.7°C 85% 4.5 mph WSW7.2 kmh WSW 9.8 mph15.8 kmh 29.53 in1000.0 mb 0.00 in0.0 mm 0.00 in/hr0.0 mm/hr 0.71 in18.0 mm
04:32 PM 64.8°F18.2°C 60.2°F15.7°C 85% 3.8 mph WSW6.1 kmh WSW 9.8 mph15.8 kmh 29.53 in1000.0 mb 0.00 in0.0 mm 0.00 in/hr0.0 mm/hr 0.71 in18.0 mm
04:33 PM 64.8°F18.2°C 60.2°F15.7°C 85% 2.2 mph WSW3.5 kmh WSW 9.8 mph15.8 kmh 29.53 in1000.0 mb 0.00 in0.0 mm 0.00 in/hr0.0 mm/hr 0.71 in18.0 mm
04:34 PM 64.4°F18.0°C 60.1°F15.6°C 86% 4.5 mph WSW7.2 kmh WSW 9.2 mph14.8 kmh 29.53 in1000.0 mb 0.00 in0.0 mm 0.00 in/hr0.0 mm/hr 0.71 in18.0 mm
04:35 PM 64.6°F18.1°C 60.3°F15.7°C 86% 3.8 mph WSW6.1 kmh WSW 8.3 mph13.4 kmh 29.53 in1000.0 mb 0.00 in0.0 mm 0.00 in/hr0.0 mm/hr 0.71 in18.0 mm
04:36 PM 64.6°F18.1°C 60.3°F15.7°C 86% 3.8 mph WSW6.1 kmh WSW 8.3 mph13.4 kmh 29.53 in1000.0 mb 0.00 in0.0 mm 0.00 in/hr0.0 mm/hr 0.71 in18.0 mm
04:37 PM 64.6°F18.1°C 60.3°F15.7°C 86% 4.5 mph WSW7.2 kmh WSW 8.3 mph13.4 kmh 29.53 in1000.0 mb 0.00 in0.0 mm 0.00 in/hr0.0 mm/hr 0.71 in18.0 mm
04:38 PM 64.6°F18.1°C 60.3°F15.7°C 86% 2.2 mph WSW3.5 kmh WSW 8.3 mph13.4 kmh 29.53 in1000.0 mb 0.00 in0.0 mm 0.00 in/hr0.0 mm/hr 0.71 in18.0 mm
04:39 PM 64.4°F18.0°C 60.1°F15.6°C 86% 3.1 mph WSW5.0 kmh WSW 8.3 mph13.4 kmh 29.53 in1000.0 mb 0.00 in0.0 mm 0.00 in/hr0.0 mm/hr 0.71 in18.0 mm
04:40 PM 64.2°F17.9°C 60.0°F15.6°C 86% 2.2 mph WSW3.5 kmh WSW 8.3 mph13.4 kmh 29.53 in1000.0 mb 0.00 in0.0 mm 0.00 in/hr0.0 mm/hr 0.71 in18.0 mm
04:41 PM 64.0°F17.8°C 59.8°F15.4°C 86% 3.1 mph W5.0 kmh W 7.6 mph12.2 kmh 29.54 in1000.3 mb 0.00 in0.0 mm 0.00 in/hr0.0 mm/hr 0.71 in18.0 mm
04:42 PM 64.2°F17.9°C 60.3°F15.7°C 87% 3.1 mph W5.0 kmh W 7.6 mph12.2 kmh 29.53 in1000.0 mb 0.00 in0.0 mm 0.00 in/hr0.0 mm/hr 0.71 in18.0 mm
04:43 PM 64.0°F17.8°C 60.1°F15.6°C 87% 5.4 mph W8.7 kmh W 7.6 mph12.2 kmh 29.53 in1000.0 mb 0.00 in0.0 mm 0.00 in/hr0.0 mm/hr 0.71 in18.0 mm
04:44 PM 64.2°F17.9°C 60.3°F15.7°C 87% 2.2 mph WSW3.5 kmh WSW 7.6 mph12.2 kmh 29.53 in1000.0 mb 0.00 in0.0 mm 0.00 in/hr0.0 mm/hr 0.71 in18.0 mm
04:45 PM 64.2°F17.9°C 60.3°F15.7°C 87% 3.8 mph WSW6.1 kmh WSW 7.6 mph12.2 kmh 29.54 in1000.3 mb 0.00 in0.0 mm 0.00 in/hr0.0 mm/hr 0.71 in18.0 mm
04:46 PM 64.0°F17.8°C 60.1°F15.6°C 87% 6.9 mph WSW11.1 kmh WSW 12.1 mph19.5 kmh 29.53 in1000.0 mb 0.00 in0.0 mm 0.00 in/hr0.0 mm/hr 0.71 in18.0 mm
04:47 PM 64.0°F17.8°C 60.1°F15.6°C 87% 2.2 mph WSW3.5 kmh WSW 12.1 mph19.5 kmh 29.53 in1000.0 mb 0.00 in0.0 mm 0.00 in/hr0.0 mm/hr 0.71 in18.0 mm
04:48 PM 63.9°F17.7°C 59.9°F15.5°C 87% 3.1 mph WSW5.0 kmh WSW 12.1 mph19.5 kmh 29.54 in1000.3 mb 0.00 in0.0 mm 0.00 in/hr0.0 mm/hr 0.71 in18.0 mm
04:49 PM 63.9°F17.7°C 59.9°F15.5°C 87% 5.4 mph WSW8.7 kmh WSW 12.1 mph19.5 kmh 29.54 in1000.3 mb 0.00 in0.0 mm 0.00 in/hr0.0 mm/hr 0.71 in18.0 mm
04:50 PM 64.0°F17.8°C 60.1°F15.6°C 87% 2.2 mph SW3.5 kmh SW 12.1 mph19.5 kmh 29.54 in1000.3 mb 0.00 in0.0 mm 0.00 in/hr0.0 mm/hr 0.71 in18.0 mm
04:51 PM 63.9°F17.7°C 59.9°F15.5°C 87% 3.1 mph SW5.0 kmh SW 12.1 mph19.5 kmh 29.54 in1000.3 mb 0.00 in0.0 mm 0.00 in/hr0.0 mm/hr 0.71 in18.0 mm
04:52 PM 63.7°F17.6°C 59.8°F15.4°C 87% 3.1 mph SW5.0 kmh SW 12.1 mph19.5 kmh 29.54 in1000.3 mb 0.00 in0.0 mm 0.00 in/hr0.0 mm/hr 0.71 in18.0 mm
04:53 PM 63.7°F17.6°C 59.8°F15.4°C 87% 3.1 mph SW5.0 kmh SW 12.1 mph19.5 kmh 29.53 in1000.0 mb 0.00 in0.0 mm 0.00 in/hr0.0 mm/hr 0.71 in18.0 mm
04:54 PM 63.5°F17.5°C 59.9°F15.5°C 88% 2.2 mph SW3.5 kmh SW 12.1 mph19.5 kmh 29.54 in1000.3 mb 0.00 in0.0 mm 0.00 in/hr0.0 mm/hr 0.71 in18.0 mm
04:55 PM 63.3°F17.4°C 59.7°F15.4°C 88% 3.1 mph SW5.0 kmh SW 12.1 mph19.5 kmh 29.54 in1000.3 mb 0.00 in0.0 mm 0.00 in/hr0.0 mm/hr 0.71 in18.0 mm
04:56 PM 63.5°F17.5°C 59.9°F15.5°C 88% 2.2 mph SW3.5 kmh SW 12.1 mph19.5 kmh 29.54 in1000.3 mb 0.00 in0.0 mm 0.00 in/hr0.0 mm/hr 0.71 in18.0 mm
04:57 PM 63.3°F17.4°C 59.7°F15.4°C 88% 4.5 mph SW7.2 kmh SW 9.2 mph14.8 kmh 29.54 in1000.3 mb 0.00 in0.0 mm 0.00 in/hr0.0 mm/hr 0.71 in18.0 mm
04:58 PM 63.3°F17.4°C 60.4°F15.8°C 90% 2.2 mph SW3.5 kmh SW 9.2 mph14.8 kmh 29.54 in1000.3 mb 0.00 in0.0 mm 0.00 in/hr0.0 mm/hr 0.71 in18.0 mm
04:59 PM 63.3°F17.4°C 60.4°F15.8°C 90% 1.6 mph SW2.6 kmh SW 6.9 mph11.1 kmh 29.54 in1000.3 mb 0.00 in0.0 mm 0.00 in/hr0.0 mm/hr 0.71 in18.0 mm
05:00 PM 63.1°F17.3°C 60.2°F15.7°C 90% 1.6 mph SW2.6 kmh SW 6.9 mph11.1 kmh 29.54 in1000.3 mb 0.00 in0.0 mm 0.00 in/hr0.0 mm/hr 0.71 in18.0 mm
05:01 PM 62.8°F17.1°C 60.1°F15.6°C 91% 3.8 mph SW6.1 kmh SW 6.9 mph11.1 kmh 29.54 in1000.3 mb 0.00 in0.0 mm 0.00 in/hr0.0 mm/hr 0.71 in18.0 mm
05:02 PM 63.0°F17.2°C 60.3°F15.7°C 91% 3.8 mph SW6.1 kmh SW 6.9 mph11.1 kmh 29.54 in1000.3 mb 0.00 in0.0 mm 0.00 in/hr0.0 mm/hr 0.71 in18.0 mm
05:03 PM 63.0°F17.2°C 60.3°F15.7°C 91% 3.8 mph SW6.1 kmh SW 6.9 mph11.1 kmh 29.54 in1000.3 mb 0.00 in0.0 mm 0.00 in/hr0.0 mm/hr 0.71 in18.0 mm
05:04 PM 63.0°F17.2°C 60.3°F15.7°C 91% 2.2 mph SW3.5 kmh SW 6.9 mph11.1 kmh 29.54 in1000.3 mb 0.00 in0.0 mm 0.00 in/hr0.0 mm/hr 0.71 in18.0 mm
05:05 PM 62.8°F17.1°C 60.1°F15.6°C 91% 3.8 mph SW6.1 kmh SW 8.3 mph13.4 kmh 29.54 in1000.3 mb 0.00 in0.0 mm 0.00 in/hr0.0 mm/hr 0.71 in18.0 mm
05:06 PM 62.8°F17.1°C 60.1°F15.6°C 91% 4.5 mph SW7.2 kmh SW 8.3 mph13.4 kmh 29.54 in1000.3 mb 0.00 in0.0 mm 0.00 in/hr0.0 mm/hr 0.71 in18.0 mm
05:07 PM 62.8°F17.1°C 60.1°F15.6°C 91% 1.6 mph WSW2.6 kmh WSW 8.3 mph13.4 kmh 29.54 in1000.3 mb 0.00 in0.0 mm 0.00 in/hr0.0 mm/hr 0.71 in18.0 mm
05:08 PM 62.6°F17.0°C 60.0°F15.6°C 91% 2.2 mph WSW3.5 kmh WSW 8.3 mph13.4 kmh 29.54 in1000.3 mb 0.00 in0.0 mm 0.00 in/hr0.0 mm/hr 0.71 in18.0 mm
05:09 PM 62.6°F17.0°C 60.0°F15.6°C 91% 3.1 mph WSW5.0 kmh WSW 8.3 mph13.4 kmh 29.54 in1000.3 mb 0.00 in0.0 mm 0.00 in/hr0.0 mm/hr 0.71 in18.0 mm
05:10 PM 62.6°F17.0°C 60.3°F15.7°C 92% 3.1 mph WSW5.0 kmh WSW 8.3 mph13.4 kmh 29.54 in1000.3 mb 0.00 in0.0 mm 0.00 in/hr0.0 mm/hr 0.71 in18.0 mm
05:11 PM 62.2°F16.8°C 60.2°F15.7°C 93% 2.2 mph WSW3.5 kmh WSW 8.3 mph13.4 kmh 29.54 in1000.3 mb 0.00 in0.0 mm 0.00 in/hr0.0 mm/hr 0.71 in18.0 mm
05:12 PM 62.2°F16.8°C 60.2°F15.7°C 93% 3.1 mph WSW5.0 kmh WSW 8.3 mph13.4 kmh 29.54 in1000.3 mb 0.00 in0.0 mm 0.00 in/hr0.0 mm/hr 0.71 in18.0 mm
05:13 PM 62.6°F17.0°C 60.3°F15.7°C 92% 3.1 mph WSW5.0 kmh WSW 8.3 mph13.4 kmh 29.54 in1000.3 mb 0.00 in0.0 mm 0.00 in/hr0.0 mm/hr 0.71 in18.0 mm
05:14 PM 62.2°F16.8°C 60.2°F15.7°C 93% 2.2 mph WSW3.5 kmh WSW 8.3 mph13.4 kmh 29.54 in1000.3 mb 0.00 in0.0 mm 0.00 in/hr0.0 mm/hr 0.71 in18.0 mm
05:15 PM 62.2°F16.8°C 60.2°F15.7°C 93% 2.2 mph WSW3.5 kmh WSW 6.9 mph11.1 kmh 29.54 in1000.3 mb 0.00 in0.0 mm 0.00 in/hr0.0 mm/hr 0.71 in18.0 mm
05:16 PM 62.2°F16.8°C 60.2°F15.7°C 93% 3.1 mph WSW5.0 kmh WSW 6.9 mph11.1 kmh 29.54 in1000.3 mb 0.00 in0.0 mm 0.00 in/hr0.0 mm/hr 0.71 in18.0 mm
05:17 PM 62.2°F16.8°C 60.2°F15.7°C 93% 3.1 mph WSW5.0 kmh WSW 6.9 mph11.1 kmh 29.54 in1000.3 mb 0.00 in0.0 mm 0.00 in/hr0.0 mm/hr 0.71 in18.0 mm
05:18 PM 62.4°F16.9°C 60.4°F15.8°C 93% 3.1 mph WSW5.0 kmh WSW 6.9 mph11.1 kmh 29.54 in1000.3 mb 0.00 in0.0 mm 0.00 in/hr0.0 mm/hr 0.71 in18.0 mm
05:19 PM 62.4°F16.9°C 60.4°F15.8°C 93% 3.1 mph WSW5.0 kmh WSW 6.9 mph11.1 kmh 29.54 in1000.3 mb 0.00 in0.0 mm 0.00 in/hr0.0 mm/hr 0.71 in18.0 mm
05:20 PM 62.2°F16.8°C 60.2°F15.7°C 93% 2.2 mph WSW3.5 kmh WSW 6.9 mph11.1 kmh 29.54 in1000.3 mb 0.00 in0.0 mm 0.00 in/hr0.0 mm/hr 0.71 in18.0 mm
05:21 PM 62.2°F16.8°C 60.2°F15.7°C 93% 5.4 mph W8.7 kmh W 6.0 mph9.7 kmh 29.54 in1000.3 mb 0.00 in0.0 mm 0.00 in/hr0.0 mm/hr 0.71 in18.0 mm
05:22 PM 62.2°F16.8°C 60.2°F15.7°C 93% 2.2 mph W3.5 kmh W 6.0 mph9.7 kmh 29.54 in1000.3 mb 0.00 in0.0 mm 0.00 in/hr0.0 mm/hr 0.71 in18.0 mm
05:23 PM 62.2°F16.8°C 60.2°F15.7°C 93% 3.1 mph WSW5.0 kmh WSW 6.0 mph9.7 kmh 29.54 in1000.3 mb 0.00 in0.0 mm 0.00 in/hr0.0 mm/hr 0.71 in18.0 mm
05:24 PM 62.2°F16.8°C 60.2°F15.7°C 93% 3.1 mph WSW5.0 kmh WSW 6.0 mph9.7 kmh 29.54 in1000.3 mb 0.00 in0.0 mm 0.00 in/hr0.0 mm/hr 0.71 in18.0 mm
05:25 PM 62.2°F16.8°C 60.2°F15.7°C 93% 2.2 mph WSW3.5 kmh WSW 6.0 mph9.7 kmh 29.54 in1000.3 mb 0.00 in0.0 mm 0.00 in/hr0.0 mm/hr 0.71 in18.0 mm
05:26 PM 62.4°F16.9°C 60.4°F15.8°C 93% 2.2 mph WSW3.5 kmh WSW 8.3 mph13.4 kmh 29.54 in1000.3 mb 0.00 in0.0 mm 0.00 in/hr0.0 mm/hr 0.71 in18.0 mm
05:27 PM 62.2°F16.8°C 60.2°F15.7°C 93% 3.8 mph WSW6.1 kmh WSW 8.3 mph13.4 kmh 29.54 in1000.3 mb 0.00 in0.0 mm 0.00 in/hr0.0 mm/hr 0.71 in18.0 mm
05:28 PM 62.2°F16.8°C 60.2°F15.7°C 93% 3.1 mph WSW5.0 kmh WSW 8.3 mph13.4 kmh 29.55 in1000.7 mb 0.00 in0.0 mm 0.00 in/hr0.0 mm/hr 0.71 in18.0 mm
05:29 PM 62.2°F16.8°C 60.2°F15.7°C 93% 2.2 mph WSW3.5 kmh WSW 8.3 mph13.4 kmh 29.54 in1000.3 mb 0.00 in0.0 mm 0.00 in/hr0.0 mm/hr 0.71 in18.0 mm
05:30 PM 62.2°F16.8°C 60.2°F15.7°C 93% 2.2 mph WSW3.5 kmh WSW 8.3 mph13.4 kmh 29.54 in1000.3 mb 0.00 in0.0 mm 0.00 in/hr0.0 mm/hr 0.71 in18.0 mm
05:31 PM 61.9°F16.6°C 59.9°F15.5°C 93% 2.2 mph WSW3.5 kmh WSW 8.3 mph13.4 kmh 29.54 in1000.3 mb 0.00 in0.0 mm 0.00 in/hr0.0 mm/hr 0.71 in18.0 mm
05:32 PM 61.9°F16.6°C 59.9°F15.5°C 93% 6.0 mph WSW9.7 kmh WSW 8.3 mph13.4 kmh 29.54 in1000.3 mb 0.00 in0.0 mm 0.00 in/hr0.0 mm/hr 0.71 in18.0 mm
05:33 PM 62.2°F16.8°C 60.2°F15.7°C 93% 3.8 mph WSW6.1 kmh WSW 8.3 mph13.4 kmh 29.54 in1000.3 mb 0.00 in0.0 mm 0.00 in/hr0.0 mm/hr 0.71 in18.0 mm
05:34 PM 62.2°F16.8°C 60.2°F15.7°C 93% 1.6 mph WSW2.6 kmh WSW 8.3 mph13.4 kmh 29.54 in1000.3 mb 0.00 in0.0 mm 0.00 in/hr0.0 mm/hr 0.71 in18.0 mm
05:35 PM 62.1°F16.7°C 60.0°F15.6°C 93% 2.2 mph WSW3.5 kmh WSW 8.3 mph13.4 kmh 29.54 in1000.3 mb 0.00 in0.0 mm 0.00 in/hr0.0 mm/hr 0.71 in18.0 mm
05:36 PM 61.9°F16.6°C 59.9°F15.5°C 93% 3.8 mph WSW6.1 kmh WSW 8.3 mph13.4 kmh 29.55 in1000.7 mb 0.00 in0.0 mm 0.00 in/hr0.0 mm/hr 0.71 in18.0 mm
05:37 PM 61.9°F16.6°C 59.9°F15.5°C 93% 2.2 mph WSW3.5 kmh WSW 8.3 mph13.4 kmh 29.55 in1000.7 mb 0.00 in0.0 mm 0.00 in/hr0.0 mm/hr 0.71 in18.0 mm
05:38 PM 61.7°F16.5°C 59.7°F15.4°C 93% 3.1 mph SW5.0 kmh SW 7.6 mph12.2 kmh 29.55 in1000.7 mb 0.00 in0.0 mm 0.00 in/hr0.0 mm/hr 0.71 in18.0 mm
05:39 PM 61.7°F16.5°C 59.7°F15.4°C 93% 2.2 mph WSW3.5 kmh WSW 7.6 mph12.2 kmh 29.55 in1000.7 mb 0.00 in0.0 mm 0.00 in/hr0.0 mm/hr 0.71 in18.0 mm
05:40 PM 61.7°F16.5°C 59.7°F15.4°C 93% 3.1 mph WSW5.0 kmh WSW 7.6 mph12.2 kmh 29.55 in1000.7 mb 0.00 in0.0 mm 0.00 in/hr0.0 mm/hr 0.71 in18.0 mm
05:41 PM 61.9°F16.6°C 59.9°F15.5°C 93% 0.7 mph WSW1.1 kmh WSW 7.6 mph12.2 kmh 29.55 in1000.7 mb 0.00 in0.0 mm 0.00 in/hr0.0 mm/hr 0.71 in18.0 mm
05:42 PM 61.7°F16.5°C 59.7°F15.4°C 93% 2.2 mph WSW3.5 kmh WSW 6.0 mph9.7 kmh 29.55 in1000.7 mb 0.00 in0.0 mm 0.00 in/hr0.0 mm/hr 0.71 in18.0 mm
05:43 PM 61.9°F16.6°C 59.9°F15.5°C 93% 1.6 mph WSW2.6 kmh WSW 5.4 mph8.7 kmh 29.55 in1000.7 mb 0.00 in0.0 mm 0.00 in/hr0.0 mm/hr 0.71 in18.0 mm
05:44 PM 61.5°F16.4°C 59.5°F15.3°C 93% 3.1 mph WSW5.0 kmh WSW 5.4 mph8.7 kmh 29.55 in1000.7 mb 0.00 in0.0 mm 0.00 in/hr0.0 mm/hr 0.71 in18.0 mm
05:45 PM 61.7°F16.5°C 59.7°F15.4°C 93% 2.2 mph WSW3.5 kmh WSW 5.4 mph8.7 kmh 29.55 in1000.7 mb 0.00 in0.0 mm 0.00 in/hr0.0 mm/hr 0.71 in18.0 mm
05:46 PM 61.7°F16.5°C 59.7°F15.4°C 93% 1.6 mph WSW2.6 kmh WSW 5.4 mph8.7 kmh 29.55 in1000.7 mb 0.00 in0.0 mm 0.00 in/hr0.0 mm/hr 0.71 in18.0 mm
05:47 PM 61.7°F16.5°C 59.7°F15.4°C 93% 1.6 mph WSW2.6 kmh WSW 5.4 mph8.7 kmh 29.55 in1000.7 mb 0.00 in0.0 mm 0.00 in/hr0.0 mm/hr 0.71 in18.0 mm
05:48 PM 61.7°F16.5°C 59.7°F15.4°C 93% 2.2 mph W3.5 kmh W 5.4 mph8.7 kmh 29.55 in1000.7 mb 0.00 in0.0 mm 0.00 in/hr0.0 mm/hr 0.71 in18.0 mm
05:49 PM 61.7°F16.5°C 59.7°F15.4°C 93% 2.2 mph WSW3.5 kmh WSW 4.5 mph7.2 kmh 29.55 in1000.7 mb 0.00 in0.0 mm 0.00 in/hr0.0 mm/hr 0.71 in18.0 mm
05:50 PM 61.5°F16.4°C 59.5°F15.3°C 93% 2.2 mph WSW3.5 kmh WSW 4.5 mph7.2 kmh 29.55 in1000.7 mb 0.00 in0.0 mm 0.00 in/hr0.0 mm/hr 0.71 in18.0 mm
05:51 PM 61.7°F16.5°C 59.7°F15.4°C 93% 1.6 mph WSW2.6 kmh WSW 4.5 mph7.2 kmh 29.55 in1000.7 mb 0.00 in0.0 mm 0.00 in/hr0.0 mm/hr 0.71 in18.0 mm
05:52 PM 61.5°F16.4°C 59.5°F15.3°C 93% 3.8 mph WSW6.1 kmh WSW 6.0 mph9.7 kmh 29.55 in1000.7 mb 0.00 in0.0 mm 0.00 in/hr0.0 mm/hr 0.71 in18.0 mm
05:53 PM 61.5°F16.4°C 59.5°F15.3°C 93% 2.2 mph WSW3.5 kmh WSW 6.0 mph9.7 kmh 29.55 in1000.7 mb 0.00 in0.0 mm 0.00 in/hr0.0 mm/hr 0.71 in18.0 mm
05:54 PM 61.5°F16.4°C 59.5°F15.3°C 93% 1.6 mph WSW2.6 kmh WSW 6.0 mph9.7 kmh 29.55 in1000.7 mb 0.00 in0.0 mm 0.00 in/hr0.0 mm/hr 0.71 in18.0 mm
05:55 PM 61.3°F16.3°C 59.3°F15.2°C 93% 2.2 mph WSW3.5 kmh WSW 6.0 mph9.7 kmh 29.55 in1000.7 mb 0.00 in0.0 mm 0.00 in/hr0.0 mm/hr 0.71 in18.0 mm
05:56 PM 61.2°F16.2°C 59.1°F15.1°C 93% 1.6 mph WSW2.6 kmh WSW 6.0 mph9.7 kmh 29.55 in1000.7 mb 0.00 in0.0 mm 0.00 in/hr0.0 mm/hr 0.71 in18.0 mm
05:57 PM 61.2°F16.2°C 59.1°F15.1°C 93% 3.1 mph WSW5.0 kmh WSW 6.0 mph9.7 kmh 29.56 in1001.0 mb 0.00 in0.0 mm 0.00 in/hr0.0 mm/hr 0.71 in18.0 mm
05:58 PM 61.7°F16.5°C 59.7°F15.4°C 93% 1.6 mph WSW2.6 kmh WSW 6.0 mph9.7 kmh 29.55 in1000.7 mb 0.00 in0.0 mm 0.00 in/hr0.0 mm/hr 0.71 in18.0 mm
05:59 PM 61.5°F16.4°C 59.5°F15.3°C 93% 1.6 mph WSW2.6 kmh WSW 6.0 mph9.7 kmh 29.55 in1000.7 mb 0.00 in0.0 mm 0.00 in/hr0.0 mm/hr 0.71 in18.0 mm
06:00 PM 61.2°F16.2°C 59.1°F15.1°C 93% 1.6 mph WSW2.6 kmh WSW 6.0 mph9.7 kmh 29.55 in1000.7 mb 0.00 in0.0 mm 0.00 in/hr0.0 mm/hr 0.71 in18.0 mm
06:01 PM 61.0°F16.1°C 58.7°F14.8°C 92% 2.2 mph WSW3.5 kmh WSW 6.0 mph9.7 kmh 29.55 in1000.7 mb 0.00 in0.0 mm 0.00 in/hr0.0 mm/hr 0.71 in18.0 mm
06:02 PM 61.2°F16.2°C 59.1°F15.1°C 93% 2.2 mph WSW3.5 kmh WSW 6.0 mph9.7 kmh 29.56 in1001.0 mb 0.00 in0.0 mm 0.00 in/hr0.0 mm/hr 0.71 in18.0 mm
06:03 PM 61.2°F16.2°C 59.1°F15.1°C 93% 2.2 mph WSW3.5 kmh WSW 5.4 mph8.7 kmh 29.56 in1001.0 mb 0.00 in0.0 mm 0.00 in/hr0.0 mm/hr 0.71 in18.0 mm
06:04 PM 61.0°F16.1°C 59.0°F15.0°C 93% 2.2 mph WSW3.5 kmh WSW 5.4 mph8.7 kmh 29.56 in1001.0 mb 0.00 in0.0 mm 0.00 in/hr0.0 mm/hr 0.71 in18.0 mm
06:05 PM 61.0°F16.1°C 59.0°F15.0°C 93% 2.2 mph WSW3.5 kmh WSW 5.4 mph8.7 kmh 29.56 in1001.0 mb 0.00 in0.0 mm 0.00 in/hr0.0 mm/hr 0.71 in18.0 mm
06:06 PM 61.0°F16.1°C 59.0°F15.0°C 93% 2.2 mph WSW3.5 kmh WSW 5.4 mph8.7 kmh 29.56 in1001.0 mb 0.00 in0.0 mm 0.00 in/hr0.0 mm/hr 0.71 in18.0 mm
06:07 PM 61.2°F16.2°C 59.1°F15.1°C 93% 3.8 mph WSW6.1 kmh WSW 6.9 mph11.1 kmh 29.56 in1001.0 mb 0.00 in0.0 mm 0.00 in/hr0.0 mm/hr 0.71 in18.0 mm
06:08 PM 61.5°F16.4°C 59.5°F15.3°C 93% 2.2 mph WSW3.5 kmh WSW 6.9 mph11.1 kmh 29.56 in1001.0 mb 0.00 in0.0 mm 0.00 in/hr0.0 mm/hr 0.71 in18.0 mm
06:09 PM 61.3°F16.3°C 59.3°F15.2°C 93% 1.6 mph WSW2.6 kmh WSW 6.9 mph11.1 kmh 29.56 in1001.0 mb 0.00 in0.0 mm 0.00 in/hr0.0 mm/hr 0.71 in18.0 mm
06:10 PM 61.2°F16.2°C 59.1°F15.1°C 93% 3.1 mph WSW5.0 kmh WSW 6.9 mph11.1 kmh 29.56 in1001.0 mb 0.00 in0.0 mm 0.00 in/hr0.0 mm/hr 0.71 in18.0 mm
06:11 PM 61.2°F16.2°C 59.1°F15.1°C 93% 2.2 mph WSW3.5 kmh WSW 6.9 mph11.1 kmh 29.56 in1001.0 mb 0.00 in0.0 mm 0.00 in/hr0.0 mm/hr 0.71 in18.0 mm
06:12 PM 61.2°F16.2°C 59.1°F15.1°C 93% 1.6 mph WSW2.6 kmh WSW 6.9 mph11.1 kmh 29.56 in1001.0 mb 0.00 in0.0 mm 0.00 in/hr0.0 mm/hr 0.71 in18.0 mm
06:13 PM 61.0°F16.1°C 59.0°F15.0°C 93% 0.7 mph WSW1.1 kmh WSW 6.9 mph11.1 kmh 29.56 in1001.0 mb 0.00 in0.0 mm 0.00 in/hr0.0 mm/hr 0.71 in18.0 mm
06:14 PM 61.2°F16.2°C 59.1°F15.1°C 93% 3.1 mph WSW5.0 kmh WSW 6.9 mph11.1 kmh 29.56 in1001.0 mb 0.00 in0.0 mm 0.00 in/hr0.0 mm/hr 0.71 in18.0 mm
06:15 PM 61.3°F16.3°C 59.3°F15.2°C 93% 3.1 mph WSW5.0 kmh WSW 6.9 mph11.1 kmh 29.56 in1001.0 mb 0.00 in0.0 mm 0.00 in/hr0.0 mm/hr 0.71 in18.0 mm
06:16 PM 61.3°F16.3°C 59.3°F15.2°C 93% 2.2 mph WSW3.5 kmh WSW 6.9 mph11.1 kmh 29.56 in1001.0 mb 0.00 in0.0 mm 0.00 in/hr0.0 mm/hr 0.71 in18.0 mm
06:17 PM 61.3°F16.3°C 59.0°F15.0°C 92% 2.2 mph WSW3.5 kmh WSW 6.9 mph11.1 kmh 29.56 in1001.0 mb 0.00 in0.0 mm 0.00 in/hr0.0 mm/hr 0.71 in18.0 mm
06:18 PM 61.2°F16.2°C 58.8°F14.9°C 92% 2.2 mph WSW3.5 kmh WSW 6.0 mph9.7 kmh 29.57 in1001.4 mb 0.00 in0.0 mm 0.00 in/hr0.0 mm/hr 0.71 in18.0 mm
06:19 PM 61.3°F16.3°C 59.0°F15.0°C 92% 2.2 mph WSW3.5 kmh WSW 6.0 mph9.7 kmh 29.56 in1001.0 mb 0.00 in0.0 mm 0.00 in/hr0.0 mm/hr 0.71 in18.0 mm
06:20 PM 61.3°F16.3°C 59.0°F15.0°C 92% 1.6 mph WSW2.6 kmh WSW 6.0 mph9.7 kmh 29.56 in1001.0 mb 0.00 in0.0 mm 0.00 in/hr0.0 mm/hr 0.71 in18.0 mm
06:21 PM 61.2°F16.2°C 58.8°F14.9°C 92% 3.1 mph WSW5.0 kmh WSW 6.0 mph9.7 kmh 29.56 in1001.0 mb 0.00 in0.0 mm 0.00 in/hr0.0 mm/hr 0.71 in18.0 mm
06:22 PM 61.2°F16.2°C 58.8°F14.9°C 92% 0.7 mph WSW1.1 kmh WSW 6.0 mph9.7 kmh 29.57 in1001.4 mb 0.00 in0.0 mm 0.00 in/hr0.0 mm/hr 0.71 in18.0 mm
06:23 PM 61.0°F16.1°C 58.7°F14.8°C 92% 0.7 mph WSW1.1 kmh WSW 6.0 mph9.7 kmh 29.56 in1001.0 mb 0.00 in0.0 mm 0.00 in/hr0.0 mm/hr 0.71 in18.0 mm
06:24 PM 60.8°F16.0°C 58.5°F14.7°C 92% 0.7 mph WSW1.1 kmh WSW 6.0 mph9.7 kmh 29.57 in1001.4 mb 0.00 in0.0 mm 0.00 in/hr0.0 mm/hr 0.71 in18.0 mm
06:25 PM 60.6°F15.9°C 58.6°F14.8°C 93% 0.7 mph WSW1.1 kmh WSW 6.0 mph9.7 kmh 29.57 in1001.4 mb 0.00 in0.0 mm 0.00 in/hr0.0 mm/hr 0.71 in18.0 mm
06:26 PM 60.4°F15.8°C 58.4°F14.7°C 93% 1.6 mph WSW2.6 kmh WSW 5.4 mph8.7 kmh 29.56 in1001.0 mb 0.00 in0.0 mm 0.00 in/hr0.0 mm/hr 0.71 in18.0 mm
06:27 PM 60.6°F15.9°C 59.2°F15.1°C 95% 0.7 mph WSW1.1 kmh WSW 5.4 mph8.7 kmh 29.57 in1001.4 mb 0.00 in0.0 mm 0.00 in/hr0.0 mm/hr 0.71 in18.0 mm
06:28 PM 60.4°F15.8°C 59.0°F15.0°C 95% Calm Calm 4.5 mph7.2 kmh 29.56 in1001.0 mb 0.00 in0.0 mm 0.00 in/hr0.0 mm/hr 0.71 in18.0 mm
06:29 PM 60.3°F15.7°C 58.8°F14.9°C 95% Calm Calm 4.5 mph7.2 kmh 29.57 in1001.4 mb 0.00 in0.0 mm 0.00 in/hr0.0 mm/hr 0.71 in18.0 mm
06:30 PM 60.3°F15.7°C 58.8°F14.9°C 95% 0.7 mph WSW1.1 kmh WSW 4.5 mph7.2 kmh 29.56 in1001.0 mb 0.00 in0.0 mm 0.00 in/hr0.0 mm/hr 0.71 in18.0 mm
06:31 PM 60.1°F15.6°C 58.7°F14.8°C 95% 3.1 mph WSW5.0 kmh WSW 3.8 mph6.1 kmh 29.56 in1001.0 mb 0.00 in0.0 mm 0.00 in/hr0.0 mm/hr 0.71 in18.0 mm
06:32 PM 60.4°F15.8°C 59.0°F15.0°C 95% 0.7 mph WSW1.1 kmh WSW 3.8 mph6.1 kmh 29.56 in1001.0 mb 0.00 in0.0 mm 0.00 in/hr0.0 mm/hr 0.71 in18.0 mm
06:33 PM 60.3°F15.7°C 58.8°F14.9°C 95% 0.7 mph WSW1.1 kmh WSW 3.8 mph6.1 kmh 29.57 in1001.4 mb 0.00 in0.0 mm 0.00 in/hr0.0 mm/hr 0.71 in18.0 mm
06:34 PM 60.6°F15.9°C 59.2°F15.1°C 95% 1.6 mph WSW2.6 kmh WSW 3.8 mph6.1 kmh 29.56 in1001.0 mb 0.00 in0.0 mm 0.00 in/hr0.0 mm/hr 0.71 in18.0 mm
06:35 PM 60.4°F15.8°C 59.0°F15.0°C 95% 1.6 mph WSW2.6 kmh WSW 4.5 mph7.2 kmh 29.57 in1001.4 mb 0.00 in0.0 mm 0.00 in/hr0.0 mm/hr 0.71 in18.0 mm
06:36 PM 60.4°F15.8°C 59.0°F15.0°C 95% Calm Calm 4.5 mph7.2 kmh 29.57 in1001.4 mb 0.00 in0.0 mm 0.00 in/hr0.0 mm/hr 0.71 in18.0 mm
06:37 PM 60.3°F15.7°C 58.8°F14.9°C 95% 1.6 mph WSW2.6 kmh WSW 4.5 mph7.2 kmh 29.57 in1001.4 mb 0.00 in0.0 mm 0.00 in/hr0.0 mm/hr 0.71 in18.0 mm
06:38 PM 60.3°F15.7°C 58.8°F14.9°C 95% 1.6 mph SW2.6 kmh SW 4.5 mph7.2 kmh 29.57 in1001.4 mb 0.00 in0.0 mm 0.00 in/hr0.0 mm/hr 0.71 in18.0 mm
06:39 PM 60.3°F15.7°C 59.1°F15.1°C 96% 2.2 mph WSW3.5 kmh WSW 4.5 mph7.2 kmh 29.57 in1001.4 mb 0.00 in0.0 mm 0.00 in/hr0.0 mm/hr 0.71 in18.0 mm
06:40 PM 60.4°F15.8°C 59.3°F15.2°C 96% 1.6 mph SW2.6 kmh SW 4.5 mph7.2 kmh 29.57 in1001.4 mb 0.00 in0.0 mm 0.00 in/hr0.0 mm/hr 0.71 in18.0 mm
06:41 PM 60.3°F15.7°C 59.1°F15.1°C 96% 0.7 mph WSW1.1 kmh WSW 4.5 mph7.2 kmh 29.57 in1001.4 mb 0.00 in0.0 mm 0.00 in/hr0.0 mm/hr 0.71 in18.0 mm
06:42 PM 60.3°F15.7°C 59.1°F15.1°C 96% 0.7 mph WSW1.1 kmh WSW 4.5 mph7.2 kmh 29.57 in1001.4 mb 0.00 in0.0 mm 0.00 in/hr0.0 mm/hr 0.71 in18.0 mm
06:43 PM 60.1°F15.6°C 59.0°F15.0°C 96% 0.7 mph WSW1.1 kmh WSW 4.5 mph7.2 kmh 29.57 in1001.4 mb 0.00 in0.0 mm 0.00 in/hr0.0 mm/hr 0.71 in18.0 mm
06:44 PM 59.9°F15.5°C 58.8°F14.9°C 96% 1.6 mph SW2.6 kmh SW 4.5 mph7.2 kmh 29.57 in1001.4 mb 0.00 in0.0 mm 0.00 in/hr0.0 mm/hr 0.71 in18.0 mm
06:45 PM 60.1°F15.6°C 59.0°F15.0°C 96% 0.7 mph SW1.1 kmh SW 4.5 mph7.2 kmh 29.57 in1001.4 mb 0.00 in0.0 mm 0.00 in/hr0.0 mm/hr 0.71 in18.0 mm
06:46 PM 59.9°F15.5°C 58.8°F14.9°C 96% 2.2 mph SW3.5 kmh SW 4.5 mph7.2 kmh 29.57 in1001.4 mb 0.00 in0.0 mm 0.00 in/hr0.0 mm/hr 0.71 in18.0 mm
06:47 PM 60.3°F15.7°C 59.1°F15.1°C 96% 1.6 mph SW2.6 kmh SW 4.5 mph7.2 kmh 29.57 in1001.4 mb 0.00 in0.0 mm 0.00 in/hr0.0 mm/hr 0.71 in18.0 mm
06:48 PM 60.1°F15.6°C 59.0°F15.0°C 96% 1.6 mph SW2.6 kmh SW 4.5 mph7.2 kmh 29.57 in1001.4 mb 0.00 in0.0 mm 0.00 in/hr0.0 mm/hr 0.71 in18.0 mm
06:49 PM 60.1°F15.6°C 59.0°F15.0°C 96% 2.2 mph SW3.5 kmh SW 4.5 mph7.2 kmh 29.57 in1001.4 mb 0.00 in0.0 mm 0.00 in/hr0.0 mm/hr 0.71 in18.0 mm
06:50 PM 60.1°F15.6°C 59.0°F15.0°C 96% 1.6 mph WSW2.6 kmh WSW 4.5 mph7.2 kmh 29.57 in1001.4 mb 0.00 in0.0 mm 0.00 in/hr0.0 mm/hr 0.71 in18.0 mm
06:51 PM 60.1°F15.6°C 59.0°F15.0°C 96% 0.7 mph WSW1.1 kmh WSW 4.5 mph7.2 kmh 29.57 in1001.4 mb 0.00 in0.0 mm 0.00 in/hr0.0 mm/hr 0.71 in18.0 mm
06:52 PM 60.1°F15.6°C 59.0°F15.0°C 96% 0.7 mph WSW1.1 kmh WSW 4.5 mph7.2 kmh 29.57 in1001.4 mb 0.00 in0.0 mm 0.00 in/hr0.0 mm/hr 0.71 in18.0 mm
06:53 PM 60.1°F15.6°C 59.0°F15.0°C 96% 2.2 mph WSW3.5 kmh WSW 4.5 mph7.2 kmh 29.57 in1001.4 mb 0.00 in0.0 mm 0.00 in/hr0.0 mm/hr 0.71 in18.0 mm
06:54 PM 60.1°F15.6°C 59.0°F15.0°C 96% 2.2 mph WSW3.5 kmh WSW 5.4 mph8.7 kmh 29.57 in1001.4 mb 0.00 in0.0 mm 0.00 in/hr0.0 mm/hr 0.71 in18.0 mm
06:55 PM 60.1°F15.6°C 59.0°F15.0°C 96% 1.6 mph WSW2.6 kmh WSW 5.4 mph8.7 kmh 29.57 in1001.4 mb 0.00 in0.0 mm 0.00 in/hr0.0 mm/hr 0.71 in18.0 mm
06:56 PM 60.1°F15.6°C 59.0°F15.0°C 96% 1.6 mph WSW2.6 kmh WSW 5.4 mph8.7 kmh 29.57 in1001.4 mb 0.00 in0.0 mm 0.00 in/hr0.0 mm/hr 0.71 in18.0 mm
06:57 PM 59.9°F15.5°C 58.8°F14.9°C 96% 1.6 mph WSW2.6 kmh WSW 5.4 mph8.7 kmh 29.57 in1001.4 mb 0.00 in0.0 mm 0.00 in/hr0.0 mm/hr 0.71 in18.0 mm
06:58 PM 59.9°F15.5°C 58.8°F14.9°C 96% 0.7 mph WSW1.1 kmh WSW 5.4 mph8.7 kmh 29.57 in1001.4 mb 0.00 in0.0 mm 0.00 in/hr0.0 mm/hr 0.71 in18.0 mm
06:59 PM 59.9°F15.5°C 58.8°F14.9°C 96% 1.6 mph WSW2.6 kmh WSW 5.4 mph8.7 kmh 29.57 in1001.4 mb 0.00 in0.0 mm 0.00 in/hr0.0 mm/hr 0.71 in18.0 mm
07:00 PM 59.9°F15.5°C 58.8°F14.9°C 96% 2.2 mph WSW3.5 kmh WSW 5.4 mph8.7 kmh 29.57 in1001.4 mb 0.00 in0.0 mm 0.00 in/hr0.0 mm/hr 0.71 in18.0 mm
07:01 PM 59.9°F15.5°C 58.8°F14.9°C 96% 2.2 mph WSW3.5 kmh WSW 5.4 mph8.7 kmh 29.57 in1001.4 mb 0.00 in0.0 mm 0.00 in/hr0.0 mm/hr 0.71 in18.0 mm
07:02 PM 59.9°F15.5°C 58.8°F14.9°C 96% 0.7 mph WSW1.1 kmh WSW 5.4 mph8.7 kmh 29.57 in1001.4 mb 0.00 in0.0 mm 0.00 in/hr0.0 mm/hr 0.71 in18.0 mm
07:03 PM 59.7°F15.4°C 58.6°F14.8°C 96% 1.6 mph WSW2.6 kmh WSW 5.4 mph8.7 kmh 29.57 in1001.4 mb 0.00 in0.0 mm 0.00 in/hr0.0 mm/hr 0.71 in18.0 mm
07:04 PM 59.7°F15.4°C 58.6°F14.8°C 96% 1.6 mph WSW2.6 kmh WSW 5.4 mph8.7 kmh 29.57 in1001.4 mb 0.00 in0.0 mm 0.00 in/hr0.0 mm/hr 0.71 in18.0 mm
07:05 PM 59.9°F15.5°C 58.8°F14.9°C 96% 2.2 mph WSW3.5 kmh WSW 5.4 mph8.7 kmh 29.57 in1001.4 mb 0.00 in0.0 mm 0.00 in/hr0.0 mm/hr 0.71 in18.0 mm
07:06 PM 60.1°F15.6°C 59.0°F15.0°C 96% 2.2 mph WSW3.5 kmh WSW 5.4 mph8.7 kmh 29.57 in1001.4 mb 0.00 in0.0 mm 0.00 in/hr0.0 mm/hr 0.71 in18.0 mm
07:07 PM 60.4°F15.8°C 59.3°F15.2°C 96% 3.1 mph WSW5.0 kmh WSW 5.4 mph8.7 kmh 29.57 in1001.4 mb 0.00 in0.0 mm 0.00 in/hr0.0 mm/hr 0.71 in18.0 mm
07:08 PM 60.4°F15.8°C 59.3°F15.2°C 96% 3.1 mph WSW5.0 kmh WSW 5.4 mph8.7 kmh 29.57 in1001.4 mb 0.00 in0.0 mm 0.00 in/hr0.0 mm/hr 0.71 in18.0 mm
07:09 PM 60.8°F16.0°C 59.4°F15.2°C 95% 2.2 mph WSW3.5 kmh WSW 5.4 mph8.7 kmh 29.57 in1001.4 mb 0.00 in0.0 mm 0.00 in/hr0.0 mm/hr 0.71 in18.0 mm
07:10 PM 60.8°F16.0°C 59.4°F15.2°C 95% 1.6 mph WSW2.6 kmh WSW 5.4 mph8.7 kmh 29.57 in1001.4 mb 0.00 in0.0 mm 0.00 in/hr0.0 mm/hr 0.71 in18.0 mm
07:11 PM 60.6°F15.9°C 59.2°F15.1°C 95% 4.5 mph WSW7.2 kmh WSW 7.6 mph12.2 kmh 29.57 in1001.4 mb 0.00 in0.0 mm 0.00 in/hr0.0 mm/hr 0.71 in18.0 mm
07:12 PM 60.8°F16.0°C 58.8°F14.9°C 93% 1.6 mph WSW2.6 kmh WSW 7.6 mph12.2 kmh 29.57 in1001.4 mb 0.00 in0.0 mm 0.00 in/hr0.0 mm/hr 0.71 in18.0 mm
07:13 PM 60.6°F15.9°C 59.2°F15.1°C 95% 3.1 mph WSW5.0 kmh WSW 7.6 mph12.2 kmh 29.57 in1001.4 mb 0.00 in0.0 mm 0.00 in/hr0.0 mm/hr 0.71 in18.0 mm
07:14 PM 60.6°F15.9°C 59.2°F15.1°C 95% 2.2 mph WSW3.5 kmh WSW 7.6 mph12.2 kmh 29.57 in1001.4 mb 0.00 in0.0 mm 0.00 in/hr0.0 mm/hr 0.71 in18.0 mm
07:15 PM 60.6°F15.9°C 59.2°F15.1°C 95% 3.1 mph WSW5.0 kmh WSW 7.6 mph12.2 kmh 29.57 in1001.4 mb 0.00 in0.0 mm 0.00 in/hr0.0 mm/hr 0.71 in18.0 mm
07:16 PM 60.8°F16.0°C 58.8°F14.9°C 93% 3.1 mph W5.0 kmh W 7.6 mph12.2 kmh 29.57 in1001.4 mb 0.00 in0.0 mm 0.00 in/hr0.0 mm/hr 0.71 in18.0 mm
07:17 PM 60.8°F16.0°C 58.8°F14.9°C 93% 3.1 mph W5.0 kmh W 8.3 mph13.4 kmh 29.57 in1001.4 mb 0.00 in0.0 mm